Caddo River (Arkansas), Caddo Gap (07359610)

StateArkansasLatestPoor (76 cfs)
RiverCaddo RiverRatingObservedEstimated
Updated2020-08-06 9:45 (32 minutes ago)Flood - The river is flooding. Obstacles can be treacherous or deadly. The river should be avoided at this stage for casual trips and definitely for the inexperienced. Trips should be attempted only with protective gear and equipment.Flood(none)916
Discharge76 cfs (median: 52 cfs)High - The river is high and potentially dangerous, especially for the young and / or inexperienced. Normal stream obstacles are sometimes difficult to navigate. Extended distances can be attempted, but canoe travel may not be advisable.High(none)314
Height5.02 feetGood - Conditions are ideal for a canoe or kayak. Boats typically will drag on fewer than one-quarter of riffles, if at all, and portages are unnecessary or rare. Normal float lengths can be attempted without a problem.Good(none)164
TrendFalling (steady over 24 hours)Low - River is low but can still be floated. Some riffles are okay but most come with significant dragging and might need a portage. Float lengths should be reduced to accommodate low flow, dragging, and portages.Low(none)104
USGSExternal icon USGS Site (External icon Google Maps)Poor - River is too low to float comfortably. Most or all riffles will drag or must be portaged and some obstacles (such as slick shelf rock) cause undue problems. Avoid the river at this stage for casual paddling trips.Poor(none)47

Trending Data

Plot Image

Trips for Caddo River (Arkansas), Caddo Gap (07359610)

DateStartEndDistanceConditionDischargeHeightFishingDetails
Click for details2017-11-12 Glenwood Caddo River Cabins Total trip distance: 3.3 miles3.3 Good 40 4.84 Fair KSB
LMB
SMB
KSB, LMB, SMB
Fillmore, Brian
Fillmore, Rebecca
Fillmore, Vivien
Javorsek, Rachel
Fillmore, Brian; Fillmore, Rebecca; Fillmore, Vivien; Javorsek, Rachel
Vivien's maiden voyage!Vivien's maiden voyage! USGS Gauge Data:
Caddo Gap (07359610)
Discharge: 40
Height: 4.84
<b>USGS Gauge Data:</b></br />Caddo Gap (07359610)<br />Discharge: 40<br />Height: 4.84
Source: FillmoreSource: Fillmore

A total of 1 rows are displayed.

Trip Summary for Caddo River (Arkansas), Caddo Gap (07359610)

Miles3.3
Trips1
People4
Dates1
Years1
Months1
Rows1
Sources1

Condition Descriptions

Fishing Conditions

Fish Species

Notes

Classic Trip List

The classic River Trips application is still available for use. It is updated with the new system using a data retrofit. It is no longer maintained. The original River Trips application is no longer updated (as of 1 Dec 2016) but can be checked for errors or for the condition of the data before it was converted to the new system.

Gauge Data Table

ObservationHeightDischargeMaximum
Discharge
Minimum
Discharge
Mean
Discharge
P05P10P20P25P50
(Median)
P75P80P90P95
2020-08-06 09:45 5.02 76 274 (1994) 17 (2012) 69 18 26 31 33 52 83 109 124 238
2020-08-06 08:45 5.04 79 274 (1994) 17 (2012) 69 18 26 31 33 52 83 109 124 238
2020-08-06 07:45 5.04 79 274 (1994) 17 (2012) 69 18 26 31 33 52 83 109 124 238
2020-08-06 06:45 5.04 79 274 (1994) 17 (2012) 69 18 26 31 33 52 83 109 124 238
2020-08-06 05:45 5.03 78 274 (1994) 17 (2012) 69 18 26 31 33 52 83 109 124 238
2020-08-06 04:45 5.04 79 274 (1994) 17 (2012) 69 18 26 31 33 52 83 109 124 238
2020-08-06 03:45 5.04 79 274 (1994) 17 (2012) 69 18 26 31 33 52 83 109 124 238
2020-08-06 02:45 5.04 79 274 (1994) 17 (2012) 69 18 26 31 33 52 83 109 124 238
2020-08-06 01:45 5.03 78 274 (1994) 17 (2012) 69 18 26 31 33 52 83 109 124 238
2020-08-06 00:45 5.03 78 274 (1994) 17 (2012) 69 18 26 31 33 52 83 109 124 238
2020-08-05 23:45 5.04 79 873 (1994) 13 (2012) 88 18 27 33 35 50 72 77 138 569
2020-08-05 22:45 5.03 78 873 (1994) 13 (2012) 88 18 27 33 35 50 72 77 138 569
2020-08-05 21:45 5.03 78 873 (1994) 13 (2012) 88 18 27 33 35 50 72 77 138 569
2020-08-05 20:45 5.03 78 873 (1994) 13 (2012) 88 18 27 33 35 50 72 77 138 569
2020-08-05 19:45 5.03 78 873 (1994) 13 (2012) 88 18 27 33 35 50 72 77 138 569
2020-08-05 18:45 5.03 78 873 (1994) 13 (2012) 88 18 27 33 35 50 72 77 138 569
2020-08-05 17:45 5.04 79 873 (1994) 13 (2012) 88 18 27 33 35 50 72 77 138 569
2020-08-05 16:45 5.04 79 873 (1994) 13 (2012) 88 18 27 33 35 50 72 77 138 569
2020-08-05 15:45 5.03 78 873 (1994) 13 (2012) 88 18 27 33 35 50 72 77 138 569
2020-08-05 14:45 5.03 78 873 (1994) 13 (2012) 88 18 27 33 35 50 72 77 138 569
2020-08-05 13:45 5.03 78 873 (1994) 13 (2012) 88 18 27 33 35 50 72 77 138 569
2020-08-05 12:45 5.03 78 873 (1994) 13 (2012) 88 18 27 33 35 50 72 77 138 569
2020-08-05 11:45 5.02 76 873 (1994) 13 (2012) 88 18 27 33 35 50 72 77 138 569
2020-08-05 10:45 5.03 78 873 (1994) 13 (2012) 88 18 27 33 35 50 72 77 138 569
2020-08-05 09:45 5.02 76 873 (1994) 13 (2012) 88 18 27 33 35 50 72 77 138 569
2020-08-05 08:45 5.02 76 873 (1994) 13 (2012) 88 18 27 33 35 50 72 77 138 569
2020-08-05 07:45 5.02 76 873 (1994) 13 (2012) 88 18 27 33 35 50 72 77 138 569
2020-08-05 06:45 5.02 76 873 (1994) 13 (2012) 88 18 27 33 35 50 72 77 138 569
2020-08-05 05:45 5.02 76 873 (1994) 13 (2012) 88 18 27 33 35 50 72 77 138 569
2020-08-05 04:45 5.03 78 873 (1994) 13 (2012) 88 18 27 33 35 50 72 77 138 569
2020-08-05 03:45 5.03 78 873 (1994) 13 (2012) 88 18 27 33 35 50 72 77 138 569
2020-08-05 02:45 5.02 76 873 (1994) 13 (2012) 88 18 27 33 35 50 72 77 138 569
2020-08-05 01:45 5.03 78 873 (1994) 13 (2012) 88 18 27 33 35 50 72 77 138 569
2020-08-05 00:45 5.03 78 873 (1994) 13 (2012) 88 18 27 33 35 50 72 77 138 569
2020-08-04 23:45 5.02 76 281 (2009) 14 (2012) 68 20 26 32 34 50 72 85 122 272
2020-08-04 22:45 5.01 75 281 (2009) 14 (2012) 68 20 26 32 34 50 72 85 122 272
2020-08-04 21:45 5.01 75 281 (2009) 14 (2012) 68 20 26 32 34 50 72 85 122 272
2020-08-04 20:45 5.02 76 281 (2009) 14 (2012) 68 20 26 32 34 50 72 85 122 272
2020-08-04 19:45 5.02 76 281 (2009) 14 (2012) 68 20 26 32 34 50 72 85 122 272
2020-08-04 18:45 5.01 75 281 (2009) 14 (2012) 68 20 26 32 34 50 72 85 122 272
2020-08-04 17:45 5.02 76 281 (2009) 14 (2012) 68 20 26 32 34 50 72 85 122 272
2020-08-04 16:45 5.03 78 281 (2009) 14 (2012) 68 20 26 32 34 50 72 85 122 272
2020-08-04 15:45 5.03 78 281 (2009) 14 (2012) 68 20 26 32 34 50 72 85 122 272
2020-08-04 14:45 5.03 78 281 (2009) 14 (2012) 68 20 26 32 34 50 72 85 122 272
2020-08-04 13:45 5.03 78 281 (2009) 14 (2012) 68 20 26 32 34 50 72 85 122 272
2020-08-04 12:45 5.04 79 281 (2009) 14 (2012) 68 20 26 32 34 50 72 85 122 272
2020-08-04 11:45 5.04 79 281 (2009) 14 (2012) 68 20 26 32 34 50 72 85 122 272
2020-08-04 10:45 5.05 81 281 (2009) 14 (2012) 68 20 26 32 34 50 72 85 122 272
2020-08-04 09:45 5.03 78 281 (2009) 14 (2012) 68 20 26 32 34 50 72 85 122 272
2020-08-04 08:45 5.04 79 281 (2009) 14 (2012) 68 20 26 32 34 50 72 85 122 272
2020-08-04 07:45 5.04 79 281 (2009) 14 (2012) 68 20 26 32 34 50 72 85 122 272
2020-08-04 06:45 5.04 79 281 (2009) 14 (2012) 68 20 26 32 34 50 72 85 122 272
2020-08-04 05:45 5.04 79 281 (2009) 14 (2012) 68 20 26 32 34 50 72 85 122 272
2020-08-04 04:45 5.04 79 281 (2009) 14 (2012) 68 20 26 32 34 50 72 85 122 272
2020-08-04 03:45 5.05 81 281 (2009) 14 (2012) 68 20 26 32 34 50 72 85 122 272
2020-08-04 02:45 5.05 81 281 (2009) 14 (2012) 68 20 26 32 34 50 72 85 122 272
2020-08-04 01:45 5.04 79 281 (2009) 14 (2012) 68 20 26 32 34 50 72 85 122 272
2020-08-04 00:45 5.04 79 281 (2009) 14 (2012) 68 20 26 32 34 50 72 85 122 272
2020-08-03 23:45 5.04 79 449 (2009) 15 (2012) 76 17 28 33 35 47 74 85 125 391
2020-08-03 22:45 5.05 81 449 (2009) 15 (2012) 76 17 28 33 35 47 74 85 125 391
2020-08-03 21:45 5.04 79 449 (2009) 15 (2012) 76 17 28 33 35 47 74 85 125 391
2020-08-03 20:45 5.05 81 449 (2009) 15 (2012) 76 17 28 33 35 47 74 85 125 391
2020-08-03 19:45 5.05 81 449 (2009) 15 (2012) 76 17 28 33 35 47 74 85 125 391
2020-08-03 18:45 5.05 81 449 (2009) 15 (2012) 76 17 28 33 35 47 74 85 125 391
2020-08-03 17:45 5.05 81 449 (2009) 15 (2012) 76 17 28 33 35 47 74 85 125 391
2020-08-03 16:45 5.06 82 449 (2009) 15 (2012) 76 17 28 33 35 47 74 85 125 391
2020-08-03 15:45 5.07 84 449 (2009) 15 (2012) 76 17 28 33 35 47 74 85 125 391
2020-08-03 14:45 5.06 82 449 (2009) 15 (2012) 76 17 28 33 35 47 74 85 125 391
2020-08-03 13:45 5.09 87 449 (2009) 15 (2012) 76 17 28 33 35 47 74 85 125 391
2020-08-03 12:45 5.11 90 449 (2009) 15 (2012) 76 17 28 33 35 47 74 85 125 391
2020-08-03 11:45 5.08 85 449 (2009) 15 (2012) 76 17 28 33 35 47 74 85 125 391
2020-08-03 10:45 5.08 85 449 (2009) 15 (2012) 76 17 28 33 35 47 74 85 125 391
2020-08-03 09:45 5.08 85 449 (2009) 15 (2012) 76 17 28 33 35 47 74 85 125 391
2020-08-03 08:45 5.08 85 449 (2009) 15 (2012) 76 17 28 33 35 47 74 85 125 391
2020-08-03 07:45 5.08 85 449 (2009) 15 (2012) 76 17 28 33 35 47 74 85 125 391
2020-08-03 06:45 5.08 85 449 (2009) 15 (2012) 76 17 28 33 35 47 74 85 125 391
2020-08-03 05:45 5.09 87 449 (2009) 15 (2012) 76 17 28 33 35 47 74 85 125 391
2020-08-03 04:45 5.09 87 449 (2009) 15 (2012) 76 17 28 33 35 47 74 85 125 391
2020-08-03 03:45 5.08 85 449 (2009) 15 (2012) 76 17 28 33 35 47 74 85 125 391
2020-08-03 02:45 5.07 84 449 (2009) 15 (2012) 76 17 28 33 35 47 74 85 125 391
2020-08-03 01:45 5.09 87 449 (2009) 15 (2012) 76 17 28 33 35 47 74 85 125 391
2020-08-03 00:45 5.08 85 449 (2009) 15 (2012) 76 17 28 33 35 47 74 85 125 391
2020-08-02 23:45 5.09 87 963 (2009) 16 (2012) 103 18 27 34 37 53 92 104 141 704
2020-08-02 22:45 5.08 85 963 (2009) 16 (2012) 103 18 27 34 37 53 92 104 141 704
2020-08-02 21:45 5.08 85 963 (2009) 16 (2012) 103 18 27 34 37 53 92 104 141 704
2020-08-02 20:45 5.08 85 963 (2009) 16 (2012) 103 18 27 34 37 53 92 104 141 704
2020-08-02 19:45 5.08 85 963 (2009) 16 (2012) 103 18 27 34 37 53 92 104 141 704
2020-08-02 18:45 5.09 87 963 (2009) 16 (2012) 103 18 27 34 37 53 92 104 141 704
2020-08-02 17:45 5.09 87 963 (2009) 16 (2012) 103 18 27 34 37 53 92 104 141 704
2020-08-02 16:45 5.10 89 963 (2009) 16 (2012) 103 18 27 34 37 53 92 104 141 704
2020-08-02 15:45 5.09 87 963 (2009) 16 (2012) 103 18 27 34 37 53 92 104 141 704
2020-08-02 14:45 5.10 89 963 (2009) 16 (2012) 103 18 27 34 37 53 92 104 141 704
2020-08-02 13:45 5.09 87 963 (2009) 16 (2012) 103 18 27 34 37 53 92 104 141 704
2020-08-02 12:45 5.09 87 963 (2009) 16 (2012) 103 18 27 34 37 53 92 104 141 704
2020-08-02 11:45 5.08 85 963 (2009) 16 (2012) 103 18 27 34 37 53 92 104 141 704
2020-08-02 10:45 5.09 87 963 (2009) 16 (2012) 103 18 27 34 37 53 92 104 141 704
2020-08-02 09:45 5.09 87 963 (2009) 16 (2012) 103 18 27 34 37 53 92 104 141 704
2020-08-02 08:45 5.09 87 963 (2009) 16 (2012) 103 18 27 34 37 53 92 104 141 704
2020-08-02 07:45 5.08 85 963 (2009) 16 (2012) 103 18 27 34 37 53 92 104 141 704
2020-08-02 06:45 5.08 85 963 (2009) 16 (2012) 103 18 27 34 37 53 92 104 141 704
2020-08-02 05:45 5.08 85 963 (2009) 16 (2012) 103 18 27 34 37 53 92 104 141 704
2020-08-02 04:45 5.08 85 963 (2009) 16 (2012) 103 18 27 34 37 53 92 104 141 704
2020-08-02 03:45 5.10 89 963 (2009) 16 (2012) 103 18 27 34 37 53 92 104 141 704
2020-08-02 02:45 5.09 87 963 (2009) 16 (2012) 103 18 27 34 37 53 92 104 141 704
2020-08-02 01:45 5.10 89 963 (2009) 16 (2012) 103 18 27 34 37 53 92 104 141 704
2020-08-02 00:45 5.10 89 963 (2009) 16 (2012) 103 18 27 34 37 53 92 104 141 704
2020-08-01 23:45 5.10 89 2370 (2009) 17 (2012) 144 19 26 33 38 53 92 103 157 1290
2020-08-01 22:45 5.11 90 2370 (2009) 17 (2012) 144 19 26 33 38 53 92 103 157 1290
2020-08-01 21:45 5.10 89 2370 (2009) 17 (2012) 144 19 26 33 38 53 92 103 157 1290
2020-08-01 20:45 5.10 89 2370 (2009) 17 (2012) 144 19 26 33 38 53 92 103 157 1290
2020-08-01 19:45 5.11 90 2370 (2009) 17 (2012) 144 19 26 33 38 53 92 103 157 1290
2020-08-01 18:45 5.11 90 2370 (2009) 17 (2012) 144 19 26 33 38 53 92 103 157 1290
2020-08-01 17:45 5.12 92 2370 (2009) 17 (2012) 144 19 26 33 38 53 92 103 157 1290
2020-08-01 16:45 5.12 92 2370 (2009) 17 (2012) 144 19 26 33 38 53 92 103 157 1290
2020-08-01 15:45 5.14 95 2370 (2009) 17 (2012) 144 19 26 33 38 53 92 103 157 1290
2020-08-01 14:45 5.14 95 2370 (2009) 17 (2012) 144 19 26 33 38 53 92 103 157 1290
2020-08-01 13:45 5.13 94 2370 (2009) 17 (2012) 144 19 26 33 38 53 92 103 157 1290
2020-08-01 12:45 5.14 95 2370 (2009) 17 (2012) 144 19 26 33 38 53 92 103 157 1290
2020-08-01 11:45 5.14 95 2370 (2009) 17 (2012) 144 19 26 33 38 53 92 103 157 1290
2020-08-01 10:45 5.15 97 2370 (2009) 17 (2012) 144 19 26 33 38 53 92 103 157 1290
2020-08-01 09:45 5.16 99 2370 (2009) 17 (2012) 144 19 26 33 38 53 92 103 157 1290
2020-08-01 08:45 5.16 99 2370 (2009) 17 (2012) 144 19 26 33 38 53 92 103 157 1290
2020-08-01 07:45 5.17 101 2370 (2009) 17 (2012) 144 19 26 33 38 53 92 103 157 1290
2020-08-01 06:45 5.19 105 2370 (2009) 17 (2012) 144 19 26 33 38 53 92 103 157 1290
2020-08-01 05:45 5.19 105 2370 (2009) 17 (2012) 144 19 26 33 38 53 92 103 157 1290
2020-08-01 04:45 5.20 107 2370 (2009) 17 (2012) 144 19 26 33 38 53 92 103 157 1290
2020-08-01 03:45 5.19 105 2370 (2009) 17 (2012) 144 19 26 33 38 53 92 103 157 1290
2020-08-01 02:45 5.18 103 2370 (2009) 17 (2012) 144 19 26 33 38 53 92 103 157 1290
2020-08-01 01:45 5.17 101 2370 (2009) 17 (2012) 144 19 26 33 38 53 92 103 157 1290
2020-08-01 00:45 5.16 99 2370 (2009) 17 (2012) 144 19 26 33 38 53 92 103 157 1290
2020-07-31 23:45 5.16 99 468 (1992) 19 (2012) 95 22 27 37 39 55 107 130 180 466
2020-07-31 22:45 5.17 101 468 (1992) 19 (2012) 95 22 27 37 39 55 107 130 180 466
2020-07-31 21:45 5.17 101 468 (1992) 19 (2012) 95 22 27 37 39 55 107 130 180 466
2020-07-31 20:45 5.17 101 468 (1992) 19 (2012) 95 22 27 37 39 55 107 130 180 466
2020-07-31 19:45 5.18 103 468 (1992) 19 (2012) 95 22 27 37 39 55 107 130 180 466
2020-07-31 18:45 5.18 103 468 (1992) 19 (2012) 95 22 27 37 39 55 107 130 180 466
2020-07-31 17:45 5.18 103 468 (1992) 19 (2012) 95 22 27 37 39 55 107 130 180 466
2020-07-31 16:45 5.18 103 468 (1992) 19 (2012) 95 22 27 37 39 55 107 130 180 466
2020-07-31 15:45 5.19 105 468 (1992) 19 (2012) 95 22 27 37 39 55 107 130 180 466
2020-07-31 14:45 5.16 99 468 (1992) 19 (2012) 95 22 27 37 39 55 107 130 180 466
2020-07-31 13:45 5.18 103 468 (1992) 19 (2012) 95 22 27 37 39 55 107 130 180 466
2020-07-31 12:45 5.18 103 468 (1992) 19 (2012) 95 22 27 37 39 55 107 130 180 466
2020-07-31 11:45 5.17 101 468 (1992) 19 (2012) 95 22 27 37 39 55 107 130 180 466
2020-07-31 10:45 5.18 103 468 (1992) 19 (2012) 95 22 27 37 39 55 107 130 180 466
2020-07-31 09:45 5.18 103 468 (1992) 19 (2012) 95 22 27 37 39 55 107 130 180 466
2020-07-31 08:45 5.17 101 468 (1992) 19 (2012) 95 22 27 37 39 55 107 130 180 466
2020-07-31 07:45 5.18 103 468 (1992) 19 (2012) 95 22 27 37 39 55 107 130 180 466
2020-07-31 06:45 5.16 99 468 (1992) 19 (2012) 95 22 27 37 39 55 107 130 180 466
2020-07-31 05:45 5.19 105 468 (1992) 19 (2012) 95 22 27 37 39 55 107 130 180 466
2020-07-31 04:45 5.18 103 468 (1992) 19 (2012) 95 22 27 37 39 55 107 130 180 466
2020-07-31 03:45 5.17 101 468 (1992) 19 (2012) 95 22 27 37 39 55 107 130 180 466
2020-07-31 02:45 5.19 105 468 (1992) 19 (2012) 95 22 27 37 39 55 107 130 180 466
2020-07-31 01:45 5.18 103 468 (1992) 19 (2012) 95 22 27 37 39 55 107 130 180 466
2020-07-31 00:45 5.18 103 468 (1992) 19 (2012) 95 22 27 37 39 55 107 130 180 466
2020-07-30 23:45 5.19 105 370 (2009) 21 (2012) 81 23 28 37 40 57 93 100 154 322
2020-07-30 22:45 5.19 105 370 (2009) 21 (2012) 81 23 28 37 40 57 93 100 154 322
2020-07-30 21:45 5.19 105 370 (2009) 21 (2012) 81 23 28 37 40 57 93 100 154 322
2020-07-30 20:45 5.20 107 370 (2009) 21 (2012) 81 23 28 37 40 57 93 100 154 322
2020-07-30 19:45 5.19 105 370 (2009) 21 (2012) 81 23 28 37 40 57 93 100 154 322
2020-07-30 18:45 5.21 109 370 (2009) 21 (2012) 81 23 28 37 40 57 93 100 154 322
2020-07-30 17:45 5.21 109 370 (2009) 21 (2012) 81 23 28 37 40 57 93 100 154 322
2020-07-30 16:45 5.20 107 370 (2009) 21 (2012) 81 23 28 37 40 57 93 100 154 322
2020-07-30 15:45 5.21 109 370 (2009) 21 (2012) 81 23 28 37 40 57 93 100 154 322
2020-07-30 14:45 5.22 111 370 (2009) 21 (2012) 81 23 28 37 40 57 93 100 154 322
2020-07-30 13:45 5.24 115 370 (2009) 21 (2012) 81 23 28 37 40 57 93 100 154 322
2020-07-30 12:45 5.24 115 370 (2009) 21 (2012) 81 23 28 37 40 57 93 100 154 322
2020-07-30 11:45 5.24 115 370 (2009) 21 (2012) 81 23 28 37 40 57 93 100 154 322
2020-07-30 10:45 5.21 109 370 (2009) 21 (2012) 81 23 28 37 40 57 93 100 154 322
2020-07-30 09:45 5.26 119 370 (2009) 21 (2012) 81 23 28 37 40 57 93 100 154 322
2020-07-30 08:45 5.26 119 370 (2009) 21 (2012) 81 23 28 37 40 57 93 100 154 322
2020-07-30 07:45 5.26 119 370 (2009) 21 (2012) 81 23 28 37 40 57 93 100 154 322
2020-07-30 06:45 5.27 122 370 (2009) 21 (2012) 81 23 28 37 40 57 93 100 154 322
2020-07-30 05:45 5.28 124 370 (2009) 21 (2012) 81 23 28 37 40 57 93 100 154 322
2020-07-30 04:45 5.27 122 370 (2009) 21 (2012) 81 23 28 37 40 57 93 100 154 322
2020-07-30 03:45 5.29 126 370 (2009) 21 (2012) 81 23 28 37 40 57 93 100 154 322
2020-07-30 02:45 5.28 124 370 (2009) 21 (2012) 81 23 28 37 40 57 93 100 154 322
2020-07-30 01:45 5.30 128 370 (2009) 21 (2012) 81 23 28 37 40 57 93 100 154 322
2020-07-30 00:45 5.31 131 370 (2009) 21 (2012) 81 23 28 37 40 57 93 100 154 322
2020-07-29 23:45 5.32 133 641 (1991) 22 (2012) 93 24 29 37 39 58 78 94 157 515
2020-07-29 22:45 5.33 136 641 (1991) 22 (2012) 93 24 29 37 39 58 78 94 157 515
2020-07-29 21:45 5.29 126 641 (1991) 22 (2012) 93 24 29 37 39 58 78 94 157 515
2020-07-29 20:45 5.29 126 641 (1991) 22 (2012) 93 24 29 37 39 58 78 94 157 515
2020-07-29 19:45 5.28 124 641 (1991) 22 (2012) 93 24 29 37 39 58 78 94 157 515
2020-07-29 18:45 5.27 122 641 (1991) 22 (2012) 93 24 29 37 39 58 78 94 157 515
2020-07-29 17:45 5.29 126 641 (1991) 22 (2012) 93 24 29 37 39 58 78 94 157 515
2020-07-29 16:45 5.29 126 641 (1991) 22 (2012) 93 24 29 37 39 58 78 94 157 515
2020-07-29 15:45 5.36 144 641 (1991) 22 (2012) 93 24 29 37 39 58 78 94 157 515
2020-07-29 14:45 5.25 117 641 (1991) 22 (2012) 93 24 29 37 39 58 78 94 157 515
2020-07-29 13:45 5.15 97 641 (1991) 22 (2012) 93 24 29 37 39 58 78 94 157 515
2020-07-29 12:45 5.11 90 641 (1991) 22 (2012) 93 24 29 37 39 58 78 94 157 515
2020-07-29 11:45 5.11 90 641 (1991) 22 (2012) 93 24 29 37 39 58 78 94 157 515
2020-07-29 10:45 5.13 94 641 (1991) 22 (2012) 93 24 29 37 39 58 78 94 157 515
2020-07-29 09:45 5.13 94 641 (1991) 22 (2012) 93 24 29 37 39 58 78 94 157 515
2020-07-29 08:45 5.10 89 641 (1991) 22 (2012) 93 24 29 37 39 58 78 94 157 515
2020-07-29 07:45 5.10 89 641 (1991) 22 (2012) 93 24 29 37 39 58 78 94 157 515
2020-07-29 06:45 5.10 89 641 (1991) 22 (2012) 93 24 29 37 39 58 78 94 157 515
2020-07-29 05:45 5.09 87 641 (1991) 22 (2012) 93 24 29 37 39 58 78 94 157 515
2020-07-29 04:45 5.09 87 641 (1991) 22 (2012) 93 24 29 37 39 58 78 94 157 515
2020-07-29 03:45 5.09 87 641 (1991) 22 (2012) 93 24 29 37 39 58 78 94 157 515
2020-07-29 02:45 5.09 87 641 (1991) 22 (2012) 93 24 29 37 39 58 78 94 157 515
2020-07-29 01:45 5.11 90 641 (1991) 22 (2012) 93 24 29 37 39 58 78 94 157 515
2020-07-29 00:45 5.10 89 641 (1991) 22 (2012) 93 24 29 37 39 58 78 94 157 515
2020-07-28 23:45 5.10 89 1710 (1991) 26 (2006) 172 28 30 39 40 56 101 130 255 1450
2020-07-28 22:45 5.10 89 1710 (1991) 26 (2006) 172 28 30 39 40 56 101 130 255 1450
2020-07-28 21:45 5.11 90 1710 (1991) 26 (2006) 172 28 30 39 40 56 101 130 255 1450
2020-07-28 20:45 5.11 90 1710 (1991) 26 (2006) 172 28 30 39 40 56 101 130 255 1450
2020-07-28 19:45 5.10 89 1710 (1991) 26 (2006) 172 28 30 39 40 56 101 130 255 1450
2020-07-28 18:45 5.11 90 1710 (1991) 26 (2006) 172 28 30 39 40 56 101 130 255 1450
2020-07-28 17:45 5.11 90 1710 (1991) 26 (2006) 172 28 30 39 40 56 101 130 255 1450
2020-07-28 16:45 5.12 92 1710 (1991) 26 (2006) 172 28 30 39 40 56 101 130 255 1450
2020-07-28 15:45 5.12 92 1710 (1991) 26 (2006) 172 28 30 39 40 56 101 130 255 1450
2020-07-28 14:45 5.13 94 1710 (1991) 26 (2006) 172 28 30 39 40 56 101 130 255 1450
2020-07-28 13:45 5.13 94 1710 (1991) 26 (2006) 172 28 30 39 40 56 101 130 255 1450
2020-07-28 12:45 5.13 94 1710 (1991) 26 (2006) 172 28 30 39 40 56 101 130 255 1450
2020-07-28 11:45 5.14 95 1710 (1991) 26 (2006) 172 28 30 39 40 56 101 130 255 1450
2020-07-28 10:45 5.13 94 1710 (1991) 26 (2006) 172 28 30 39 40 56 101 130 255 1450
2020-07-28 09:45 5.13 94 1710 (1991) 26 (2006) 172 28 30 39 40 56 101 130 255 1450
2020-07-28 08:45 5.13 94 1710 (1991) 26 (2006) 172 28 30 39 40 56 101 130 255 1450
2020-07-28 07:45 5.13 94 1710 (1991) 26 (2006) 172 28 30 39 40 56 101 130 255 1450
2020-07-28 06:45 5.14 95 1710 (1991) 26 (2006) 172 28 30 39 40 56 101 130 255 1450
2020-07-28 05:45 5.14 95 1710 (1991) 26 (2006) 172 28 30 39 40 56 101 130 255 1450
2020-07-28 04:45 5.14 95 1710 (1991) 26 (2006) 172 28 30 39 40 56 101 130 255 1450
2020-07-28 03:45 5.13 94 1710 (1991) 26 (2006) 172 28 30 39 40 56 101 130 255 1450
2020-07-28 02:45 5.15 97 1710 (1991) 26 (2006) 172 28 30 39 40 56 101 130 255 1450
2020-07-28 01:45 5.15 97 1710 (1991) 26 (2006) 172 28 30 39 40 56 101 130 255 1450
2020-07-28 00:45 5.15 97 1710 (1991) 26 (2006) 172 28 30 39 40 56 101 130 255 1450
2020-07-27 23:45 5.12 92 938 (2009) 25 (2006) 129 27 31 40 41 57 86 116 334 919
2020-07-27 22:45 5.16 99 938 (2009) 25 (2006) 129 27 31 40 41 57 86 116 334 919
2020-07-27 21:45 5.15 97 938 (2009) 25 (2006) 129 27 31 40 41 57 86 116 334 919
2020-07-27 20:45 5.15 97 938 (2009) 25 (2006) 129 27 31 40 41 57 86 116 334 919
2020-07-27 19:45 5.14 95 938 (2009) 25 (2006) 129 27 31 40 41 57 86 116 334 919
2020-07-27 18:45 5.15 97 938 (2009) 25 (2006) 129 27 31 40 41 57 86 116 334 919
2020-07-27 17:45 5.15 97 938 (2009) 25 (2006) 129 27 31 40 41 57 86 116 334 919
2020-07-27 16:45 5.16 99 938 (2009) 25 (2006) 129 27 31 40 41 57 86 116 334 919
2020-07-27 15:45 5.18 103 938 (2009) 25 (2006) 129 27 31 40 41 57 86 116 334 919
2020-07-27 14:45 5.16 99 938 (2009) 25 (2006) 129 27 31 40 41 57 86 116 334 919
2020-07-27 13:45 5.17 101 938 (2009) 25 (2006) 129 27 31 40 41 57 86 116 334 919
2020-07-27 12:45 5.17 101 938 (2009) 25 (2006) 129 27 31 40 41 57 86 116 334 919
2020-07-27 11:45 5.18 103 938 (2009) 25 (2006) 129 27 31 40 41 57 86 116 334 919
2020-07-27 10:45 5.17 101 938 (2009) 25 (2006) 129 27 31 40 41 57 86 116 334 919
2020-07-27 09:45 5.17 101 938 (2009) 25 (2006) 129 27 31 40 41 57 86 116 334 919
2020-07-27 08:45 5.17 101 938 (2009) 25 (2006) 129 27 31 40 41 57 86 116 334 919
2020-07-27 07:45 5.20 107 938 (2009) 25 (2006) 129 27 31 40 41 57 86 116 334 919
2020-07-27 06:45 5.19 105 938 (2009) 25 (2006) 129 27 31 40 41 57 86 116 334 919
2020-07-27 05:45 5.18 103 938 (2009) 25 (2006) 129 27 31 40 41 57 86 116 334 919
2020-07-27 04:45 5.18 103 938 (2009) 25 (2006) 129 27 31 40 41 57 86 116 334 919
2020-07-27 03:45 5.18 103 938 (2009) 25 (2006) 129 27 31 40 41 57 86 116 334 919
2020-07-27 02:45 5.19 105 938 (2009) 25 (2006) 129 27 31 40 41 57 86 116 334 919
2020-07-27 01:45 5.18 103 938 (2009) 25 (2006) 129 27 31 40 41 57 86 116 334 919
2020-07-27 00:45 5.18 103 938 (2009) 25 (2006) 129 27 31 40 41 57 86 116 334 919
2020-07-26 23:45 5.19 105 896 (2009) 16 (2012) 123 20 30 40 41 57 106 130 413 734
2020-07-26 22:45 5.19 105 896 (2009) 16 (2012) 123 20 30 40 41 57 106 130 413 734
2020-07-26 21:45 5.19 105 896 (2009) 16 (2012) 123 20 30 40 41 57 106 130 413 734
2020-07-26 20:45 5.19 105 896 (2009) 16 (2012) 123 20 30 40 41 57 106 130 413 734
2020-07-26 19:45 5.19 105 896 (2009) 16 (2012) 123 20 30 40 41 57 106 130 413 734
2020-07-26 18:45 5.20 107 896 (2009) 16 (2012) 123 20 30 40 41 57 106 130 413 734
2020-07-26 17:45 5.20 107 896 (2009) 16 (2012) 123 20 30 40 41 57 106 130 413 734
2020-07-26 16:45 5.22 111 896 (2009) 16 (2012) 123 20 30 40 41 57 106 130 413 734
2020-07-26 15:45 5.23 113 896 (2009) 16 (2012) 123 20 30 40 41 57 106 130 413 734
2020-07-26 14:45 5.23 113 896 (2009) 16 (2012) 123 20 30 40 41 57 106 130 413 734
2020-07-26 13:45 5.24 115 896 (2009) 16 (2012) 123 20 30 40 41 57 106 130 413 734
2020-07-26 12:45 5.21 109 896 (2009) 16 (2012) 123 20 30 40 41 57 106 130 413 734
2020-07-26 11:45 5.23 113 896 (2009) 16 (2012) 123 20 30 40 41 57 106 130 413 734
2020-07-26 10:45 5.24 115 896 (2009) 16 (2012) 123 20 30 40 41 57 106 130 413 734
2020-07-26 09:45 5.25 117 896 (2009) 16 (2012) 123 20 30 40 41 57 106 130 413 734
2020-07-26 08:45 5.25 117 896 (2009) 16 (2012) 123 20 30 40 41 57 106 130 413 734
2020-07-26 07:45 5.24 115 896 (2009) 16 (2012) 123 20 30 40 41 57 106 130 413 734
2020-07-26 06:45 5.25 117 896 (2009) 16 (2012) 123 20 30 40 41 57 106 130 413 734
2020-07-26 05:45 5.25 117 896 (2009) 16 (2012) 123 20 30 40 41 57 106 130 413 734
2020-07-26 04:45 5.24 115 896 (2009) 16 (2012) 123 20 30 40 41 57 106 130 413 734
2020-07-26 03:45 5.25 117 896 (2009) 16 (2012) 123 20 30 40 41 57 106 130 413 734
2020-07-26 02:45 5.26 119 896 (2009) 16 (2012) 123 20 30 40 41 57 106 130 413 734
2020-07-26 01:45 5.27 122 896 (2009) 16 (2012) 123 20 30 40 41 57 106 130 413 734
2020-07-26 00:45 5.26 119 896 (2009) 16 (2012) 123 20 30 40 41 57 106 130 413 734
2020-07-25 23:45 5.27 122 309 (2014) 17 (2012) 69 21 31 41 43 60 77 85 104 230
2020-07-25 22:45 5.28 124 309 (2014) 17 (2012) 69 21 31 41 43 60 77 85 104 230
2020-07-25 21:45 5.27 122 309 (2014) 17 (2012) 69 21 31 41 43 60 77 85 104 230
2020-07-25 20:45 5.29 126 309 (2014) 17 (2012) 69 21 31 41 43 60 77 85 104 230
2020-07-25 19:45 5.29 126 309 (2014) 17 (2012) 69 21 31 41 43 60 77 85 104 230
2020-07-25 18:45 5.30 128 309 (2014) 17 (2012) 69 21 31 41 43 60 77 85 104 230
2020-07-25 17:45 5.31 131 309 (2014) 17 (2012) 69 21 31 41 43 60 77 85 104 230
2020-07-25 16:45 5.30 128 309 (2014) 17 (2012) 69 21 31 41 43 60 77 85 104 230
2020-07-25 15:45 5.33 136 309 (2014) 17 (2012) 69 21 31 41 43 60 77 85 104 230
2020-07-25 14:45 5.33 136 309 (2014) 17 (2012) 69 21 31 41 43 60 77 85 104 230
2020-07-25 13:45 5.34 138 309 (2014) 17 (2012) 69 21 31 41 43 60 77 85 104 230
2020-07-25 12:45 5.35 141 309 (2014) 17 (2012) 69 21 31 41 43 60 77 85 104 230
2020-07-25 11:45 5.34 138 309 (2014) 17 (2012) 69 21 31 41 43 60 77 85 104 230
2020-07-25 10:45 5.35 141 309 (2014) 17 (2012) 69 21 31 41 43 60 77 85 104 230
2020-07-25 09:45 5.36 144 309 (2014) 17 (2012) 69 21 31 41 43 60 77 85 104 230
2020-07-25 08:45 5.36 144 309 (2014) 17 (2012) 69 21 31 41 43 60 77 85 104 230
2020-07-25 07:45 5.38 149 309 (2014) 17 (2012) 69 21 31 41 43 60 77 85 104 230
2020-07-25 06:45 5.37 146 309 (2014) 17 (2012) 69 21 31 41 43 60 77 85 104 230
2020-07-25 05:45 5.38 149 309 (2014) 17 (2012) 69 21 31 41 43 60 77 85 104 230
2020-07-25 04:45 5.40 154 309 (2014) 17 (2012) 69 21 31 41 43 60 77 85 104 230
2020-07-25 03:45 5.38 149 309 (2014) 17 (2012) 69 21 31 41 43 60 77 85 104 230
2020-07-25 02:45 5.40 154 309 (2014) 17 (2012) 69 21 31 41 43 60 77 85 104 230
2020-07-25 01:45 5.40 154 309 (2014) 17 (2012) 69 21 31 41 43 60 77 85 104 230
2020-07-25 00:45 5.41 157 309 (2014) 17 (2012) 69 21 31 41 43 60 77 85 104 230
2020-07-24 23:45 5.42 160 635 (2014) 18 (2012) 87 19 26 34 40 54 82 92 170 461
2020-07-24 22:45 5.43 163 635 (2014) 18 (2012) 87 19 26 34 40 54 82 92 170 461
2020-07-24 21:45 5.43 163 635 (2014) 18 (2012) 87 19 26 34 40 54 82 92 170 461
2020-07-24 20:45 5.44 166 635 (2014) 18 (2012) 87 19 26 34 40 54 82 92 170 461
2020-07-24 19:45 5.45 169 635 (2014) 18 (2012) 87 19 26 34 40 54 82 92 170 461
2020-07-24 18:45 5.47 175 635 (2014) 18 (2012) 87 19 26 34 40 54 82 92 170 461
2020-07-24 17:45 5.48 179 635 (2014) 18 (2012) 87 19 26 34 40 54 82 92 170 461
2020-07-24 16:45 5.49 182 635 (2014) 18 (2012) 87 19 26 34 40 54 82 92 170 461
2020-07-24 15:45 5.49 182 635 (2014) 18 (2012) 87 19 26 34 40 54 82 92 170 461
2020-07-24 14:45 5.52 192 635 (2014) 18 (2012) 87 19 26 34 40 54 82 92 170 461
2020-07-24 13:45 5.52 192 635 (2014) 18 (2012) 87 19 26 34 40 54 82 92 170 461
2020-07-24 12:45 5.52 192 635 (2014) 18 (2012) 87 19 26 34 40 54 82 92 170 461
2020-07-24 11:45 5.56 207 635 (2014) 18 (2012) 87 19 26 34 40 54 82 92 170 461
2020-07-24 10:45 5.59 218 635 (2014) 18 (2012) 87 19 26 34 40 54 82 92 170 461
2020-07-24 09:45 5.60 222 635 (2014) 18 (2012) 87 19 26 34 40 54 82 92 170 461
2020-07-24 08:45 5.64 238 635 (2014) 18 (2012) 87 19 26 34 40 54 82 92 170 461
2020-07-24 07:45 5.61 226 635 (2014) 18 (2012) 87 19 26 34 40 54 82 92 170 461
2020-07-24 06:45 5.65 243 635 (2014) 18 (2012) 87 19 26 34 40 54 82 92 170 461
2020-07-24 05:45 5.65 243 635 (2014) 18 (2012) 87 19 26 34 40 54 82 92 170 461
2020-07-24 04:45 5.71 270 635 (2014) 18 (2012) 87 19 26 34 40 54 82 92 170 461
2020-07-24 03:45 5.69 261 635 (2014) 18 (2012) 87 19 26 34 40 54 82 92 170 461
2020-07-24 02:45 5.71 270 635 (2014) 18 (2012) 87 19 26 34 40 54 82 92 170 461
2020-07-24 01:45 5.74 285 635 (2014) 18 (2012) 87 19 26 34 40 54 82 92 170 461
2020-07-24 00:45 5.76 295 635 (2014) 18 (2012) 87 19 26 34 40 54 82 92 170 461
2020-07-23 23:45 5.85 346 296 (2014) 19 (2012) 72 22 27 33 38 50 82 93 181 242
2020-07-23 22:45 5.90 378 296 (2014) 19 (2012) 72 22 27 33 38 50 82 93 181 242
2020-07-23 21:45 5.93 398 296 (2014) 19 (2012) 72 22 27 33 38 50 82 93 181 242
2020-07-23 20:45 5.97 427 296 (2014) 19 (2012) 72 22 27 33 38 50 82 93 181 242
2020-07-23 19:45 6.02 465 296 (2014) 19 (2012) 72 22 27 33 38 50 82 93 181 242
2020-07-23 18:45 6.10 527 296 (2014) 19 (2012) 72 22 27 33 38 50 82 93 181 242
2020-07-23 17:45 6.18 593 296 (2014) 19 (2012) 72 22 27 33 38 50 82 93 181 242
2020-07-23 16:45 6.33 694 296 (2014) 19 (2012) 72 22 27 33 38 50 82 93 181 242
2020-07-23 15:45 6.45 768 296 (2014) 19 (2012) 72 22 27 33 38 50 82 93 181 242
2020-07-23 14:45 6.36 712 296 (2014) 19 (2012) 72 22 27 33 38 50 82 93 181 242
2020-07-23 13:45 6.61 877 296 (2014) 19 (2012) 72 22 27 33 38 50 82 93 181 242
2020-07-23 12:45 7.04 1130 296 (2014) 19 (2012) 72 22 27 33 38 50 82 93 181 242
2020-07-23 11:45 7.24 1240 296 (2014) 19 (2012) 72 22 27 33 38 50 82 93 181 242
2020-07-23 10:45 7.56 1420 296 (2014) 19 (2012) 72 22 27 33 38 50 82 93 181 242
2020-07-23 09:45 7.89 1640 296 (2014) 19 (2012) 72 22 27 33 38 50 82 93 181 242
2020-07-23 08:45 6.79 1000 296 (2014) 19 (2012) 72 22 27 33 38 50 82 93 181 242
2020-07-23 07:45 6.24 642 296 (2014) 19 (2012) 72 22 27 33 38 50 82 93 181 242
2020-07-23 06:45 5.79 311 296 (2014) 19 (2012) 72 22 27 33 38 50 82 93 181 242
2020-07-23 05:45 5.42 160 296 (2014) 19 (2012) 72 22 27 33 38 50 82 93 181 242
2020-07-23 04:45 5.13 94 296 (2014) 19 (2012) 72 22 27 33 38 50 82 93 181 242
2020-07-23 03:45 5.14 95 296 (2014) 19 (2012) 72 22 27 33 38 50 82 93 181 242
2020-07-23 02:45 5.12 92 296 (2014) 19 (2012) 72 22 27 33 38 50 82 93 181 242
2020-07-23 01:45 5.14 95 296 (2014) 19 (2012) 72 22 27 33 38 50 82 93 181 242
2020-07-23 00:45 5.14 95 296 (2014) 19 (2012) 72 22 27 33 38 50 82 93 181 242
2020-07-22 23:45 5.14 95 223 (1989) 18 (2012) 71 21 28 30 38 52 77 108 194 220
2020-07-22 22:45 5.15 97 223 (1989) 18 (2012) 71 21 28 30 38 52 77 108 194 220
2020-07-22 21:45 5.15 97 223 (1989) 18 (2012) 71 21 28 30 38 52 77 108 194 220
2020-07-22 20:45 5.15 97 223 (1989) 18 (2012) 71 21 28 30 38 52 77 108 194 220
2020-07-22 19:45 5.13 94 223 (1989) 18 (2012) 71 21 28 30 38 52 77 108 194 220
2020-07-22 18:45 5.14 95 223 (1989) 18 (2012) 71 21 28 30 38 52 77 108 194 220
2020-07-22 17:45 5.13 94 223 (1989) 18 (2012) 71 21 28 30 38 52 77 108 194 220
2020-07-22 16:45 5.10 89 223 (1989) 18 (2012) 71 21 28 30 38 52 77 108 194 220
2020-07-22 15:45 5.11 90 223 (1989) 18 (2012) 71 21 28 30 38 52 77 108 194 220
2020-07-22 14:45 5.11 90 223 (1989) 18 (2012) 71 21 28 30 38 52 77 108 194 220
2020-07-22 13:45 5.09 87 223 (1989) 18 (2012) 71 21 28 30 38 52 77 108 194 220
2020-07-22 12:45 5.09 87 223 (1989) 18 (2012) 71 21 28 30 38 52 77 108 194 220
2020-07-22 11:45 5.10 89 223 (1989) 18 (2012) 71 21 28 30 38 52 77 108 194 220
2020-07-22 10:45 5.10 89 223 (1989) 18 (2012) 71 21 28 30 38 52 77 108 194 220
2020-07-22 09:45 5.09 87 223 (1989) 18 (2012) 71 21 28 30 38 52 77 108 194 220
2020-07-22 08:45 5.08 85 223 (1989) 18 (2012) 71 21 28 30 38 52 77 108 194 220
2020-07-22 07:45 5.09 87 223 (1989) 18 (2012) 71 21 28 30 38 52 77 108 194 220
2020-07-22 06:45 5.08 85 223 (1989) 18 (2012) 71 21 28 30 38 52 77 108 194 220
2020-07-22 05:45 5.05 81 223 (1989) 18 (2012) 71 21 28 30 38 52 77 108 194 220
2020-07-22 04:45 5.04 79 223 (1989) 18 (2012) 71 21 28 30 38 52 77 108 194 220
2020-07-22 03:45 5.04 79 223 (1989) 18 (2012) 71 21 28 30 38 52 77 108 194 220
2020-07-22 02:45 5.04 79 223 (1989) 18 (2012) 71 21 28 30 38 52 77 108 194 220
2020-07-22 01:45 5.04 79 223 (1989) 18 (2012) 71 21 28 30 38 52 77 108 194 220
2020-07-22 00:45 5.04 79 223 (1989) 18 (2012) 71 21 28 30 38 52 77 108 194 220
2020-07-21 23:45 5.04 79 301 (1989) 19 (2012) 73 21 28 35 39 54 77 100 145 261
2020-07-21 22:45 5.03 78 301 (1989) 19 (2012) 73 21 28 35 39 54 77 100 145 261
2020-07-21 21:45 5.04 79 301 (1989) 19 (2012) 73 21 28 35 39 54 77 100 145 261
2020-07-21 20:45 5.04 79 301 (1989) 19 (2012) 73 21 28 35 39 54 77 100 145 261
2020-07-21 19:45 5.04 79 301 (1989) 19 (2012) 73 21 28 35 39 54 77 100 145 261
2020-07-21 18:45 5.04 79 301 (1989) 19 (2012) 73 21 28 35 39 54 77 100 145 261
2020-07-21 17:45 5.05 81 301 (1989) 19 (2012) 73 21 28 35 39 54 77 100 145 261
2020-07-21 16:45 5.04 79 301 (1989) 19 (2012) 73 21 28 35 39 54 77 100 145 261
2020-07-21 15:45 5.04 79 301 (1989) 19 (2012) 73 21 28 35 39 54 77 100 145 261
2020-07-21 14:45 5.04 79 301 (1989) 19 (2012) 73 21 28 35 39 54 77 100 145 261
2020-07-21 13:45 5.03 78 301 (1989) 19 (2012) 73 21 28 35 39 54 77 100 145 261
2020-07-21 12:45 5.05 81 301 (1989) 19 (2012) 73 21 28 35 39 54 77 100 145 261
2020-07-21 11:45 5.06 82 301 (1989) 19 (2012) 73 21 28 35 39 54 77 100 145 261
2020-07-21 10:45 5.05 81 301 (1989) 19 (2012) 73 21 28 35 39 54 77 100 145 261
2020-07-21 09:45 5.04 79 301 (1989) 19 (2012) 73 21 28 35 39 54 77 100 145 261
2020-07-21 08:45 5.04 79 301 (1989) 19 (2012) 73 21 28 35 39 54 77 100 145 261
2020-07-21 07:45 5.04 79 301 (1989) 19 (2012) 73 21 28 35 39 54 77 100 145 261
2020-07-21 06:45 5.04 79 301 (1989) 19 (2012) 73 21 28 35 39 54 77 100 145 261
2020-07-21 05:45 5.04 79 301 (1989) 19 (2012) 73 21 28 35 39 54 77 100 145 261
2020-07-21 04:45 5.04 79 301 (1989) 19 (2012) 73 21 28 35 39 54 77 100 145 261
2020-07-21 03:45 5.04 79 301 (1989) 19 (2012) 73 21 28 35 39 54 77 100 145 261
2020-07-21 02:45 5.04 79 301 (1989) 19 (2012) 73 21 28 35 39 54 77 100 145 261
2020-07-21 01:45 5.03 78 301 (1989) 19 (2012) 73 21 28 35 39 54 77 100 145 261
2020-07-21 00:45 5.04 79 301 (1989) 19 (2012) 73 21 28 35 39 54 77 100 145 261
2020-07-20 23:45 5.03 78 444 (1989) 20 (2012) 79 23 29 39 43 56 69 77 171 309
2020-07-20 22:45 5.03 78 444 (1989) 20 (2012) 79 23 29 39 43 56 69 77 171 309
2020-07-20 21:45 5.04 79 444 (1989) 20 (2012) 79 23 29 39 43 56 69 77 171 309
2020-07-20 20:45 5.02 76 444 (1989) 20 (2012) 79 23 29 39 43 56 69 77 171 309
2020-07-20 19:45 5.04 79 444 (1989) 20 (2012) 79 23 29 39 43 56 69 77 171 309
2020-07-20 18:45 5.04 79 444 (1989) 20 (2012) 79 23 29 39 43 56 69 77 171 309
2020-07-20 17:45 5.04 79 444 (1989) 20 (2012) 79 23 29 39 43 56 69 77 171 309
2020-07-20 16:45 5.03 78 444 (1989) 20 (2012) 79 23 29 39 43 56 69 77 171 309
2020-07-20 15:45 5.04 79 444 (1989) 20 (2012) 79 23 29 39 43 56 69 77 171 309
2020-07-20 14:45 5.04 79 444 (1989) 20 (2012) 79 23 29 39 43 56 69 77 171 309
2020-07-20 13:45 5.05 81 444 (1989) 20 (2012) 79 23 29 39 43 56 69 77 171 309
2020-07-20 12:45 5.05 81 444 (1989) 20 (2012) 79 23 29 39 43 56 69 77 171 309
2020-07-20 11:45 5.06 82 444 (1989) 20 (2012) 79 23 29 39 43 56 69 77 171 309
2020-07-20 10:45 5.06 82 444 (1989) 20 (2012) 79 23 29 39 43 56 69 77 171 309
2020-07-20 09:45 5.04 79 444 (1989) 20 (2012) 79 23 29 39 43 56 69 77 171 309
2020-07-20 08:45 5.05 81 444 (1989) 20 (2012) 79 23 29 39 43 56 69 77 171 309
2020-07-20 07:45 5.05 81 444 (1989) 20 (2012) 79 23 29 39 43 56 69 77 171 309
2020-07-20 06:45 5.04 79 444 (1989) 20 (2012) 79 23 29 39 43 56 69 77 171 309
2020-07-20 05:45 5.05 81 444 (1989) 20 (2012) 79 23 29 39 43 56 69 77 171 309
2020-07-20 04:45 5.05 81 444 (1989) 20 (2012) 79 23 29 39 43 56 69 77 171 309
2020-07-20 03:45 5.03 78 444 (1989) 20 (2012) 79 23 29 39 43 56 69 77 171 309
2020-07-20 02:45 5.05 81 444 (1989) 20 (2012) 79 23 29 39 43 56 69 77 171 309
2020-07-20 01:45 5.05 81 444 (1989) 20 (2012) 79 23 29 39 43 56 69 77 171 309
2020-07-20 00:45 5.05 81 444 (1989) 20 (2012) 79 23 29 39 43 56 69 77 171 309
2020-07-19 23:45 5.05 81 1130 (1989) 22 (2012) 118 25 30 40 45 58 78 89 254 731
2020-07-19 22:45 5.05 81 1130 (1989) 22 (2012) 118 25 30 40 45 58 78 89 254 731
2020-07-19 21:45 5.05 81 1130 (1989) 22 (2012) 118 25 30 40 45 58 78 89 254 731
2020-07-19 20:45 5.05 81 1130 (1989) 22 (2012) 118 25 30 40 45 58 78 89 254 731
2020-07-19 19:45 5.06 82 1130 (1989) 22 (2012) 118 25 30 40 45 58 78 89 254 731
2020-07-19 18:45 5.03 78 1130 (1989) 22 (2012) 118 25 30 40 45 58 78 89 254 731
2020-07-19 17:45 5.07 84 1130 (1989) 22 (2012) 118 25 30 40 45 58 78 89 254 731
2020-07-19 16:45 5.06 82 1130 (1989) 22 (2012) 118 25 30 40 45 58 78 89 254 731
2020-07-19 15:45 5.06 82 1130 (1989) 22 (2012) 118 25 30 40 45 58 78 89 254 731
2020-07-19 14:45 5.08 85 1130 (1989) 22 (2012) 118 25 30 40 45 58 78 89 254 731
2020-07-19 13:45 5.06 82 1130 (1989) 22 (2012) 118 25 30 40 45 58 78 89 254 731
2020-07-19 12:45 5.07 84 1130 (1989) 22 (2012) 118 25 30 40 45 58 78 89 254 731
2020-07-19 11:45 5.07 84 1130 (1989) 22 (2012) 118 25 30 40 45 58 78 89 254 731
2020-07-19 10:45 5.07 84 1130 (1989) 22 (2012) 118 25 30 40 45 58 78 89 254 731
2020-07-19 09:45 5.07 84 1130 (1989) 22 (2012) 118 25 30 40 45 58 78 89 254 731
2020-07-19 08:45 5.07 84 1130 (1989) 22 (2012) 118 25 30 40 45 58 78 89 254 731
2020-07-19 07:45 5.07 84 1130 (1989) 22 (2012) 118 25 30 40 45 58 78 89 254 731
2020-07-19 06:45 5.07 84 1130 (1989) 22 (2012) 118 25 30 40 45 58 78 89 254 731
2020-07-19 05:45 5.06 82 1130 (1989) 22 (2012) 118 25 30 40 45 58 78 89 254 731
2020-07-19 04:45 5.07 84 1130 (1989) 22 (2012) 118 25 30 40 45 58 78 89 254 731
2020-07-19 03:45 5.06 82 1130 (1989) 22 (2012) 118 25 30 40 45 58 78 89 254 731
2020-07-19 02:45 5.06 82 1130 (1989) 22 (2012) 118 25 30 40 45 58 78 89 254 731
2020-07-19 01:45 5.07 84 1130 (1989) 22 (2012) 118 25 30 40 45 58 78 89 254 731
2020-07-19 00:45 5.07 84 1130 (1989) 22 (2012) 118 25 30 40 45 58 78 89 254 731
2020-07-18 23:45 5.07 84 604 (1989) 25 (2012) 117 25 29 42 46 59 101 168 350 523
2020-07-18 22:45 5.06 82 604 (1989) 25 (2012) 117 25 29 42 46 59 101 168 350 523
2020-07-18 21:45 5.07 84 604 (1989) 25 (2012) 117 25 29 42 46 59 101 168 350 523
2020-07-18 20:45 5.07 84 604 (1989) 25 (2012) 117 25 29 42 46 59 101 168 350 523
2020-07-18 19:45 5.06 82 604 (1989) 25 (2012) 117 25 29 42 46 59 101 168 350 523
2020-07-18 18:45 5.07 84 604 (1989) 25 (2012) 117 25 29 42 46 59 101 168 350 523
2020-07-18 17:45 5.07 84 604 (1989) 25 (2012) 117 25 29 42 46 59 101 168 350 523
2020-07-18 16:45 5.08 85 604 (1989) 25 (2012) 117 25 29 42 46 59 101 168 350 523
2020-07-18 15:45 5.08 85 604 (1989) 25 (2012) 117 25 29 42 46 59 101 168 350 523
2020-07-18 14:45 5.09 87 604 (1989) 25 (2012) 117 25 29 42 46 59 101 168 350 523
2020-07-18 13:45 5.09 87 604 (1989) 25 (2012) 117 25 29 42 46 59 101 168 350 523
2020-07-18 12:45 5.08 85 604 (1989) 25 (2012) 117 25 29 42 46 59 101 168 350 523
2020-07-18 11:45 5.10 89 604 (1989) 25 (2012) 117 25 29 42 46 59 101 168 350 523
2020-07-18 10:45 5.09 87 604 (1989) 25 (2012) 117 25 29 42 46 59 101 168 350 523
2020-07-18 09:45 5.09 87 604 (1989) 25 (2012) 117 25 29 42 46 59 101 168 350 523
2020-07-18 08:45 5.09 87 604 (1989) 25 (2012) 117 25 29 42 46 59 101 168 350 523
2020-07-18 07:45 5.09 87 604 (1989) 25 (2012) 117 25 29 42 46 59 101 168 350 523
2020-07-18 06:45 5.10 89 604 (1989) 25 (2012) 117 25 29 42 46 59 101 168 350 523
2020-07-18 05:45 5.09 87 604 (1989) 25 (2012) 117 25 29 42 46 59 101 168 350 523
2020-07-18 04:45 5.09 87 604 (1989) 25 (2012) 117 25 29 42 46 59 101 168 350 523
2020-07-18 03:45 5.10 89 604 (1989) 25 (2012) 117 25 29 42 46 59 101 168 350 523
2020-07-18 02:45 5.07 84 604 (1989) 25 (2012) 117 25 29 42 46 59 101 168 350 523
2020-07-18 01:45 5.09 87 604 (1989) 25 (2012) 117 25 29 42 46 59 101 168 350 523
2020-07-18 00:45 5.08 85 604 (1989) 25 (2012) 117 25 29 42 46 59 101 168 350 523
2020-07-17 23:45 5.09 87 692 (2002) 28 (2012) 115 28 31 43 47 63 90 101 301 605
2020-07-17 22:45 5.08 85 692 (2002) 28 (2012) 115 28 31 43 47 63 90 101 301 605
2020-07-17 21:45 5.08 85 692 (2002) 28 (2012) 115 28 31 43 47 63 90 101 301 605
2020-07-17 20:45 5.09 87 692 (2002) 28 (2012) 115 28 31 43 47 63 90 101 301 605
2020-07-17 19:45 5.09 87 692 (2002) 28 (2012) 115 28 31 43 47 63 90 101 301 605
2020-07-17 18:45 5.10 89 692 (2002) 28 (2012) 115 28 31 43 47 63 90 101 301 605
2020-07-17 17:45 5.10 89 692 (2002) 28 (2012) 115 28 31 43 47 63 90 101 301 605
2020-07-17 16:45 5.10 89 692 (2002) 28 (2012) 115 28 31 43 47 63 90 101 301 605
2020-07-17 15:45 5.10 89 692 (2002) 28 (2012) 115 28 31 43 47 63 90 101 301 605
2020-07-17 14:45 5.11 90 692 (2002) 28 (2012) 115 28 31 43 47 63 90 101 301 605
2020-07-17 13:45 5.12 92 692 (2002) 28 (2012) 115 28 31 43 47 63 90 101 301 605
2020-07-17 12:45 5.11 90 692 (2002) 28 (2012) 115 28 31 43 47 63 90 101 301 605
2020-07-17 11:45 5.11 90 692 (2002) 28 (2012) 115 28 31 43 47 63 90 101 301 605
2020-07-17 10:45 5.11 90 692 (2002) 28 (2012) 115 28 31 43 47 63 90 101 301 605
2020-07-17 09:45 5.11 90 692 (2002) 28 (2012) 115 28 31 43 47 63 90 101 301 605
2020-07-17 08:45 5.11 90 692 (2002) 28 (2012) 115 28 31 43 47 63 90 101 301 605
2020-07-17 07:45 5.10 89 692 (2002) 28 (2012) 115 28 31 43 47 63 90 101 301 605
2020-07-17 06:45 5.11 90 692 (2002) 28 (2012) 115 28 31 43 47 63 90 101 301 605
2020-07-17 05:45 5.11 90 692 (2002) 28 (2012) 115 28 31 43 47 63 90 101 301 605
2020-07-17 04:45 5.11 90 692 (2002) 28 (2012) 115 28 31 43 47 63 90 101 301 605
2020-07-17 03:45 5.11 90 692 (2002) 28 (2012) 115 28 31 43 47 63 90 101 301 605
2020-07-17 02:45 5.10 89 692 (2002) 28 (2012) 115 28 31 43 47 63 90 101 301 605
2020-07-17 01:45 5.11 90 692 (2002) 28 (2012) 115 28 31 43 47 63 90 101 301 605
2020-07-17 00:45 5.11 90 692 (2002) 28 (2012) 115 28 31 43 47 63 90 101 301 605
2020-07-16 23:45 5.11 90 396 (2007) 32 (2013) 87 32 32 41 47 63 79 90 236 352
2020-07-16 22:45 5.10 89 396 (2007) 32 (2013) 87 32 32 41 47 63 79 90 236 352
2020-07-16 21:45 5.11 90 396 (2007) 32 (2013) 87 32 32 41 47 63 79 90 236 352
2020-07-16 20:45 5.12 92 396 (2007) 32 (2013) 87 32 32 41 47 63 79 90 236 352
2020-07-16 19:45 5.11 90 396 (2007) 32 (2013) 87 32 32 41 47 63 79 90 236 352
2020-07-16 18:45 5.11 90 396 (2007) 32 (2013) 87 32 32 41 47 63 79 90 236 352
2020-07-16 17:45 5.12 92 396 (2007) 32 (2013) 87 32 32 41 47 63 79 90 236 352
2020-07-16 16:45 5.13 94 396 (2007) 32 (2013) 87 32 32 41 47 63 79 90 236 352
2020-07-16 15:45 5.12 92 396 (2007) 32 (2013) 87 32 32 41 47 63 79 90 236 352
2020-07-16 14:45 5.12 92 396 (2007) 32 (2013) 87 32 32 41 47 63 79 90 236 352
2020-07-16 13:45 5.13 94 396 (2007) 32 (2013) 87 32 32 41 47 63 79 90 236 352
2020-07-16 12:45 5.15 97 396 (2007) 32 (2013) 87 32 32 41 47 63 79 90 236 352
2020-07-16 11:45 5.13 94 396 (2007) 32 (2013) 87 32 32 41 47 63 79 90 236 352
2020-07-16 10:45 5.13 94 396 (2007) 32 (2013) 87 32 32 41 47 63 79 90 236 352
2020-07-16 09:45 5.14 95 396 (2007) 32 (2013) 87 32 32 41 47 63 79 90 236 352
2020-07-16 08:45 5.14 95 396 (2007) 32 (2013) 87 32 32 41 47 63 79 90 236 352
2020-07-16 07:45 5.14 95 396 (2007) 32 (2013) 87 32 32 41 47 63 79 90 236 352
2020-07-16 06:45 5.14 95 396 (2007) 32 (2013) 87 32 32 41 47 63 79 90 236 352
2020-07-16 05:45 5.15 97 396 (2007) 32 (2013) 87 32 32 41 47 63 79 90 236 352
2020-07-16 04:45 5.13 94 396 (2007) 32 (2013) 87 32 32 41 47 63 79 90 236 352
2020-07-16 03:45 5.14 95 396 (2007) 32 (2013) 87 32 32 41 47 63 79 90 236 352
2020-07-16 02:45 5.14 95 396 (2007) 32 (2013) 87 32 32 41 47 63 79 90 236 352
2020-07-16 01:45 5.12 92 396 (2007) 32 (2013) 87 32 32 41 47 63 79 90 236 352
2020-07-16 00:45 5.14 95 396 (2007) 32 (2013) 87 32 32 41 47 63 79 90 236 352
2020-07-15 23:45 5.14 95 568 (2007) 26 (2013) 105 29 35 43 47 67 115 141 214 471
2020-07-15 22:45 5.14 95 568 (2007) 26 (2013) 105 29 35 43 47 67 115 141 214 471
2020-07-15 21:45 5.14 95 568 (2007) 26 (2013) 105 29 35 43 47 67 115 141 214 471
2020-07-15 20:45 5.14 95 568 (2007) 26 (2013) 105 29 35 43 47 67 115 141 214 471
2020-07-15 19:45 5.15 97 568 (2007) 26 (2013) 105 29 35 43 47 67 115 141 214 471
2020-07-15 18:45 5.15 97 568 (2007) 26 (2013) 105 29 35 43 47 67 115 141 214 471
2020-07-15 17:45 5.15 97 568 (2007) 26 (2013) 105 29 35 43 47 67 115 141 214 471
2020-07-15 16:45 5.16 99 568 (2007) 26 (2013) 105 29 35 43 47 67 115 141 214 471
2020-07-15 15:45 5.16 99 568 (2007) 26 (2013) 105 29 35 43 47 67 115 141 214 471
2020-07-15 14:45 5.17 101 568 (2007) 26 (2013) 105 29 35 43 47 67 115 141 214 471
2020-07-15 13:45 5.17 101 568 (2007) 26 (2013) 105 29 35 43 47 67 115 141 214 471
2020-07-15 12:45 5.16 99 568 (2007) 26 (2013) 105 29 35 43 47 67 115 141 214 471
2020-07-15 11:45 5.18 103 568 (2007) 26 (2013) 105 29 35 43 47 67 115 141 214 471
2020-07-15 10:45 5.19 105 568 (2007) 26 (2013) 105 29 35 43 47 67 115 141 214 471
2020-07-15 09:45 5.16 99 568 (2007) 26 (2013) 105 29 35 43 47 67 115 141 214 471
2020-07-15 08:45 5.18 103 568 (2007) 26 (2013) 105 29 35 43 47 67 115 141 214 471
2020-07-15 07:45 5.18 103 568 (2007) 26 (2013) 105 29 35 43 47 67 115 141 214 471
2020-07-15 06:45 5.16 99 568 (2007) 26 (2013) 105 29 35 43 47 67 115 141 214 471
2020-07-15 05:45 5.18 103 568 (2007) 26 (2013) 105 29 35 43 47 67 115 141 214 471
2020-07-15 04:45 5.18 103 568 (2007) 26 (2013) 105 29 35 43 47 67 115 141 214 471
2020-07-15 03:45 5.18 103 568 (2007) 26 (2013) 105 29 35 43 47 67 115 141 214 471
2020-07-15 02:45 5.18 103 568 (2007) 26 (2013) 105 29 35 43 47 67 115 141 214 471
2020-07-15 01:45 5.17 101 568 (2007) 26 (2013) 105 29 35 43 47 67 115 141 214 471
2020-07-15 00:45 5.17 101 568 (2007) 26 (2013) 105 29 35 43 47 67 115 141 214 471
2020-07-14 23:45 5.19 105 1100 (2007) 23 (2013) 121 28 34 48 53 73 92 94 139 768
2020-07-14 22:45 5.17 101 1100 (2007) 23 (2013) 121 28 34 48 53 73 92 94 139 768
2020-07-14 21:45 5.18 103 1100 (2007) 23 (2013) 121 28 34 48 53 73 92 94 139 768
2020-07-14 20:45 5.18 103 1100 (2007) 23 (2013) 121 28 34 48 53 73 92 94 139 768
2020-07-14 19:45 5.18 103 1100 (2007) 23 (2013) 121 28 34 48 53 73 92 94 139 768
2020-07-14 18:45 5.20 107 1100 (2007) 23 (2013) 121 28 34 48 53 73 92 94 139 768
2020-07-14 17:45 5.19 105 1100 (2007) 23 (2013) 121 28 34 48 53 73 92 94 139 768
2020-07-14 16:45 5.22 111 1100 (2007) 23 (2013) 121 28 34 48 53 73 92 94 139 768
2020-07-14 15:45 5.21 109 1100 (2007) 23 (2013) 121 28 34 48 53 73 92 94 139 768
2020-07-14 14:45 5.20 107 1100 (2007) 23 (2013) 121 28 34 48 53 73 92 94 139 768
2020-07-14 13:45 5.22 111 1100 (2007) 23 (2013) 121 28 34 48 53 73 92 94 139 768
2020-07-14 12:45 5.21 109 1100 (2007) 23 (2013) 121 28 34 48 53 73 92 94 139 768
2020-07-14 11:45 5.23 113 1100 (2007) 23 (2013) 121 28 34 48 53 73 92 94 139 768
2020-07-14 10:45 5.21 109 1100 (2007) 23 (2013) 121 28 34 48 53 73 92 94 139 768
2020-07-14 09:45 5.22 111 1100 (2007) 23 (2013) 121 28 34 48 53 73 92 94 139 768
2020-07-14 08:45 5.24 115 1100 (2007) 23 (2013) 121 28 34 48 53 73 92 94 139 768
2020-07-14 07:45 5.23 113 1100 (2007) 23 (2013) 121 28 34 48 53 73 92 94 139 768
2020-07-14 06:45 5.22 111 1100 (2007) 23 (2013) 121 28 34 48 53 73 92 94 139 768
2020-07-14 05:45 5.22 111 1100 (2007) 23 (2013) 121 28 34 48 53 73 92 94 139 768
2020-07-14 04:45 5.22 111 1100 (2007) 23 (2013) 121 28 34 48 53 73 92 94 139 768
2020-07-14 03:45 5.23 113 1100 (2007) 23 (2013) 121 28 34 48 53 73 92 94 139 768
2020-07-14 02:45 5.23 113 1100 (2007) 23 (2013) 121 28 34 48 53 73 92 94 139 768
2020-07-14 01:45 5.24 115 1100 (2007) 23 (2013) 121 28 34 48 53 73 92 94 139 768
2020-07-14 00:45 5.23 113 1100 (2007) 23 (2013) 121 28 34 48 53 73 92 94 139 768
2020-07-13 23:45 5.24 115 1790 (2007) 22 (2013) 124 26 30 47 50 64 88 91 103 950
2020-07-13 22:45 5.22 111 1790 (2007) 22 (2013) 124 26 30 47 50 64 88 91 103 950
2020-07-13 21:45 5.23 113 1790 (2007) 22 (2013) 124 26 30 47 50 64 88 91 103 950
2020-07-13 20:45 5.22 111 1790 (2007) 22 (2013) 124 26 30 47 50 64 88 91 103 950
2020-07-13 19:45 5.23 113 1790 (2007) 22 (2013) 124 26 30 47 50 64 88 91 103 950
2020-07-13 18:45 5.23 113 1790 (2007) 22 (2013) 124 26 30 47 50 64 88 91 103 950
2020-07-13 17:45 5.22 111 1790 (2007) 22 (2013) 124 26 30 47 50 64 88 91 103 950
2020-07-13 16:45 5.23 113 1790 (2007) 22 (2013) 124 26 30 47 50 64 88 91 103 950
2020-07-13 15:45 5.23 113 1790 (2007) 22 (2013) 124 26 30 47 50 64 88 91 103 950
2020-07-13 14:45 5.23 113 1790 (2007) 22 (2013) 124 26 30 47 50 64 88 91 103 950
2020-07-13 13:45 5.22 111 1790 (2007) 22 (2013) 124 26 30 47 50 64 88 91 103 950
2020-07-13 12:45 5.24 115 1790 (2007) 22 (2013) 124 26 30 47 50 64 88 91 103 950
2020-07-13 11:45 5.22 111 1790 (2007) 22 (2013) 124 26 30 47 50 64 88 91 103 950
2020-07-13 10:45 5.24 115 1790 (2007) 22 (2013) 124 26 30 47 50 64 88 91 103 950
2020-07-13 09:45 5.24 119 1790 (2007) 22 (2013) 124 26 30 47 50 64 88 91 103 950
2020-07-13 08:45 5.25 121 1790 (2007) 22 (2013) 124 26 30 47 50 64 88 91 103 950
2020-07-13 07:45 5.24 119 1790 (2007) 22 (2013) 124 26 30 47 50 64 88 91 103 950
2020-07-13 06:45 5.24 119 1790 (2007) 22 (2013) 124 26 30 47 50 64 88 91 103 950
2020-07-13 05:45 5.24 119 1790 (2007) 22 (2013) 124 26 30 47 50 64 88 91 103 950
2020-07-13 04:45 5.23 117 1790 (2007) 22 (2013) 124 26 30 47 50 64 88 91 103 950
2020-07-13 03:45 5.24 119 1790 (2007) 22 (2013) 124 26 30 47 50 64 88 91 103 950
2020-07-13 02:45 5.22 115 1790 (2007) 22 (2013) 124 26 30 47 50 64 88 91 103 950
2020-07-13 01:45 5.23 117 1790 (2007) 22 (2013) 124 26 30 47 50 64 88 91 103 950
2020-07-13 00:45 5.24 119 1790 (2007) 22 (2013) 124 26 30 47 50 64 88 91 103 950
2020-07-12 23:45 5.23 117 765 (2007) 28 (2012) 94 28 29 44 45 65 94 103 140 468
2020-07-12 22:45 5.22 115 765 (2007) 28 (2012) 94 28 29 44 45 65 94 103 140 468
2020-07-12 21:45 5.24 119 765 (2007) 28 (2012) 94 28 29 44 45 65 94 103 140 468
2020-07-12 20:45 5.25 121 765 (2007) 28 (2012) 94 28 29 44 45 65 94 103 140 468
2020-07-12 19:45 5.25 121 765 (2007) 28 (2012) 94 28 29 44 45 65 94 103 140 468
2020-07-12 18:45 5.24 119 765 (2007) 28 (2012) 94 28 29 44 45 65 94 103 140 468
2020-07-12 17:45 5.26 123 765 (2007) 28 (2012) 94 28 29 44 45 65 94 103 140 468
2020-07-12 16:45 5.26 123 765 (2007) 28 (2012) 94 28 29 44 45 65 94 103 140 468
2020-07-12 15:45 5.28 128 765 (2007) 28 (2012) 94 28 29 44 45 65 94 103 140 468
2020-07-12 14:45 5.27 126 765 (2007) 28 (2012) 94 28 29 44 45 65 94 103 140 468
2020-07-12 13:45 5.29 130 765 (2007) 28 (2012) 94 28 29 44 45 65 94 103 140 468
2020-07-12 12:45 5.28 128 765 (2007) 28 (2012) 94 28 29 44 45 65 94 103 140 468
2020-07-12 11:45 5.29 130 765 (2007) 28 (2012) 94 28 29 44 45 65 94 103 140 468
2020-07-12 10:45 5.29 130 765 (2007) 28 (2012) 94 28 29 44 45 65 94 103 140 468
2020-07-12 09:45 5.29 130 765 (2007) 28 (2012) 94 28 29 44 45 65 94 103 140 468
2020-07-12 08:45 5.30 132 765 (2007) 28 (2012) 94 28 29 44 45 65 94 103 140 468
2020-07-12 07:45 5.29 130 765 (2007) 28 (2012) 94 28 29 44 45 65 94 103 140 468
2020-07-12 06:45 5.30 132 765 (2007) 28 (2012) 94 28 29 44 45 65 94 103 140 468
2020-07-12 05:45 5.30 132 765 (2007) 28 (2012) 94 28 29 44 45 65 94 103 140 468
2020-07-12 04:45 5.30 132 765 (2007) 28 (2012) 94 28 29 44 45 65 94 103 140 468
2020-07-12 03:45 5.29 130 765 (2007) 28 (2012) 94 28 29 44 45 65 94 103 140 468
2020-07-12 02:45 5.30 132 765 (2007) 28 (2012) 94 28 29 44 45 65 94 103 140 468
2020-07-12 01:45 5.32 137 765 (2007) 28 (2012) 94 28 29 44 45 65 94 103 140 468
2020-07-12 00:45 5.31 135 765 (2007) 28 (2012) 94 28 29 44 45 65 94 103 140 468
2020-07-11 23:45 5.31 135 2460 (2007) 29 (2012) 159 30 33 43 46 66 91 119 189 1330
2020-07-11 22:45 5.32 137 2460 (2007) 29 (2012) 159 30 33 43 46 66 91 119 189 1330
2020-07-11 21:45 5.33 140 2460 (2007) 29 (2012) 159 30 33 43 46 66 91 119 189 1330
2020-07-11 20:45 5.32 137 2460 (2007) 29 (2012) 159 30 33 43 46 66 91 119 189 1330
2020-07-11 19:45 5.32 137 2460 (2007) 29 (2012) 159 30 33 43 46 66 91 119 189 1330
2020-07-11 18:45 5.33 140 2460 (2007) 29 (2012) 159 30 33 43 46 66 91 119 189 1330
2020-07-11 17:45 5.33 140 2460 (2007) 29 (2012) 159 30 33 43 46 66 91 119 189 1330
2020-07-11 16:45 5.35 145 2460 (2007) 29 (2012) 159 30 33 43 46 66 91 119 189 1330
2020-07-11 15:45 5.35 145 2460 (2007) 29 (2012) 159 30 33 43 46 66 91 119 189 1330
2020-07-11 14:45 5.36 147 2460 (2007) 29 (2012) 159 30 33 43 46 66 91 119 189 1330
2020-07-11 13:45 5.37 150 2460 (2007) 29 (2012) 159 30 33 43 46 66 91 119 189 1330
2020-07-11 12:45 5.37 150 2460 (2007) 29 (2012) 159 30 33 43 46 66 91 119 189 1330
2020-07-11 11:45 5.38 153 2460 (2007) 29 (2012) 159 30 33 43 46 66 91 119 189 1330
2020-07-11 10:45 5.38 153 2460 (2007) 29 (2012) 159 30 33 43 46 66 91 119 189 1330
2020-07-11 09:45 5.38 153 2460 (2007) 29 (2012) 159 30 33 43 46 66 91 119 189 1330
2020-07-11 08:45 5.37 150 2460 (2007) 29 (2012) 159 30 33 43 46 66 91 119 189 1330
2020-07-11 07:45 5.38 153 2460 (2007) 29 (2012) 159 30 33 43 46 66 91 119 189 1330
2020-07-11 06:45 5.40 158 2460 (2007) 29 (2012) 159 30 33 43 46 66 91 119 189 1330
2020-07-11 05:45 5.38 153 2460 (2007) 29 (2012) 159 30 33 43 46 66 91 119 189 1330
2020-07-11 04:45 5.38 153 2460 (2007) 29 (2012) 159 30 33 43 46 66 91 119 189 1330
2020-07-11 03:45 5.37 150 2460 (2007) 29 (2012) 159 30 33 43 46 66 91 119 189 1330
2020-07-11 02:45 5.39 155 2460 (2007) 29 (2012) 159 30 33 43 46 66 91 119 189 1330
2020-07-11 01:45 5.38 153 2460 (2007) 29 (2012) 159 30 33 43 46 66 91 119 189 1330
2020-07-11 00:45 5.40 158 2460 (2007) 29 (2012) 159 30 33 43 46 66 91 119 189 1330
2020-07-10 23:45 5.38 153 2260 (2007) 25 (2013) 154 29 34 40 44 66 82 114 200 1300
2020-07-10 22:45 5.38 153 2260 (2007) 25 (2013) 154 29 34 40 44 66 82 114 200 1300
2020-07-10 21:45 5.38 153 2260 (2007) 25 (2013) 154 29 34 40 44 66 82 114 200 1300
2020-07-10 20:45 5.38 153 2260 (2007) 25 (2013) 154 29 34 40 44 66 82 114 200 1300
2020-07-10 19:45 5.38 153 2260 (2007) 25 (2013) 154 29 34 40 44 66 82 114 200 1300
2020-07-10 18:45 5.40 158 2260 (2007) 25 (2013) 154 29 34 40 44 66 82 114 200 1300
2020-07-10 17:45 5.41 161 2260 (2007) 25 (2013) 154 29 34 40 44 66 82 114 200 1300
2020-07-10 16:45 5.45 173 2260 (2007) 25 (2013) 154 29 34 40 44 66 82 114 200 1300
2020-07-10 15:45 5.37 150 2260 (2007) 25 (2013) 154 29 34 40 44 66 82 114 200 1300
2020-07-10 14:45 5.37 150 2260 (2007) 25 (2013) 154 29 34 40 44 66 82 114 200 1300
2020-07-10 13:45 5.37 148 2260 (2007) 25 (2013) 154 29 34 40 44 66 82 114 200 1300
2020-07-10 12:45 5.39 153 2260 (2007) 25 (2013) 154 29 34 40 44 66 82 114 200 1300
2020-07-10 11:45 5.37 148 2260 (2007) 25 (2013) 154 29 34 40 44 66 82 114 200 1300
2020-07-10 10:45 5.39 153 2260 (2007) 25 (2013) 154 29 34 40 44 66 82 114 200 1300
2020-07-10 09:45 5.41 158 2260 (2007) 25 (2013) 154 29 34 40 44 66 82 114 200 1300
2020-07-10 08:45 5.40 156 2260 (2007) 25 (2013) 154 29 34 40 44 66 82 114 200 1300
2020-07-10 07:45 5.42 161 2260 (2007) 25 (2013) 154 29 34 40 44 66 82 114 200 1300
2020-07-10 06:45 5.41 158 2260 (2007) 25 (2013) 154 29 34 40 44 66 82 114 200 1300
2020-07-10 05:45 5.41 158 2260 (2007) 25 (2013) 154 29 34 40 44 66 82 114 200 1300
2020-07-10 04:45 5.41 158 2260 (2007) 25 (2013) 154 29 34 40 44 66 82 114 200 1300
2020-07-10 03:45 5.42 161 2260 (2007) 25 (2013) 154 29 34 40 44 66 82 114 200 1300
2020-07-10 02:45 5.44 166 2260 (2007) 25 (2013) 154 29 34 40 44 66 82 114 200 1300
2020-07-10 01:45 5.42 161 2260 (2007) 25 (2013) 154 29 34 40 44 66 82 114 200 1300
2020-07-10 00:45 5.43 164 2260 (2007) 25 (2013) 154 29 34 40 44 66 82 114 200 1300
2020-07-09 23:45 5.42 161 722 (2014) 24 (2013) 95 28 37 39 42 58 81 98 195 469
2020-07-09 22:45 5.44 166 722 (2014) 24 (2013) 95 28 37 39 42 58 81 98 195 469
2020-07-09 21:45 5.43 164 722 (2014) 24 (2013) 95 28 37 39 42 58 81 98 195 469
2020-07-09 20:45 5.42 161 722 (2014) 24 (2013) 95 28 37 39 42 58 81 98 195 469
2020-07-09 19:45 5.45 169 722 (2014) 24 (2013) 95 28 37 39 42 58 81 98 195 469
2020-07-09 18:45 5.44 166 722 (2014) 24 (2013) 95 28 37 39 42 58 81 98 195 469
2020-07-09 17:45 5.45 169 722 (2014) 24 (2013) 95 28 37 39 42 58 81 98 195 469
2020-07-09 16:45 5.46 172 722 (2014) 24 (2013) 95 28 37 39 42 58 81 98 195 469
2020-07-09 15:45 5.44 166 722 (2014) 24 (2013) 95 28 37 39 42 58 81 98 195 469
2020-07-09 14:45 5.45 169 722 (2014) 24 (2013) 95 28 37 39 42 58 81 98 195 469
2020-07-09 13:45 5.45 169 722 (2014) 24 (2013) 95 28 37 39 42 58 81 98 195 469
2020-07-09 12:45 5.46 172 722 (2014) 24 (2013) 95 28 37 39 42 58 81 98 195 469
2020-07-09 11:45 5.46 172 722 (2014) 24 (2013) 95 28 37 39 42 58 81 98 195 469
2020-07-09 10:45 5.45 169 722 (2014) 24 (2013) 95 28 37 39 42 58 81 98 195 469
2020-07-09 09:45 5.46 172 722 (2014) 24 (2013) 95 28 37 39 42 58 81 98 195 469
2020-07-09 08:45 5.47 175 722 (2014) 24 (2013) 95 28 37 39 42 58 81 98 195 469
2020-07-09 07:45 5.46 172 722 (2014) 24 (2013) 95 28 37 39 42 58 81 98 195 469
2020-07-09 06:45 5.48 177 722 (2014) 24 (2013) 95 28 37 39 42 58 81 98 195 469
2020-07-09 05:45 5.46 172 722 (2014) 24 (2013) 95 28 37 39 42 58 81 98 195 469
2020-07-09 04:45 5.47 175 722 (2014) 24 (2013) 95 28 37 39 42 58 81 98 195 469
2020-07-09 03:45 5.48 177 722 (2014) 24 (2013) 95 28 37 39 42 58 81 98 195 469
2020-07-09 02:45 5.47 175 722 (2014) 24 (2013) 95 28 37 39 42 58 81 98 195 469
2020-07-09 01:45 5.46 172 722 (2014) 24 (2013) 95 28 37 39 42 58 81 98 195 469
2020-07-09 00:45 5.48 177 722 (2014) 24 (2013) 95 28 37 39 42 58 81 98 195 469
2020-07-08 23:45 5.49 180 271 (1995) 28 (2013) 73 29 33 42 43 56 83 101 155 238
2020-07-08 22:45 5.50 183 271 (1995) 28 (2013) 73 29 33 42 43 56 83 101 155 238
2020-07-08 21:45 5.50 183 271 (1995) 28 (2013) 73 29 33 42 43 56 83 101 155 238
2020-07-08 20:45 5.51 186 271 (1995) 28 (2013) 73 29 33 42 43 56 83 101 155 238
2020-07-08 19:45 5.51 186 271 (1995) 28 (2013) 73 29 33 42 43 56 83 101 155 238
2020-07-08 18:45 5.50 183 271 (1995) 28 (2013) 73 29 33 42 43 56 83 101 155 238
2020-07-08 17:45 5.53 191 271 (1995) 28 (2013) 73 29 33 42 43 56 83 101 155 238
2020-07-08 16:45 5.51 186 271 (1995) 28 (2013) 73 29 33 42 43 56 83 101 155 238
2020-07-08 15:45 5.53 191 271 (1995) 28 (2013) 73 29 33 42 43 56 83 101 155 238
2020-07-08 14:45 5.54 194 271 (1995) 28 (2013) 73 29 33 42 43 56 83 101 155 238
2020-07-08 13:45 5.56 200 271 (1995) 28 (2013) 73 29 33 42 43 56 83 101 155 238
2020-07-08 12:45 5.58 205 271 (1995) 28 (2013) 73 29 33 42 43 56 83 101 155 238
2020-07-08 11:45 5.58 205 271 (1995) 28 (2013) 73 29 33 42 43 56 83 101 155 238
2020-07-08 10:45 5.62 217 271 (1995) 28 (2013) 73 29 33 42 43 56 83 101 155 238
2020-07-08 09:45 5.61 214 271 (1995) 28 (2013) 73 29 33 42 43 56 83 101 155 238
2020-07-08 08:45 5.59 208 271 (1995) 28 (2013) 73 29 33 42 43 56 83 101 155 238
2020-07-08 07:45 5.60 211 271 (1995) 28 (2013) 73 29 33 42 43 56 83 101 155 238
2020-07-08 06:45 5.63 220 271 (1995) 28 (2013) 73 29 33 42 43 56 83 101 155 238
2020-07-08 05:45 5.62 217 271 (1995) 28 (2013) 73 29 33 42 43 56 83 101 155 238
2020-07-08 04:45 5.65 225 271 (1995) 28 (2013) 73 29 33 42 43 56 83 101 155 238
2020-07-08 03:45 5.64 222 271 (1995) 28 (2013) 73 29 33 42 43 56 83 101 155 238
2020-07-08 02:45 5.63 220 271 (1995) 28 (2013) 73 29 33 42 43 56 83 101 155 238
2020-07-08 01:45 5.67 231 271 (1995) 28 (2013) 73 29 33 42 43 56 83 101 155 238
2020-07-08 00:45 5.68 234 271 (1995) 28 (2013) 73 29 33 42 43 56 83 101 155 238
2020-07-07 23:45 5.66 228 405 (1995) 22 (2012) 81 26 36 43 46 61 78 93 169 324
2020-07-07 22:45 5.64 222 405 (1995) 22 (2012) 81 26 36 43 46 61 78 93 169 324
2020-07-07 21:45 5.66 228 405 (1995) 22 (2012) 81 26 36 43 46 61 78 93 169 324
2020-07-07 20:45 5.63 220 405 (1995) 22 (2012) 81 26 36 43 46 61 78 93 169 324
2020-07-07 19:45 5.66 228 405 (1995) 22 (2012) 81 26 36 43 46 61 78 93 169 324
2020-07-07 18:45 5.65 225 405 (1995) 22 (2012) 81 26 36 43 46 61 78 93 169 324
2020-07-07 17:45 5.66 228 405 (1995) 22 (2012) 81 26 36 43 46 61 78 93 169 324
2020-07-07 16:45 5.67 231 405 (1995) 22 (2012) 81 26 36 43 46 61 78 93 169 324
2020-07-07 15:45 5.67 231 405 (1995) 22 (2012) 81 26 36 43 46 61 78 93 169 324
2020-07-07 14:45 5.69 237 405 (1995) 22 (2012) 81 26 36 43 46 61 78 93 169 324
2020-07-07 13:45 5.69 237 405 (1995) 22 (2012) 81 26 36 43 46 61 78 93 169 324
2020-07-07 12:45 5.67 231 405 (1995) 22 (2012) 81 26 36 43 46 61 78 93 169 324
2020-07-07 11:45 5.70 240 405 (1995) 22 (2012) 81 26 36 43 46 61 78 93 169 324
2020-07-07 10:45 5.72 246 405 (1995) 22 (2012) 81 26 36 43 46 61 78 93 169 324
2020-07-07 09:45 5.70 240 405 (1995) 22 (2012) 81 26 36 43 46 61 78 93 169 324
2020-07-07 08:45 5.72 246 405 (1995) 22 (2012) 81 26 36 43 46 61 78 93 169 324
2020-07-07 07:45 5.72 246 405 (1995) 22 (2012) 81 26 36 43 46 61 78 93 169 324
2020-07-07 06:45 5.72 246 405 (1995) 22 (2012) 81 26 36 43 46 61 78 93 169 324
2020-07-07 05:45 5.73 249 405 (1995) 22 (2012) 81 26 36 43 46 61 78 93 169 324
2020-07-07 04:45 5.74 252 405 (1995) 22 (2012) 81 26 36 43 46 61 78 93 169 324
2020-07-07 03:45 5.74 252 405 (1995) 22 (2012) 81 26 36 43 46 61 78 93 169 324
2020-07-07 02:45 5.75 255 405 (1995) 22 (2012) 81 26 36 43 46 61 78 93 169 324
2020-07-07 01:45 5.77 261 405 (1995) 22 (2012) 81 26 36 43 46 61 78 93 169 324
2020-07-07 00:45 5.79 267 405 (1995) 22 (2012) 81 26 36 43 46 61 78 93 169 324
2020-07-06 23:45 5.81 273 748 (1995) 18 (2012) 106 25 39 46 47 68 82 89 222 564
2020-07-06 22:45 5.80 270 748 (1995) 18 (2012) 106 25 39 46 47 68 82 89 222 564
2020-07-06 21:45 5.80 270 748 (1995) 18 (2012) 106 25 39 46 47 68 82 89 222 564
2020-07-06 20:45 5.75 255 748 (1995) 18 (2012) 106 25 39 46 47 68 82 89 222 564
2020-07-06 19:45 5.79 267 748 (1995) 18 (2012) 106 25 39 46 47 68 82 89 222 564
2020-07-06 18:45 5.80 270 748 (1995) 18 (2012) 106 25 39 46 47 68 82 89 222 564
2020-07-06 17:45 5.79 267 748 (1995) 18 (2012) 106 25 39 46 47 68 82 89 222 564
2020-07-06 16:45 5.83 279 748 (1995) 18 (2012) 106 25 39 46 47 68 82 89 222 564
2020-07-06 15:45 5.86 288 748 (1995) 18 (2012) 106 25 39 46 47 68 82 89 222 564
2020-07-06 14:45 5.88 294 748 (1995) 18 (2012) 106 25 39 46 47 68 82 89 222 564
2020-07-06 13:45 5.84 282 748 (1995) 18 (2012) 106 25 39 46 47 68 82 89 222 564
2020-07-06 12:45 5.88 294 748 (1995) 18 (2012) 106 25 39 46 47 68 82 89 222 564
2020-07-06 11:45 5.91 303 748 (1995) 18 (2012) 106 25 39 46 47 68 82 89 222 564
2020-07-06 10:45 5.93 310 748 (1995) 18 (2012) 106 25 39 46 47 68 82 89 222 564
2020-07-06 09:45 5.95 318 748 (1995) 18 (2012) 106 25 39 46 47 68 82 89 222 564
2020-07-06 08:45 5.95 318 748 (1995) 18 (2012) 106 25 39 46 47 68 82 89 222 564
2020-07-06 07:45 5.95 318 748 (1995) 18 (2012) 106 25 39 46 47 68 82 89 222 564
2020-07-06 06:45 5.97 327 748 (1995) 18 (2012) 106 25 39 46 47 68 82 89 222 564
2020-07-06 05:45 6.03 369 748 (1995) 18 (2012) 106 25 39 46 47 68 82 89 222 564
2020-07-06 04:45 6.05 385 748 (1995) 18 (2012) 106 25 39 46 47 68 82 89 222 564
2020-07-06 03:45 6.09 417 748 (1995) 18 (2012) 106 25 39 46 47 68 82 89 222 564
2020-07-06 02:45 6.14 459 748 (1995) 18 (2012) 106 25 39 46 47 68 82 89 222 564
2020-07-06 01:45 6.22 532 748 (1995) 18 (2012) 106 25 39 46 47 68 82 89 222 564
2020-07-06 00:45 6.32 633 748 (1995) 18 (2012) 106 25 39 46 47 68 82 89 222 564
2020-07-05 23:45 6.19 503 4410 (1995) 19 (2012) 255 26 36 48 48 72 99 119 406 2510
2020-07-05 22:45 6.05 385 4410 (1995) 19 (2012) 255 26 36 48 48 72 99 119 406 2510
2020-07-05 21:45 5.99 340 4410 (1995) 19 (2012) 255 26 36 48 48 72 99 119 406 2510
2020-07-05 20:45 5.85 285 4410 (1995) 19 (2012) 255 26 36 48 48 72 99 119 406 2510
2020-07-05 19:45 5.88 294 4410 (1995) 19 (2012) 255 26 36 48 48 72 99 119 406 2510
2020-07-05 18:45 5.87 291 4410 (1995) 19 (2012) 255 26 36 48 48 72 99 119 406 2510
2020-07-05 17:45 5.91 303 4410 (1995) 19 (2012) 255 26 36 48 48 72 99 119 406 2510
2020-07-05 16:45 5.92 306 4410 (1995) 19 (2012) 255 26 36 48 48 72 99 119 406 2510
2020-07-05 15:45 5.95 318 4410 (1995) 19 (2012) 255 26 36 48 48 72 99 119 406 2510
2020-07-05 14:45 5.93 310 4410 (1995) 19 (2012) 255 26 36 48 48 72 99 119 406 2510
2020-07-05 13:45 5.92 306 4410 (1995) 19 (2012) 255 26 36 48 48 72 99 119 406 2510
2020-07-05 12:45 5.92 306 4410 (1995) 19 (2012) 255 26 36 48 48 72 99 119 406 2510
2020-07-05 11:45 5.95 318 4410 (1995) 19 (2012) 255 26 36 48 48 72 99 119 406 2510
2020-07-05 10:45 5.94 314 4410 (1995) 19 (2012) 255 26 36 48 48 72 99 119 406 2510
2020-07-05 09:45 5.94 314 4410 (1995) 19 (2012) 255 26 36 48 48 72 99 119 406 2510
2020-07-05 08:45 5.92 306 4410 (1995) 19 (2012) 255 26 36 48 48 72 99 119 406 2510
2020-07-05 07:45 5.95 318 4410 (1995) 19 (2012) 255 26 36 48 48 72 99 119 406 2510
2020-07-05 06:45 5.96 322 4410 (1995) 19 (2012) 255 26 36 48 48 72 99 119 406 2510
2020-07-05 05:45 5.99 340 4410 (1995) 19 (2012) 255 26 36 48 48 72 99 119 406 2510
2020-07-05 04:45 6.04 377 4410 (1995) 19 (2012) 255 26 36 48 48 72 99 119 406 2510
2020-07-05 03:45 6.05 385 4410 (1995) 19 (2012) 255 26 36 48 48 72 99 119 406 2510
2020-07-05 02:45 6.08 408 4410 (1995) 19 (2012) 255 26 36 48 48 72 99 119 406 2510
2020-07-05 01:45 6.13 450 4410 (1995) 19 (2012) 255 26 36 48 48 72 99 119 406 2510
2020-07-05 00:45 6.13 450 4410 (1995) 19 (2012) 255 26 36 48 48 72 99 119 406 2510
2020-07-04 23:45 6.18 494 800 (2004) 21 (2012) 114 26 35 47 50 70 91 107 213 683
2020-07-04 22:45 6.20 513 800 (2004) 21 (2012) 114 26 35 47 50 70 91 107 213 683
2020-07-04 21:45 6.29 601 800 (2004) 21 (2012) 114 26 35 47 50 70 91 107 213 683
2020-07-04 20:45 6.39 697 800 (2004) 21 (2012) 114 26 35 47 50 70 91 107 213 683
2020-07-04 19:45 6.47 770 800 (2004) 21 (2012) 114 26 35 47 50 70 91 107 213 683
2020-07-04 18:45 6.53 820 800 (2004) 21 (2012) 114 26 35 47 50 70 91 107 213 683
2020-07-04 17:45 6.40 706 800 (2004) 21 (2012) 114 26 35 47 50 70 91 107 213 683
2020-07-04 16:45 6.07 400 800 (2004) 21 (2012) 114 26 35 47 50 70 91 107 213 683
2020-07-04 15:45 5.83 279 800 (2004) 21 (2012) 114 26 35 47 50 70 91 107 213 683
2020-07-04 14:45 5.75 255 800 (2004) 21 (2012) 114 26 35 47 50 70 91 107 213 683
2020-07-04 13:45 5.53 191 800 (2004) 21 (2012) 114 26 35 47 50 70 91 107 213 683
2020-07-04 12:45 5.47 175 800 (2004) 21 (2012) 114 26 35 47 50 70 91 107 213 683
2020-07-04 11:45 5.45 169 800 (2004) 21 (2012) 114 26 35 47 50 70 91 107 213 683
2020-07-04 10:45 5.48 177 800 (2004) 21 (2012) 114 26 35 47 50 70 91 107 213 683
2020-07-04 09:45 5.47 175 800 (2004) 21 (2012) 114 26 35 47 50 70 91 107 213 683
2020-07-04 08:45 5.48 177 800 (2004) 21 (2012) 114 26 35 47 50 70 91 107 213 683
2020-07-04 07:45 5.49 180 800 (2004) 21 (2012) 114 26 35 47 50 70 91 107 213 683
2020-07-04 06:45 5.46 172 800 (2004) 21 (2012) 114 26 35 47 50 70 91 107 213 683
2020-07-04 05:45 5.41 158 800 (2004) 21 (2012) 114 26 35 47 50 70 91 107 213 683
2020-07-04 04:45 5.37 148 800 (2004) 21 (2012) 114 26 35 47 50 70 91 107 213 683
2020-07-04 03:45 5.34 140 800 (2004) 21 (2012) 114 26 35 47 50 70 91 107 213 683
2020-07-04 02:45 5.35 142 800 (2004) 21 (2012) 114 26 35 47 50 70 91 107 213 683
2020-07-04 01:45 5.33 137 800 (2004) 21 (2012) 114 26 35 47 50 70 91 107 213 683
2020-07-04 00:45 5.34 140 800 (2004) 21 (2012) 114 26 35 47 50 70 91 107 213 683
2020-07-03 23:45 5.34 140 1230 (2004) 22 (2012) 115 28 35 48 50 70 95 110 160 700
2020-07-03 22:45 5.34 140 1230 (2004) 22 (2012) 115 28 35 48 50 70 95 110 160 700
2020-07-03 21:45 5.34 140 1230 (2004) 22 (2012) 115 28 35 48 50 70 95 110 160 700
2020-07-03 20:45 5.37 148 1230 (2004) 22 (2012) 115 28 35 48 50 70 95 110 160 700
2020-07-03 19:45 5.37 148 1230 (2004) 22 (2012) 115 28 35 48 50 70 95 110 160 700
2020-07-03 18:45 5.42 161 1230 (2004) 22 (2012) 115 28 35 48 50 70 95 110 160 700
2020-07-03 17:45 5.44 166 1230 (2004) 22 (2012) 115 28 35 48 50 70 95 110 160 700
2020-07-03 16:45 5.39 153 1230 (2004) 22 (2012) 115 28 35 48 50 70 95 110 160 700
2020-07-03 15:45 5.37 148 1230 (2004) 22 (2012) 115 28 35 48 50 70 95 110 160 700
2020-07-03 14:45 5.38 150 1230 (2004) 22 (2012) 115 28 35 48 50 70 95 110 160 700
2020-07-03 13:45 5.40 156 1230 (2004) 22 (2012) 115 28 35 48 50 70 95 110 160 700
2020-07-03 12:45 5.39 153 1230 (2004) 22 (2012) 115 28 35 48 50 70 95 110 160 700
2020-07-03 11:45 5.42 161 1230 (2004) 22 (2012) 115 28 35 48 50 70 95 110 160 700
2020-07-03 10:45 5.40 156 1230 (2004) 22 (2012) 115 28 35 48 50 70 95 110 160 700
2020-07-03 09:45 5.41 158 1230 (2004) 22 (2012) 115 28 35 48 50 70 95 110 160 700
2020-07-03 08:45 5.41 158 1230 (2004) 22 (2012) 115 28 35 48 50 70 95 110 160 700
2020-07-03 07:45 5.40 156 1230 (2004) 22 (2012) 115 28 35 48 50 70 95 110 160 700
2020-07-03 06:45 5.42 161 1230 (2004) 22 (2012) 115 28 35 48 50 70 95 110 160 700
2020-07-03 05:45 5.42 161 1230 (2004) 22 (2012) 115 28 35 48 50 70 95 110 160 700
2020-07-03 04:45 5.42 161 1230 (2004) 22 (2012) 115 28 35 48 50 70 95 110 160 700
2020-07-03 03:45 5.43 164 1230 (2004) 22 (2012) 115 28 35 48 50 70 95 110 160 700
2020-07-03 02:45 5.43 164 1230 (2004) 22 (2012) 115 28 35 48 50 70 95 110 160 700
2020-07-03 01:45 5.42 161 1230 (2004) 22 (2012) 115 28 35 48 50 70 95 110 160 700
2020-07-03 00:45 5.44 166 1230 (2004) 22 (2012) 115 28 35 48 50 70 95 110 160 700
2020-07-02 23:45 5.44 166 263 (1994) 20 (2012) 84 28 37 48 50 66 97 104 177 254
2020-07-02 22:45 5.43 164 263 (1994) 20 (2012) 84 28 37 48 50 66 97 104 177 254
2020-07-02 21:45 5.45 169 263 (1994) 20 (2012) 84 28 37 48 50 66 97 104 177 254
2020-07-02 20:45 5.44 166 263 (1994) 20 (2012) 84 28 37 48 50 66 97 104 177 254
2020-07-02 19:45 5.45 169 263 (1994) 20 (2012) 84 28 37 48 50 66 97 104 177 254
2020-07-02 18:45 5.47 175 263 (1994) 20 (2012) 84 28 37 48 50 66 97 104 177 254
2020-07-02 17:45 5.46 172 263 (1994) 20 (2012) 84 28 37 48 50 66 97 104 177 254
2020-07-02 16:45 5.49 180 263 (1994) 20 (2012) 84 28 37 48 50 66 97 104 177 254
2020-07-02 15:45 5.48 177 263 (1994) 20 (2012) 84 28 37 48 50 66 97 104 177 254
2020-07-02 14:45 5.52 188 263 (1994) 20 (2012) 84 28 37 48 50 66 97 104 177 254
2020-07-02 13:45 5.51 186 263 (1994) 20 (2012) 84 28 37 48 50 66 97 104 177 254
2020-07-02 12:45 5.52 188 263 (1994) 20 (2012) 84 28 37 48 50 66 97 104 177 254
2020-07-02 11:45 5.52 188 263 (1994) 20 (2012) 84 28 37 48 50 66 97 104 177 254
2020-07-02 10:45 5.54 194 263 (1994) 20 (2012) 84 28 37 48 50 66 97 104 177 254
2020-07-02 09:45 5.56 200 263 (1994) 20 (2012) 84 28 37 48 50 66 97 104 177 254
2020-07-02 08:45 5.54 194 263 (1994) 20 (2012) 84 28 37 48 50 66 97 104 177 254
2020-07-02 07:45 5.54 194 263 (1994) 20 (2012) 84 28 37 48 50 66 97 104 177 254
2020-07-02 06:45 5.56 200 263 (1994) 20 (2012) 84 28 37 48 50 66 97 104 177 254
2020-07-02 05:45 5.56 200 263 (1994) 20 (2012) 84 28 37 48 50 66 97 104 177 254
2020-07-02 04:45 5.59 208 263 (1994) 20 (2012) 84 28 37 48 50 66 97 104 177 254
2020-07-02 03:45 5.58 205 263 (1994) 20 (2012) 84 28 37 48 50 66 97 104 177 254
2020-07-02 02:45 5.60 211 263 (1994) 20 (2012) 84 28 37 48 50 66 97 104 177 254
2020-07-02 01:45 5.59 208 263 (1994) 20 (2012) 84 28 37 48 50 66 97 104 177 254
2020-07-02 00:45 5.59 208 263 (1994) 20 (2012) 84 28 37 48 50 66 97 104 177 254
2020-07-01 23:45 5.63 220 467 (1994) 19 (2012) 103 27 37 47 49 69 117 158 227 362
2020-07-01 22:45 5.63 220 467 (1994) 19 (2012) 103 27 37 47 49 69 117 158 227 362
2020-07-01 21:45 5.59 208 467 (1994) 19 (2012) 103 27 37 47 49 69 117 158 227 362
2020-07-01 20:45 5.64 222 467 (1994) 19 (2012) 103 27 37 47 49 69 117 158 227 362
2020-07-01 19:45 5.67 231 467 (1994) 19 (2012) 103 27 37 47 49 69 117 158 227 362
2020-07-01 18:45 5.68 234 467 (1994) 19 (2012) 103 27 37 47 49 69 117 158 227 362
2020-07-01 17:45 5.66 228 467 (1994) 19 (2012) 103 27 37 47 49 69 117 158 227 362
2020-07-01 16:45 5.71 243 467 (1994) 19 (2012) 103 27 37 47 49 69 117 158 227 362
2020-07-01 15:45 5.69 237 467 (1994) 19 (2012) 103 27 37 47 49 69 117 158 227 362
2020-07-01 14:45 5.70 240 467 (1994) 19 (2012) 103 27 37 47 49 69 117 158 227 362
2020-07-01 13:45 5.72 246 467 (1994) 19 (2012) 103 27 37 47 49 69 117 158 227 362
2020-07-01 12:45 5.70 240 467 (1994) 19 (2012) 103 27 37 47 49 69 117 158 227 362
2020-07-01 11:45 5.74 252 467 (1994) 19 (2012) 103 27 37 47 49 69 117 158 227 362
2020-07-01 10:45 5.74 252 467 (1994) 19 (2012) 103 27 37 47 49 69 117 158 227 362
2020-07-01 09:45 5.75 255 467 (1994) 19 (2012) 103 27 37 47 49 69 117 158 227 362
2020-07-01 08:45 5.76 258 467 (1994) 19 (2012) 103 27 37 47 49 69 117 158 227 362
2020-07-01 07:45 5.73 249 467 (1994) 19 (2012) 103 27 37 47 49 69 117 158 227 362
2020-07-01 06:45 5.74 252 467 (1994) 19 (2012) 103 27 37 47 49 69 117 158 227 362
2020-07-01 05:45 5.78 264 467 (1994) 19 (2012) 103 27 37 47 49 69 117 158 227 362
2020-07-01 04:45 5.78 264 467 (1994) 19 (2012) 103 27 37 47 49 69 117 158 227 362
2020-07-01 03:45 5.80 270 467 (1994) 19 (2012) 103 27 37 47 49 69 117 158 227 362
2020-07-01 02:45 5.83 279 467 (1994) 19 (2012) 103 27 37 47 49 69 117 158 227 362
2020-07-01 01:45 5.82 276 467 (1994) 19 (2012) 103 27 37 47 49 69 117 158 227 362
2020-07-01 00:45 5.85 285 467 (1994) 19 (2012) 103 27 37 47 49 69 117 158 227 362
2020-06-30 23:45 5.89 297 346 (1992) 21 (2012) 97 27 36 45 51 69 123 145 184 309
2020-06-30 22:45 5.91 303 346 (1992) 21 (2012) 97 27 36 45 51 69 123 145 184 309
2020-06-30 21:45 5.91 303 346 (1992) 21 (2012) 97 27 36 45 51 69 123 145 184 309
2020-06-30 20:45 5.92 306 346 (1992) 21 (2012) 97 27 36 45 51 69 123 145 184 309
2020-06-30 19:45 5.92 306 346 (1992) 21 (2012) 97 27 36 45 51 69 123 145 184 309
2020-06-30 18:45 5.96 322 346 (1992) 21 (2012) 97 27 36 45 51 69 123 145 184 309
2020-06-30 17:45 5.98 333 346 (1992) 21 (2012) 97 27 36 45 51 69 123 145 184 309
2020-06-30 16:45 6.01 354 346 (1992) 21 (2012) 97 27 36 45 51 69 123 145 184 309
2020-06-30 15:45 6.02 362 346 (1992) 21 (2012) 97 27 36 45 51 69 123 145 184 309
2020-06-30 14:45 6.03 369 346 (1992) 21 (2012) 97 27 36 45 51 69 123 145 184 309
2020-06-30 13:45 6.08 408 346 (1992) 21 (2012) 97 27 36 45 51 69 123 145 184 309
2020-06-30 12:45 6.05 385 346 (1992) 21 (2012) 97 27 36 45 51 69 123 145 184 309
2020-06-30 11:45 6.13 450 346 (1992) 21 (2012) 97 27 36 45 51 69 123 145 184 309
2020-06-30 10:45 6.17 485 346 (1992) 21 (2012) 97 27 36 45 51 69 123 145 184 309
2020-06-30 09:45 6.20 633 346 (1992) 21 (2012) 97 27 36 45 51 69 123 145 184 309
2020-06-30 08:45 6.25 678 346 (1992) 21 (2012) 97 27 36 45 51 69 123 145 184 309
2020-06-30 07:45 6.33 754 346 (1992) 21 (2012) 97 27 36 45 51 69 123 145 184 309
2020-06-30 06:45 6.36 779 346 (1992) 21 (2012) 97 27 36 45 51 69 123 145 184 309
2020-06-30 05:45 6.41 820 346 (1992) 21 (2012) 97 27 36 45 51 69 123 145 184 309
2020-06-30 04:45 6.45 854 346 (1992) 21 (2012) 97 27 36 45 51 69 123 145 184 309
2020-06-30 03:45 6.48 880 346 (1992) 21 (2012) 97 27 36 45 51 69 123 145 184 309
2020-06-30 02:45 6.46 863 346 (1992) 21 (2012) 97 27 36 45 51 69 123 145 184 309
2020-06-30 01:45 6.46 863 346 (1992) 21 (2012) 97 27 36 45 51 69 123 145 184 309
2020-06-30 00:45 6.37 787 346 (1992) 21 (2012) 97 27 36 45 51 69 123 145 184 309
2020-06-29 23:45 6.49 886 443 (1992) 22 (2012) 116 29 39 45 51 78 138 173 318 442
2020-06-29 22:45 6.58 944 443 (1992) 22 (2012) 116 29 39 45 51 78 138 173 318 442
2020-06-29 21:45 6.78 1030 443 (1992) 22 (2012) 116 29 39 45 51 78 138 173 318 442
2020-06-29 20:45 6.88 1060 443 (1992) 22 (2012) 116 29 39 45 51 78 138 173 318 442
2020-06-29 19:45 7.05 1120 443 (1992) 22 (2012) 116 29 39 45 51 78 138 173 318 442
2020-06-29 18:45 7.08 1130 443 (1992) 22 (2012) 116 29 39 45 51 78 138 173 318 442
2020-06-29 17:45 7.04 1120 443 (1992) 22 (2012) 116 29 39 45 51 78 138 173 318 442
2020-06-29 16:45 7.23 1180 443 (1992) 22 (2012) 116 29 39 45 51 78 138 173 318 442
2020-06-29 15:45 7.22 1180 443 (1992) 22 (2012) 116 29 39 45 51 78 138 173 318 442
2020-06-29 14:45 7.79 1360 443 (1992) 22 (2012) 116 29 39 45 51 78 138 173 318 442
2020-06-29 13:45 7.27 1190 443 (1992) 22 (2012) 116 29 39 45 51 78 138 173 318 442
2020-06-29 12:45 7.19 1170 443 (1992) 22 (2012) 116 29 39 45 51 78 138 173 318 442
2020-06-29 11:45 6.29 715 443 (1992) 22 (2012) 116 29 39 45 51 78 138 173 318 442
2020-06-29 10:45 5.56 234 443 (1992) 22 (2012) 116 29 39 45 51 78 138 173 318 442
2020-06-29 09:45 5.29 158 443 (1992) 22 (2012) 116 29 39 45 51 78 138 173 318 442
2020-06-29 08:45 5.27 153 443 (1992) 22 (2012) 116 29 39 45 51 78 138 173 318 442
2020-06-29 07:45 5.27 153 443 (1992) 22 (2012) 116 29 39 45 51 78 138 173 318 442
2020-06-29 06:45 5.27 153 443 (1992) 22 (2012) 116 29 39 45 51 78 138 173 318 442
2020-06-29 05:45 5.28 156 443 (1992) 22 (2012) 116 29 39 45 51 78 138 173 318 442
2020-06-29 04:45 5.27 153 443 (1992) 22 (2012) 116 29 39 45 51 78 138 173 318 442
2020-06-29 03:45 5.27 153 443 (1992) 22 (2012) 116 29 39 45 51 78 138 173 318 442
2020-06-29 02:45 5.28 156 443 (1992) 22 (2012) 116 29 39 45 51 78 138 173 318 442
2020-06-29 01:45 5.28 156 443 (1992) 22 (2012) 116 29 39 45 51 78 138 173 318 442
2020-06-29 00:45 5.28 156 443 (1992) 22 (2012) 116 29 39 45 51 78 138 173 318 442
2020-06-28 23:45 5.27 153 259 (2000) 25 (2012) 89 31 40 49 52 64 95 122 220 245
2020-06-28 22:45 5.28 156 259 (2000) 25 (2012) 89 31 40 49 52 64 95 122 220 245
2020-06-28 21:45 5.27 153 259 (2000) 25 (2012) 89 31 40 49 52 64 95 122 220 245
2020-06-28 20:45 5.26 150 259 (2000) 25 (2012) 89 31 40 49 52 64 95 122 220 245
2020-06-28 19:45 5.29 158 259 (2000) 25 (2012) 89 31 40 49 52 64 95 122 220 245
2020-06-28 18:45 5.26 150 259 (2000) 25 (2012) 89 31 40 49 52 64 95 122 220 245
2020-06-28 17:45 5.27 153 259 (2000) 25 (2012) 89 31 40 49 52 64 95 122 220 245
2020-06-28 16:45 5.28 156 259 (2000) 25 (2012) 89 31 40 49 52 64 95 122 220 245
2020-06-28 15:45 5.29 158 259 (2000) 25 (2012) 89 31 40 49 52 64 95 122 220 245
2020-06-28 14:45 5.29 158 259 (2000) 25 (2012) 89 31 40 49 52 64 95 122 220 245
2020-06-28 13:45 5.28 156 259 (2000) 25 (2012) 89 31 40 49 52 64 95 122 220 245
2020-06-28 12:45 5.29 158 259 (2000) 25 (2012) 89 31 40 49 52 64 95 122 220 245
2020-06-28 11:45 5.30 161 259 (2000) 25 (2012) 89 31 40 49 52 64 95 122 220 245
2020-06-28 10:45 5.30 161 259 (2000) 25 (2012) 89 31 40 49 52 64 95 122 220 245
2020-06-28 09:45 5.33 169 259 (2000) 25 (2012) 89 31 40 49 52 64 95 122 220 245
2020-06-28 08:45 5.30 161 259 (2000) 25 (2012) 89 31 40 49 52 64 95 122 220 245
2020-06-28 07:45 5.31 164 259 (2000) 25 (2012) 89 31 40 49 52 64 95 122 220 245
2020-06-28 06:45 5.33 169 259 (2000) 25 (2012) 89 31 40 49 52 64 95 122 220 245
2020-06-28 05:45 5.33 169 259 (2000) 25 (2012) 89 31 40 49 52 64 95 122 220 245
2020-06-28 04:45 5.32 166 259 (2000) 25 (2012) 89 31 40 49 52 64 95 122 220 245
2020-06-28 03:45 5.33 169 259 (2000) 25 (2012) 89 31 40 49 52 64 95 122 220 245
2020-06-28 02:45 5.33 169 259 (2000) 25 (2012) 89 31 40 49 52 64 95 122 220 245
2020-06-28 01:45 5.33 169 259 (2000) 25 (2012) 89 31 40 49 52 64 95 122 220 245
2020-06-28 00:45 5.35 175 259 (2000) 25 (2012) 89 31 40 49 52 64 95 122 220 245
2020-06-27 23:45 5.33 169 329 (2000) 25 (2012) 93 29 37 48 53 69 94 124 237 283
2020-06-27 22:45 5.35 175 329 (2000) 25 (2012) 93 29 37 48 53 69 94 124 237 283
2020-06-27 21:45 5.38 183 329 (2000) 25 (2012) 93 29 37 48 53 69 94 124 237 283
2020-06-27 20:45 5.39 186 329 (2000) 25 (2012) 93 29 37 48 53 69 94 124 237 283
2020-06-27 19:45 5.38 183 329 (2000) 25 (2012) 93 29 37 48 53 69 94 124 237 283
2020-06-27 18:45 5.39 186 329 (2000) 25 (2012) 93 29 37 48 53 69 94 124 237 283
2020-06-27 17:45 5.40 188 329 (2000) 25 (2012) 93 29 37 48 53 69 94 124 237 283
2020-06-27 16:45 5.41 191 329 (2000) 25 (2012) 93 29 37 48 53 69 94 124 237 283
2020-06-27 15:45 5.45 202 329 (2000) 25 (2012) 93 29 37 48 53 69 94 124 237 283
2020-06-27 14:45 5.43 197 329 (2000) 25 (2012) 93 29 37 48 53 69 94 124 237 283
2020-06-27 13:45 5.45 202 329 (2000) 25 (2012) 93 29 37 48 53 69 94 124 237 283
2020-06-27 12:45 5.45 202 329 (2000) 25 (2012) 93 29 37 48 53 69 94 124 237 283
2020-06-27 11:45 5.45 202 329 (2000) 25 (2012) 93 29 37 48 53 69 94 124 237 283
2020-06-27 10:45 5.49 214 329 (2000) 25 (2012) 93 29 37 48 53 69 94 124 237 283
2020-06-27 09:45 5.51 220 329 (2000) 25 (2012) 93 29 37 48 53 69 94 124 237 283
2020-06-27 08:45 5.51 220 329 (2000) 25 (2012) 93 29 37 48 53 69 94 124 237 283
2020-06-27 07:45 5.51 220 329 (2000) 25 (2012) 93 29 37 48 53 69 94 124 237 283
2020-06-27 06:45 5.54 228 329 (2000) 25 (2012) 93 29 37 48 53 69 94 124 237 283
2020-06-27 05:45 5.56 234 329 (2000) 25 (2012) 93 29 37 48 53 69 94 124 237 283
2020-06-27 04:45 5.57 237 329 (2000) 25 (2012) 93 29 37 48 53 69 94 124 237 283
2020-06-27 03:45 5.61 249 329 (2000) 25 (2012) 93 29 37 48 53 69 94 124 237 283
2020-06-27 02:45 5.62 252 329 (2000) 25 (2012) 93 29 37 48 53 69 94 124 237 283
2020-06-27 01:45 5.63 255 329 (2000) 25 (2012) 93 29 37 48 53 69 94 124 237 283
2020-06-27 00:45 5.63 255 329 (2000) 25 (2012) 93 29 37 48 53 69 94 124 237 283
2020-06-26 23:45 5.65 261 329 (2000) 27 (2012) 87 32 37 49 53 72 83 99 165 303
2020-06-26 22:45 5.61 249 329 (2000) 27 (2012) 87 32 37 49 53 72 83 99 165 303
2020-06-26 21:45 5.45 202 329 (2000) 27 (2012) 87 32 37 49 53 72 83 99 165 303
2020-06-26 20:45 5.32 166 329 (2000) 27 (2012) 87 32 37 49 53 72 83 99 165 303
2020-06-26 19:45 5.30 161 329 (2000) 27 (2012) 87 32 37 49 53 72 83 99 165 303
2020-06-26 18:45 5.29 158 329 (2000) 27 (2012) 87 32 37 49 53 72 83 99 165 303
2020-06-26 17:45 5.28 156 329 (2000) 27 (2012) 87 32 37 49 53 72 83 99 165 303
2020-06-26 16:45 5.28 156 329 (2000) 27 (2012) 87 32 37 49 53 72 83 99 165 303
2020-06-26 15:45 5.25 148 329 (2000) 27 (2012) 87 32 37 49 53 72 83 99 165 303
2020-06-26 14:45 5.25 148 329 (2000) 27 (2012) 87 32 37 49 53 72 83 99 165 303
2020-06-26 13:45 5.26 150 329 (2000) 27 (2012) 87 32 37 49 53 72 83 99 165 303
2020-06-26 12:45 5.25 148 329 (2000) 27 (2012) 87 32 37 49 53 72 83 99 165 303
2020-06-26 11:45 5.25 148 329 (2000) 27 (2012) 87 32 37 49 53 72 83 99 165 303
2020-06-26 10:45 5.23 142 329 (2000) 27 (2012) 87 32 37 49 53 72 83 99 165 303
2020-06-26 09:45 5.23 142 329 (2000) 27 (2012) 87 32 37 49 53 72 83 99 165 303
2020-06-26 08:45 5.22 142 329 (2000) 27 (2012) 87 32 37 49 53 72 83 99 165 303
2020-06-26 07:45 5.22 142 329 (2000) 27 (2012) 87 32 37 49 53 72 83 99 165 303
2020-06-26 06:45 5.23 145 329 (2000) 27 (2012) 87 32 37 49 53 72 83 99 165 303
2020-06-26 05:45 5.23 145 329 (2000) 27 (2012) 87 32 37 49 53 72 83 99 165 303
2020-06-26 04:45 5.23 145 329 (2000) 27 (2012) 87 32 37 49 53 72 83 99 165 303
2020-06-26 03:45 5.22 142 329 (2000) 27 (2012) 87 32 37 49 53 72 83 99 165 303
2020-06-26 02:45 5.22 142 329 (2000) 27 (2012) 87 32 37 49 53 72 83 99 165 303
2020-06-26 01:45 5.22 142 329 (2000) 27 (2012) 87 32 37 49 53 72 83 99 165 303
2020-06-26 00:45 5.23 145 329 (2000) 27 (2012) 87 32 37 49 53 72 83 99 165 303
2020-06-25 23:45 5.24 148 419 (2000) 28 (2012) 90 33 38 54 55 69 82 93 143 386
2020-06-25 22:45 5.22 142 419 (2000) 28 (2012) 90 33 38 54 55 69 82 93 143 386
2020-06-25 21:45 5.22 142 419 (2000) 28 (2012) 90 33 38 54 55 69 82 93 143 386
2020-06-25 20:45 5.22 142 419 (2000) 28 (2012) 90 33 38 54 55 69 82 93 143 386
2020-06-25 19:45 5.24 148 419 (2000) 28 (2012) 90 33 38 54 55 69 82 93 143 386
2020-06-25 18:45 5.23 145 419 (2000) 28 (2012) 90 33 38 54 55 69 82 93 143 386
2020-06-25 17:45 5.24 148 419 (2000) 28 (2012) 90 33 38 54 55 69 82 93 143 386
2020-06-25 16:45 5.25 151 419 (2000) 28 (2012) 90 33 38 54 55 69 82 93 143 386
2020-06-25 15:45 5.26 154 419 (2000) 28 (2012) 90 33 38 54 55 69 82 93 143 386
2020-06-25 14:45 5.25 151 419 (2000) 28 (2012) 90 33 38 54 55 69 82 93 143 386
2020-06-25 13:45 5.25 151 419 (2000) 28 (2012) 90 33 38 54 55 69 82 93 143 386
2020-06-25 12:45 5.28 160 419 (2000) 28 (2012) 90 33 38 54 55 69 82 93 143 386
2020-06-25 11:45 5.27 157 419 (2000) 28 (2012) 90 33 38 54 55 69 82 93 143 386
2020-06-25 10:45 5.28 160 419 (2000) 28 (2012) 90 33 38 54 55 69 82 93 143 386
2020-06-25 09:45 5.27 157 419 (2000) 28 (2012) 90 33 38 54 55 69 82 93 143 386
2020-06-25 08:45 5.27 157 419 (2000) 28 (2012) 90 33 38 54 55 69 82 93 143 386
2020-06-25 07:45 5.28 160 419 (2000) 28 (2012) 90 33 38 54 55 69 82 93 143 386
2020-06-25 06:45 5.29 163 419 (2000) 28 (2012) 90 33 38 54 55 69 82 93 143 386
2020-06-25 05:45 5.26 154 419 (2000) 28 (2012) 90 33 38 54 55 69 82 93 143 386
2020-06-25 04:45 5.29 163 419 (2000) 28 (2012) 90 33 38 54 55 69 82 93 143 386
2020-06-25 03:45 5.29 163 419 (2000) 28 (2012) 90 33 38 54 55 69 82 93 143 386
2020-06-25 02:45 5.28 160 419 (2000) 28 (2012) 90 33 38 54 55 69 82 93 143 386
2020-06-25 01:45 5.30 167 419 (2000) 28 (2012) 90 33 38 54 55 69 82 93 143 386
2020-06-25 00:45 5.30 167 419 (2000) 28 (2012) 90 33 38 54 55 69 82 93 143 386
2020-06-24 23:45 5.31 170 567 (2000) 28 (2012) 104 34 39 58 59 74 89 90 172 513
2020-06-24 22:45 5.30 167 567 (2000) 28 (2012) 104 34 39 58 59 74 89 90 172 513
2020-06-24 21:45 5.31 170 567 (2000) 28 (2012) 104 34 39 58 59 74 89 90 172 513
2020-06-24 20:45 5.31 170 567 (2000) 28 (2012) 104 34 39 58 59 74 89 90 172 513
2020-06-24 19:45 5.33 177 567 (2000) 28 (2012) 104 34 39 58 59 74 89 90 172 513
2020-06-24 18:45 5.32 173 567 (2000) 28 (2012) 104 34 39 58 59 74 89 90 172 513
2020-06-24 17:45 5.33 177 567 (2000) 28 (2012) 104 34 39 58 59 74 89 90 172 513
2020-06-24 16:45 5.35 183 567 (2000) 28 (2012) 104 34 39 58 59 74 89 90 172 513
2020-06-24 15:45 5.36 187 567 (2000) 28 (2012) 104 34 39 58 59 74 89 90 172 513
2020-06-24 14:45 5.37 190 567 (2000) 28 (2012) 104 34 39 58 59 74 89 90 172 513
2020-06-24 13:45 5.39 197 567 (2000) 28 (2012) 104 34 39 58 59 74 89 90 172 513
2020-06-24 12:45 5.38 193 567 (2000) 28 (2012) 104 34 39 58 59 74 89 90 172 513
2020-06-24 11:45 5.38 193 567 (2000) 28 (2012) 104 34 39 58 59 74 89 90 172 513
2020-06-24 10:45 5.40 201 567 (2000) 28 (2012) 104 34 39 58 59 74 89 90 172 513
2020-06-24 09:45 5.40 201 567 (2000) 28 (2012) 104 34 39 58 59 74 89 90 172 513
2020-06-24 08:45 5.41 204 567 (2000) 28 (2012) 104 34 39 58 59 74 89 90 172 513
2020-06-24 07:45 5.44 215 567 (2000) 28 (2012) 104 34 39 58 59 74 89 90 172 513
2020-06-24 06:45 5.46 222 567 (2000) 28 (2012) 104 34 39 58 59 74 89 90 172 513
2020-06-24 05:45 5.45 219 567 (2000) 28 (2012) 104 34 39 58 59 74 89 90 172 513
2020-06-24 04:45 5.47 226 567 (2000) 28 (2012) 104 34 39 58 59 74 89 90 172 513
2020-06-24 03:45 5.48 230 567 (2000) 28 (2012) 104 34 39 58 59 74 89 90 172 513
2020-06-24 02:45 5.49 234 567 (2000) 28 (2012) 104 34 39 58 59 74 89 90 172 513
2020-06-24 01:45 5.51 241 567 (2000) 28 (2012) 104 34 39 58 59 74 89 90 172 513
2020-06-24 00:45 5.53 249 567 (2000) 28 (2012) 104 34 39 58 59 74 89 90 172 513
2020-06-23 23:45 5.54 253 895 (2000) 32 (2012) 132 37 41 60 61 77 100 105 210 809
2020-06-23 22:45 5.56 261 895 (2000) 32 (2012) 132 37 41 60 61 77 100 105 210 809
2020-06-23 21:45 5.58 269 895 (2000) 32 (2012) 132 37 41 60 61 77 100 105 210 809
2020-06-23 20:45 5.56 261 895 (2000) 32 (2012) 132 37 41 60 61 77 100 105 210 809
2020-06-23 19:45 5.58 269 895 (2000) 32 (2012) 132 37 41 60 61 77 100 105 210 809
2020-06-23 18:45 5.55 257 895 (2000) 32 (2012) 132 37 41 60 61 77 100 105 210 809
2020-06-23 17:45 5.56 261 895 (2000) 32 (2012) 132 37 41 60 61 77 100 105 210 809
2020-06-23 16:45 5.55 257 895 (2000) 32 (2012) 132 37 41 60 61 77 100 105 210 809
2020-06-23 15:45 5.54 253 895 (2000) 32 (2012) 132 37 41 60 61 77 100 105 210 809
2020-06-23 14:45 5.47 226 895 (2000) 32 (2012) 132 37 41 60 61 77 100 105 210 809
2020-06-23 13:45 5.42 208 895 (2000) 32 (2012) 132 37 41 60 61 77 100 105 210 809
2020-06-23 12:45 5.43 211 895 (2000) 32 (2012) 132 37 41 60 61 77 100 105 210 809
2020-06-23 11:45 5.40 201 895 (2000) 32 (2012) 132 37 41 60 61 77 100 105 210 809
2020-06-23 10:45 5.25 151 895 (2000) 32 (2012) 132 37 41 60 61 77 100 105 210 809
2020-06-23 09:45 5.25 151 895 (2000) 32 (2012) 132 37 41 60 61 77 100 105 210 809
2020-06-23 08:45 5.26 154 895 (2000) 32 (2012) 132 37 41 60 61 77 100 105 210 809
2020-06-23 07:45 5.28 160 895 (2000) 32 (2012) 132 37 41 60 61 77 100 105 210 809
2020-06-23 06:45 5.28 160 895 (2000) 32 (2012) 132 37 41 60 61 77 100 105 210 809
2020-06-23 05:45 5.27 157 895 (2000) 32 (2012) 132 37 41 60 61 77 100 105 210 809
2020-06-23 04:45 5.28 160 895 (2000) 32 (2012) 132 37 41 60 61 77 100 105 210 809
2020-06-23 03:45 5.29 163 895 (2000) 32 (2012) 132 37 41 60 61 77 100 105 210 809
2020-06-23 02:45 5.28 160 895 (2000) 32 (2012) 132 37 41 60 61 77 100 105 210 809
2020-06-23 01:45 5.29 163 895 (2000) 32 (2012) 132 37 41 60 61 77 100 105 210 809
2020-06-23 00:45 5.32 173 895 (2000) 32 (2012) 132 37 41 60 61 77 100 105 210 809
2020-06-22 23:45 5.32 173 2140 (2000) 34 (2012) 187 38 42 57 62 77 117 138 267 1520
2020-06-22 22:45 5.31 170 2140 (2000) 34 (2012) 187 38 42 57 62 77 117 138 267 1520
2020-06-22 21:45 5.33 177 2140 (2000) 34 (2012) 187 38 42 57 62 77 117 138 267 1520
2020-06-22 20:45 5.32 173 2140 (2000) 34 (2012) 187 38 42 57 62 77 117 138 267 1520
2020-06-22 19:45 5.34 180 2140 (2000) 34 (2012) 187 38 42 57 62 77 117 138 267 1520
2020-06-22 18:45 5.33 177 2140 (2000) 34 (2012) 187 38 42 57 62 77 117 138 267 1520
2020-06-22 17:45 5.35 183 2140 (2000) 34 (2012) 187 38 42 57 62 77 117 138 267 1520
2020-06-22 16:45 5.37 190 2140 (2000) 34 (2012) 187 38 42 57 62 77 117 138 267 1520
2020-06-22 15:45 5.36 187 2140 (2000) 34 (2012) 187 38 42 57 62 77 117 138 267 1520
2020-06-22 14:45 5.39 197 2140 (2000) 34 (2012) 187 38 42 57 62 77 117 138 267 1520
2020-06-22 13:45 5.38 193 2140 (2000) 34 (2012) 187 38 42 57 62 77 117 138 267 1520
2020-06-22 12:45 5.41 204 2140 (2000) 34 (2012) 187 38 42 57 62 77 117 138 267 1520
2020-06-22 11:45 5.42 208 2140 (2000) 34 (2012) 187 38 42 57 62 77 117 138 267 1520
2020-06-22 10:45 5.44 215 2140 (2000) 34 (2012) 187 38 42 57 62 77 117 138 267 1520
2020-06-22 09:45 5.45 202 2140 (2000) 34 (2012) 187 38 42 57 62 77 117 138 267 1520
2020-06-22 08:45 5.45 169 2140 (2000) 34 (2012) 187 38 42 57 62 77 117 138 267 1520
2020-06-22 07:45 5.49 180 2140 (2000) 34 (2012) 187 38 42 57 62 77 117 138 267 1520
2020-06-22 06:45 5.48 177 2140 (2000) 34 (2012) 187 38 42 57 62 77 117 138 267 1520
2020-06-22 05:45 5.47 175 2140 (2000) 34 (2012) 187 38 42 57 62 77 117 138 267 1520
2020-06-22 04:45 5.46 172 2140 (2000) 34 (2012) 187 38 42 57 62 77 117 138 267 1520
2020-06-22 03:45 5.40 156 2140 (2000) 34 (2012) 187 38 42 57 62 77 117 138 267 1520
2020-06-22 02:45 5.37 148 2140 (2000) 34 (2012) 187 38 42 57 62 77 117 138 267 1520
2020-06-22 01:45 5.33 137 2140 (2000) 34 (2012) 187 38 42 57 62 77 117 138 267 1520
2020-06-22 00:45 5.33 137 2140 (2000) 34 (2012) 187 38 42 57 62 77 117 138 267 1520
2020-06-21 23:45 5.30 129 2400 (2000) 36 (2012) 188 39 43 60 64 85 151 160 283 1370
2020-06-21 22:45 5.30 129 2400 (2000) 36 (2012) 188 39 43 60 64 85 151 160 283 1370
2020-06-21 21:45 5.28 124 2400 (2000) 36 (2012) 188 39 43 60 64 85 151 160 283 1370
2020-06-21 20:45 5.28 124 2400 (2000) 36 (2012) 188 39 43 60 64 85 151 160 283 1370
2020-06-21 19:45 5.29 127 2400 (2000) 36 (2012) 188 39 43 60 64 85 151 160 283 1370
2020-06-21 18:45 5.31 132 2400 (2000) 36 (2012) 188 39 43 60 64 85 151 160 283 1370
2020-06-21 17:45 5.27 122 2400 (2000) 36 (2012) 188 39 43 60 64 85 151 160 283 1370
2020-06-21 16:45 5.28 124 2400 (2000) 36 (2012) 188 39 43 60 64 85 151 160 283 1370
2020-06-21 15:45 5.29 127 2400 (2000) 36 (2012) 188 39 43 60 64 85 151 160 283 1370
2020-06-21 14:45 5.29 127 2400 (2000) 36 (2012) 188 39 43 60 64 85 151 160 283 1370
2020-06-21 13:45 5.28 124 2400 (2000) 36 (2012) 188 39 43 60 64 85 151 160 283 1370
2020-06-21 12:45 5.30 129 2400 (2000) 36 (2012) 188 39 43 60 64 85 151 160 283 1370
2020-06-21 11:45 5.32 134 2400 (2000) 36 (2012) 188 39 43 60 64 85 151 160 283 1370
2020-06-21 10:45 5.31 132 2400 (2000) 36 (2012) 188 39 43 60 64 85 151 160 283 1370
2020-06-21 09:45 5.33 137 2400 (2000) 36 (2012) 188 39 43 60 64 85 151 160 283 1370
2020-06-21 08:45 5.35 142 2400 (2000) 36 (2012) 188 39 43 60 64 85 151 160 283 1370
2020-06-21 07:45 5.35 142 2400 (2000) 36 (2012) 188 39 43 60 64 85 151 160 283 1370
2020-06-21 06:45 5.38 150 2400 (2000) 36 (2012) 188 39 43 60 64 85 151 160 283 1370
2020-06-21 05:45 5.39 153 2400 (2000) 36 (2012) 188 39 43 60 64 85 151 160 283 1370
2020-06-21 04:45 5.40 156 2400 (2000) 36 (2012) 188 39 43 60 64 85 151 160 283 1370
2020-06-21 03:45 5.42 161 2400 (2000) 36 (2012) 188 39 43 60 64 85 151 160 283 1370
2020-06-21 02:45 5.43 164 2400 (2000) 36 (2012) 188 39 43 60 64 85 151 160 283 1370
2020-06-21 01:45 5.43 164 2400 (2000) 36 (2012) 188 39 43 60 64 85 151 160 283 1370
2020-06-21 00:45 5.45 169 2400 (2000) 36 (2012) 188 39 43 60 64 85 151 160 283 1370
2020-06-20 23:45 5.44 166 838 (2000) 44 (2006) 154 44 45 64 67 91 138 197 447 657
2020-06-20 22:45 5.42 161 838 (2000) 44 (2006) 154 44 45 64 67 91 138 197 447 657
2020-06-20 21:45 5.40 156 838 (2000) 44 (2006) 154 44 45 64 67 91 138 197 447 657
2020-06-20 20:45 5.37 148 838 (2000) 44 (2006) 154 44 45 64 67 91 138 197 447 657
2020-06-20 19:45 5.35 142 838 (2000) 44 (2006) 154 44 45 64 67 91 138 197 447 657
2020-06-20 18:45 5.30 129 838 (2000) 44 (2006) 154 44 45 64 67 91 138 197 447 657
2020-06-20 17:45 5.24 114 838 (2000) 44 (2006) 154 44 45 64 67 91 138 197 447 657
2020-06-20 16:45 5.22 109 838 (2000) 44 (2006) 154 44 45 64 67 91 138 197 447 657
2020-06-20 15:45 5.21 106 838 (2000) 44 (2006) 154 44 45 64 67 91 138 197 447 657
2020-06-20 14:45 5.21 106 838 (2000) 44 (2006) 154 44 45 64 67 91 138 197 447 657
2020-06-20 13:45 5.18 99 838 (2000) 44 (2006) 154 44 45 64 67 91 138 197 447 657
2020-06-20 12:45 5.17 97 838 (2000) 44 (2006) 154 44 45 64 67 91 138 197 447 657
2020-06-20 11:45 5.18 99 838 (2000) 44 (2006) 154 44 45 64 67 91 138 197 447 657
2020-06-20 10:45 5.17 97 838 (2000) 44 (2006) 154 44 45 64 67 91 138 197 447 657
2020-06-20 09:45 5.17 97 838 (2000) 44 (2006) 154 44 45 64 67 91 138 197 447 657
2020-06-20 08:45 5.17 97 838 (2000) 44 (2006) 154 44 45 64 67 91 138 197 447 657
2020-06-20 07:45 5.15 92 838 (2000) 44 (2006) 154 44 45 64 67 91 138 197 447 657
2020-06-20 06:45 5.17 97 838 (2000) 44 (2006) 154 44 45 64 67 91 138 197 447 657
2020-06-20 05:45 5.16 94 838 (2000) 44 (2006) 154 44 45 64 67 91 138 197 447 657
2020-06-20 04:45 5.16 94 838 (2000) 44 (2006) 154 44 45 64 67 91 138 197 447 657
2020-06-20 03:45 5.15 92 838 (2000) 44 (2006) 154 44 45 64 67 91 138 197 447 657
2020-06-20 02:45 5.16 94 838 (2000) 44 (2006) 154 44 45 64 67 91 138 197 447 657
2020-06-20 01:45 5.17 97 838 (2000) 44 (2006) 154 44 45 64 67 91 138 197 447 657
2020-06-20 00:45 5.16 94 838 (2000) 44 (2006) 154 44 45 64 67 91 138 197 447 657
2020-06-19 23:45 5.17 97 1230 (2000) 41 (2012) 189 45 50 66 69 100 190 221 402 1020
2020-06-19 22:45 5.16 94 1230 (2000) 41 (2012) 189 45 50 66 69 100 190 221 402 1020
2020-06-19 21:45 5.16 94 1230 (2000) 41 (2012) 189 45 50 66 69 100 190 221 402 1020
2020-06-19 20:45 5.17 97 1230 (2000) 41 (2012) 189 45 50 66 69 100 190 221 402 1020
2020-06-19 19:45 5.16 94 1230 (2000) 41 (2012) 189 45 50 66 69 100 190 221 402 1020
2020-06-19 18:45 5.17 97 1230 (2000) 41 (2012) 189 45 50 66 69 100 190 221 402 1020
2020-06-19 17:45 5.17 97 1230 (2000) 41 (2012) 189 45 50 66 69 100 190 221 402 1020
2020-06-19 16:45 5.18 99 1230 (2000) 41 (2012) 189 45 50 66 69 100 190 221 402 1020
2020-06-19 15:45 5.18 99 1230 (2000) 41 (2012) 189 45 50 66 69 100 190 221 402 1020
2020-06-19 14:45 5.19 101 1230 (2000) 41 (2012) 189 45 50 66 69 100 190 221 402 1020
2020-06-19 13:45 5.18 99 1230 (2000) 41 (2012) 189 45 50 66 69 100 190 221 402 1020
2020-06-19 12:45 5.19 101 1230 (2000) 41 (2012) 189 45 50 66 69 100 190 221 402 1020
2020-06-19 11:45 5.19 101 1230 (2000) 41 (2012) 189 45 50 66 69 100 190 221 402 1020
2020-06-19 10:45 5.20 104 1230 (2000) 41 (2012) 189 45 50 66 69 100 190 221 402 1020
2020-06-19 09:45 5.19 101 1230 (2000) 41 (2012) 189 45 50 66 69 100 190 221 402 1020
2020-06-19 08:45 5.20 104 1230 (2000) 41 (2012) 189 45 50 66 69 100 190 221 402 1020
2020-06-19 07:45 5.19 101 1230 (2000) 41 (2012) 189 45 50 66 69 100 190 221 402 1020
2020-06-19 06:45 5.20 104 1230 (2000) 41 (2012) 189 45 50 66 69 100 190 221 402 1020
2020-06-19 05:45 5.19 101 1230 (2000) 41 (2012) 189 45 50 66 69 100 190 221 402 1020
2020-06-19 04:45 5.18 99 1230 (2000) 41 (2012) 189 45 50 66 69 100 190 221 402 1020
2020-06-19 03:45 5.19 101 1230 (2000) 41 (2012) 189 45 50 66 69 100 190 221 402 1020
2020-06-19 02:45 5.18 99 1230 (2000) 41 (2012) 189 45 50 66 69 100 190 221 402 1020
2020-06-19 01:45 5.18 99 1230 (2000) 41 (2012) 189 45 50 66 69 100 190 221 402 1020
2020-06-19 00:45 5.18 99 1230 (2000) 41 (2012) 189 45 50 66 69 100 190 221 402 1020
2020-06-18 23:45 5.20 104 3110 (2000) 52 (2012) 277 53 57 70 71 101 197 290 497 2160
2020-06-18 22:45 5.19 101 3110 (2000) 52 (2012) 277 53 57 70 71 101 197 290 497 2160
2020-06-18 21:45 5.19 101 3110 (2000) 52 (2012) 277 53 57 70 71 101 197 290 497 2160
2020-06-18 20:45 5.19 101 3110 (2000) 52 (2012) 277 53 57 70 71 101 197 290 497 2160
2020-06-18 19:45 5.21 106 3110 (2000) 52 (2012) 277 53 57 70 71 101 197 290 497 2160
2020-06-18 18:45 5.20 104 3110 (2000) 52 (2012) 277 53 57 70 71 101 197 290 497 2160
2020-06-18 17:45 5.21 106 3110 (2000) 52 (2012) 277 53 57 70 71 101 197 290 497 2160
2020-06-18 16:45 5.21 106 3110 (2000) 52 (2012) 277 53 57 70 71 101 197 290 497 2160
2020-06-18 15:45 5.21 106 3110 (2000) 52 (2012) 277 53 57 70 71 101 197 290 497 2160
2020-06-18 14:45 5.22 109 3110 (2000) 52 (2012) 277 53 57 70 71 101 197 290 497 2160
2020-06-18 13:45 5.21 106 3110 (2000) 52 (2012) 277 53 57 70 71 101 197 290 497 2160
2020-06-18 12:45 5.21 106 3110 (2000) 52 (2012) 277 53 57 70 71 101 197 290 497 2160
2020-06-18 11:45 5.21 106 3110 (2000) 52 (2012) 277 53 57 70 71 101 197 290 497 2160
2020-06-18 10:45 5.21 106 3110 (2000) 52 (2012) 277 53 57 70 71 101 197 290 497 2160
2020-06-18 09:45 5.20 104 3110 (2000) 52 (2012) 277 53 57 70 71 101 197 290 497 2160
2020-06-18 08:45 5.21 106 3110 (2000) 52 (2012) 277 53 57 70 71 101 197 290 497 2160
2020-06-18 07:45 5.21 106 3110 (2000) 52 (2012) 277 53 57 70 71 101 197 290 497 2160
2020-06-18 06:45 5.20 104 3110 (2000) 52 (2012) 277 53 57 70 71 101 197 290 497 2160
2020-06-18 05:45 5.21 106 3110 (2000) 52 (2012) 277 53 57 70 71 101 197 290 497 2160
2020-06-18 04:45 5.21 106 3110 (2000) 52 (2012) 277 53 57 70 71 101 197 290 497 2160
2020-06-18 03:45 5.20 104 3110 (2000) 52 (2012) 277 53 57 70 71 101 197 290 497 2160
2020-06-18 02:45 5.20 104 3110 (2000) 52 (2012) 277 53 57 70 71 101 197 290 497 2160
2020-06-18 01:45 5.20 104 3110 (2000) 52 (2012) 277 53 57 70 71 101 197 290 497 2160
2020-06-18 00:45 5.20 104 3110 (2000) 52 (2012) 277 53 57 70 71 101 197 290 497 2160
2020-06-17 23:45 5.20 104 2170 (2003) 50 (2006) 256 51 56 71 77 110 191 226 404 1900
2020-06-17 22:45 5.20 104 2170 (2003) 50 (2006) 256 51 56 71 77 110 191 226 404 1900
2020-06-17 21:45 5.21 106 2170 (2003) 50 (2006) 256 51 56 71 77 110 191 226 404 1900
2020-06-17 20:45 5.21 106 2170 (2003) 50 (2006) 256 51 56 71 77 110 191 226 404 1900
2020-06-17 19:45 5.21 106 2170 (2003) 50 (2006) 256 51 56 71 77 110 191 226 404 1900
2020-06-17 18:45 5.22 109 2170 (2003) 50 (2006) 256 51 56 71 77 110 191 226 404 1900
2020-06-17 17:45 5.22 109 2170 (2003) 50 (2006) 256 51 56 71 77 110 191 226 404 1900
2020-06-17 16:45 5.22 109 2170 (2003) 50 (2006) 256 51 56 71 77 110 191 226 404 1900
2020-06-17 15:45 5.23 111 2170 (2003) 50 (2006) 256 51 56 71 77 110 191 226 404 1900
2020-06-17 14:45 5.24 114 2170 (2003) 50 (2006) 256 51 56 71 77 110 191 226 404 1900
2020-06-17 13:45 5.23 111 2170 (2003) 50 (2006) 256 51 56 71 77 110 191 226 404 1900
2020-06-17 12:45 5.24 114 2170 (2003) 50 (2006) 256 51 56 71 77 110 191 226 404 1900
2020-06-17 11:45 5.24 114 2170 (2003) 50 (2006) 256 51 56 71 77 110 191 226 404 1900
2020-06-17 10:45 5.23 111 2170 (2003) 50 (2006) 256 51 56 71 77 110 191 226 404 1900
2020-06-17 09:45 5.24 114 2170 (2003) 50 (2006) 256 51 56 71 77 110 191 226 404 1900
2020-06-17 08:45 5.23 111 2170 (2003) 50 (2006) 256 51 56 71 77 110 191 226 404 1900
2020-06-17 07:45 5.23 111 2170 (2003) 50 (2006) 256 51 56 71 77 110 191 226 404 1900
2020-06-17 06:45 5.23 111 2170 (2003) 50 (2006) 256 51 56 71 77 110 191 226 404 1900
2020-06-17 05:45 5.23 111 2170 (2003) 50 (2006) 256 51 56 71 77 110 191 226 404 1900
2020-06-17 04:45 5.23 111 2170 (2003) 50 (2006) 256 51 56 71 77 110 191 226 404 1900
2020-06-17 03:45 5.22 109 2170 (2003) 50 (2006) 256 51 56 71 77 110 191 226 404 1900
2020-06-17 02:45 5.22 109 2170 (2003) 50 (2006) 256 51 56 71 77 110 191 226 404 1900
2020-06-17 01:45 5.23 111 2170 (2003) 50 (2006) 256 51 56 71 77 110 191 226 404 1900
2020-06-17 00:45 5.23 111 2170 (2003) 50 (2006) 256 51 56 71 77 110 191 226 404 1900
2020-06-16 23:45 5.23 111 621 (1992) 33 (2006) 165 38 56 65 72 111 156 238 404 599
2020-06-16 22:45 5.23 111 621 (1992) 33 (2006) 165 38 56 65 72 111 156 238 404 599
2020-06-16 21:45 5.24 114 621 (1992) 33 (2006) 165 38 56 65 72 111 156 238 404 599
2020-06-16 20:45 5.24 114 621 (1992) 33 (2006) 165 38 56 65 72 111 156 238 404 599
2020-06-16 19:45 5.25 116 621 (1992) 33 (2006) 165 38 56 65 72 111 156 238 404 599
2020-06-16 18:45 5.23 111 621 (1992) 33 (2006) 165 38 56 65 72 111 156 238 404 599
2020-06-16 17:45 5.24 114 621 (1992) 33 (2006) 165 38 56 65 72 111 156 238 404 599
2020-06-16 16:45 5.25 116 621 (1992) 33 (2006) 165 38 56 65 72 111 156 238 404 599
2020-06-16 15:45 5.25 116 621 (1992) 33 (2006) 165 38 56 65 72 111 156 238 404 599
2020-06-16 14:45 5.25 116 621 (1992) 33 (2006) 165 38 56 65 72 111 156 238 404 599
2020-06-16 13:45 5.25 116 621 (1992) 33 (2006) 165 38 56 65 72 111 156 238 404 599
2020-06-16 12:45 5.26 119 621 (1992) 33 (2006) 165 38 56 65 72 111 156 238 404 599
2020-06-16 11:45 5.25 116 621 (1992) 33 (2006) 165 38 56 65 72 111 156 238 404 599
2020-06-16 10:45 5.26 119 621 (1992) 33 (2006) 165 38 56 65 72 111 156 238 404 599
2020-06-16 09:45 5.26 119 621 (1992) 33 (2006) 165 38 56 65 72 111 156 238 404 599
2020-06-16 08:45 5.25 116 621 (1992) 33 (2006) 165 38 56 65 72 111 156 238 404 599
2020-06-16 07:45 5.26 119 621 (1992) 33 (2006) 165 38 56 65 72 111 156 238 404 599
2020-06-16 06:45 5.25 116 621 (1992) 33 (2006) 165 38 56 65 72 111 156 238 404 599
2020-06-16 05:45 5.25 116 621 (1992) 33 (2006) 165 38 56 65 72 111 156 238 404 599
2020-06-16 04:45 5.26 119 621 (1992) 33 (2006) 165 38 56 65 72 111 156 238 404 599
2020-06-16 03:45 5.24 114 621 (1992) 33 (2006) 165 38 56 65 72 111 156 238 404 599
2020-06-16 02:45 5.26 119 621 (1992) 33 (2006) 165 38 56 65 72 111 156 238 404 599
2020-06-16 01:45 5.24 114 621 (1992) 33 (2006) 165 38 56 65 72 111 156 238 404 599
2020-06-16 00:45 5.25 116 621 (1992) 33 (2006) 165 38 56 65 72 111 156 238 404 599
2020-06-15 23:45 5.26 119 1320 (1992) 34 (2006) 211 34 45 65 68 103 150 196 607 1090
2020-06-15 22:45 5.25 116 1320 (1992) 34 (2006) 211 34 45 65 68 103 150 196 607 1090
2020-06-15 21:45 5.26 119 1320 (1992) 34 (2006) 211 34 45 65 68 103 150 196 607 1090
2020-06-15 20:45 5.25 116 1320 (1992) 34 (2006) 211 34 45 65 68 103 150 196 607 1090
2020-06-15 19:45 5.25 116 1320 (1992) 34 (2006) 211 34 45 65 68 103 150 196 607 1090
2020-06-15 18:45 5.25 116 1320 (1992) 34 (2006) 211 34 45 65 68 103 150 196 607 1090
2020-06-15 17:45 5.26 119 1320 (1992) 34 (2006) 211 34 45 65 68 103 150 196 607 1090
2020-06-15 16:45 5.26 119 1320 (1992) 34 (2006) 211 34 45 65 68 103 150 196 607 1090
2020-06-15 15:45 5.27 122 1320 (1992) 34 (2006) 211 34 45 65 68 103 150 196 607 1090
2020-06-15 14:45 5.27 122 1320 (1992) 34 (2006) 211 34 45 65 68 103 150 196 607 1090
2020-06-15 13:45 5.27 122 1320 (1992) 34 (2006) 211 34 45 65 68 103 150 196 607 1090
2020-06-15 12:45 5.28 124 1320 (1992) 34 (2006) 211 34 45 65 68 103 150 196 607 1090
2020-06-15 11:45 5.28 124 1320 (1992) 34 (2006) 211 34 45 65 68 103 150 196 607 1090
2020-06-15 10:45 5.27 122 1320 (1992) 34 (2006) 211 34 45 65 68 103 150 196 607 1090
2020-06-15 09:45 5.30 129 1320 (1992) 34 (2006) 211 34 45 65 68 103 150 196 607 1090
2020-06-15 08:45 5.27 122 1320 (1992) 34 (2006) 211 34 45 65 68 103 150 196 607 1090
2020-06-15 07:45 5.28 124 1320 (1992) 34 (2006) 211 34 45 65 68 103 150 196 607 1090
2020-06-15 06:45 5.29 127 1320 (1992) 34 (2006) 211 34 45 65 68 103 150 196 607 1090
2020-06-15 05:45 5.28 124 1320 (1992) 34 (2006) 211 34 45 65 68 103 150 196 607 1090
2020-06-15 04:45 5.27 122 1320 (1992) 34 (2006) 211 34 45 65 68 103 150 196 607 1090
2020-06-15 03:45 5.29 127 1320 (1992) 34 (2006) 211 34 45 65 68 103 150 196 607 1090
2020-06-15 02:45 5.27 122 1320 (1992) 34 (2006) 211 34 45 65 68 103 150 196 607 1090
2020-06-15 01:45 5.28 124 1320 (1992) 34 (2006) 211 34 45 65 68 103 150 196 607 1090
2020-06-15 00:45 5.29 127 1320 (1992) 34 (2006) 211 34 45 65 68 103 150 196 607 1090
2020-06-14 23:45 5.28 124 1260 (2008) 28 (2012) 181 31 47 73 76 120 178 195 428 918
2020-06-14 22:45 5.29 127 1260 (2008) 28 (2012) 181 31 47 73 76 120 178 195 428 918
2020-06-14 21:45 5.29 127 1260 (2008) 28 (2012) 181 31 47 73 76 120 178 195 428 918
2020-06-14 20:45 5.29 127 1260 (2008) 28 (2012) 181 31 47 73 76 120 178 195 428 918
2020-06-14 19:45 5.29 127 1260 (2008) 28 (2012) 181 31 47 73 76 120 178 195 428 918
2020-06-14 18:45 5.30 129 1260 (2008) 28 (2012) 181 31 47 73 76 120 178 195 428 918
2020-06-14 17:45 5.30 129 1260 (2008) 28 (2012) 181 31 47 73 76 120 178 195 428 918
2020-06-14 16:45 5.31 132 1260 (2008) 28 (2012) 181 31 47 73 76 120 178 195 428 918
2020-06-14 15:45 5.32 134 1260 (2008) 28 (2012) 181 31 47 73 76 120 178 195 428 918
2020-06-14 14:45 5.32 134 1260 (2008) 28 (2012) 181 31 47 73 76 120 178 195 428 918
2020-06-14 13:45 5.32 134 1260 (2008) 28 (2012) 181 31 47 73 76 120 178 195 428 918
2020-06-14 12:45 5.34 140 1260 (2008) 28 (2012) 181 31 47 73 76 120 178 195 428 918
2020-06-14 11:45 5.32 134 1260 (2008) 28 (2012) 181 31 47 73 76 120 178 195 428 918
2020-06-14 10:45 5.33 137 1260 (2008) 28 (2012) 181 31 47 73 76 120 178 195 428 918
2020-06-14 09:45 5.33 137 1260 (2008) 28 (2012) 181 31 47 73 76 120 178 195 428 918
2020-06-14 08:45 5.33 137 1260 (2008) 28 (2012) 181 31 47 73 76 120 178 195 428 918
2020-06-14 07:45 5.33 137 1260 (2008) 28 (2012) 181 31 47 73 76 120 178 195 428 918
2020-06-14 06:45 5.33 137 1260 (2008) 28 (2012) 181 31 47 73 76 120 178 195 428 918
2020-06-14 05:45 5.33 137 1260 (2008) 28 (2012) 181 31 47 73 76 120 178 195 428 918
2020-06-14 04:45 5.33 137 1260 (2008) 28 (2012) 181 31 47 73 76 120 178 195 428 918
2020-06-14 03:45 5.32 134 1260 (2008) 28 (2012) 181 31 47 73 76 120 178 195 428 918
2020-06-14 02:45 5.34 140 1260 (2008) 28 (2012) 181 31 47 73 76 120 178 195 428 918
2020-06-14 01:45 5.33 137 1260 (2008) 28 (2012) 181 31 47 73 76 120 178 195 428 918
2020-06-14 00:45 5.34 140 1260 (2008) 28 (2012) 181 31 47 73 76 120 178 195 428 918
2020-06-13 23:45 5.33 137 815 (2010) 34 (2006) 161 35 50 80 83 99 178 198 339 699
2020-06-13 22:45 5.34 140 815 (2010) 34 (2006) 161 35 50 80 83 99 178 198 339 699
2020-06-13 21:45 5.33 137 815 (2010) 34 (2006) 161 35 50 80 83 99 178 198 339 699
2020-06-13 20:45 5.32 134 815 (2010) 34 (2006) 161 35 50 80 83 99 178 198 339 699
2020-06-13 19:45 5.34 140 815 (2010) 34 (2006) 161 35 50 80 83 99 178 198 339 699
2020-06-13 18:45 5.34 140 815 (2010) 34 (2006) 161 35 50 80 83 99 178 198 339 699
2020-06-13 17:45 5.36 145 815 (2010) 34 (2006) 161 35 50 80 83 99 178 198 339 699
2020-06-13 16:45 5.35 142 815 (2010) 34 (2006) 161 35 50 80 83 99 178 198 339 699
2020-06-13 15:45 5.37 148 815 (2010) 34 (2006) 161 35 50 80 83 99 178 198 339 699
2020-06-13 14:45 5.37 148 815 (2010) 34 (2006) 161 35 50 80 83 99 178 198 339 699
2020-06-13 13:45 5.38 150 815 (2010) 34 (2006) 161 35 50 80 83 99 178 198 339 699
2020-06-13 12:45 5.37 148 815 (2010) 34 (2006) 161 35 50 80 83 99 178 198 339 699
2020-06-13 11:45 5.38 150 815 (2010) 34 (2006) 161 35 50 80 83 99 178 198 339 699
2020-06-13 10:45 5.38 150 815 (2010) 34 (2006) 161 35 50 80 83 99 178 198 339 699
2020-06-13 09:45 5.38 150 815 (2010) 34 (2006) 161 35 50 80 83 99 178 198 339 699
2020-06-13 08:45 5.38 150 815 (2010) 34 (2006) 161 35 50 80 83 99 178 198 339 699
2020-06-13 07:45 5.38 150 815 (2010) 34 (2006) 161 35 50 80 83 99 178 198 339 699
2020-06-13 06:45 5.38 150 815 (2010) 34 (2006) 161 35 50 80 83 99 178 198 339 699
2020-06-13 05:45 5.38 150 815 (2010) 34 (2006) 161 35 50 80 83 99 178 198 339 699
2020-06-13 04:45 5.39 153 815 (2010) 34 (2006) 161 35 50 80 83 99 178 198 339 699
2020-06-13 03:45 5.37 148 815 (2010) 34 (2006) 161 35 50 80 83 99 178 198 339 699
2020-06-13 02:45 5.38 150 815 (2010) 34 (2006) 161 35 50 80 83 99 178 198 339 699
2020-06-13 01:45 5.38 150 815 (2010) 34 (2006) 161 35 50 80 83 99 178 198 339 699
2020-06-13 00:45 5.38 150 815 (2010) 34 (2006) 161 35 50 80 83 99 178 198 339 699
2020-06-12 23:45 5.38 150 1310 (2010) 34 (2006) 209 37 54 80 84 108 209 238 469 1140
2020-06-12 22:45 5.38 150 1310 (2010) 34 (2006) 209 37 54 80 84 108 209 238 469 1140
2020-06-12 21:45 5.39 153 1310 (2010) 34 (2006) 209 37 54 80 84 108 209 238 469 1140
2020-06-12 20:45 5.38 150 1310 (2010) 34 (2006) 209 37 54 80 84 108 209 238 469 1140
2020-06-12 19:45 5.39 153 1310 (2010) 34 (2006) 209 37 54 80 84 108 209 238 469 1140
2020-06-12 18:45 5.38 150 1310 (2010) 34 (2006) 209 37 54 80 84 108 209 238 469 1140
2020-06-12 17:45 5.40 156 1310 (2010) 34 (2006) 209 37 54 80 84 108 209 238 469 1140
2020-06-12 16:45 5.42 161 1310 (2010) 34 (2006) 209 37 54 80 84 108 209 238 469 1140
2020-06-12 15:45 5.41 158 1310 (2010) 34 (2006) 209 37 54 80 84 108 209 238 469 1140
2020-06-12 14:45 5.42 161 1310 (2010) 34 (2006) 209 37 54 80 84 108 209 238 469 1140
2020-06-12 13:45 5.44 166 1310 (2010) 34 (2006) 209 37 54 80 84 108 209 238 469 1140
2020-06-12 12:45 5.44 166 1310 (2010) 34 (2006) 209 37 54 80 84 108 209 238 469 1140
2020-06-12 11:45 5.44 166 1310 (2010) 34 (2006) 209 37 54 80 84 108 209 238 469 1140
2020-06-12 10:45 5.43 164 1310 (2010) 34 (2006) 209 37 54 80 84 108 209 238 469 1140
2020-06-12 09:45 5.43 164 1310 (2010) 34 (2006) 209 37 54 80 84 108 209 238 469 1140
2020-06-12 08:45 5.44 166 1310 (2010) 34 (2006) 209 37 54 80 84 108 209 238 469 1140
2020-06-12 07:45 5.44 166 1310 (2010) 34 (2006) 209 37 54 80 84 108 209 238 469 1140
2020-06-12 06:45 5.45 169 1310 (2010) 34 (2006) 209 37 54 80 84 108 209 238 469 1140
2020-06-12 05:45 5.44 166 1310 (2010) 34 (2006) 209 37 54 80 84 108 209 238 469 1140
2020-06-12 04:45 5.45 169 1310 (2010) 34 (2006) 209 37 54 80 84 108 209 238 469 1140
2020-06-12 03:45 5.43 164 1310 (2010) 34 (2006) 209 37 54 80 84 108 209 238 469 1140
2020-06-12 02:45 5.44 166 1310 (2010) 34 (2006) 209 37 54 80 84 108 209 238 469 1140
2020-06-12 01:45 5.46 172 1310 (2010) 34 (2006) 209 37 54 80 84 108 209 238 469 1140
2020-06-12 00:45 5.44 166 1310 (2010) 34 (2006) 209 37 54 80 84 108 209 238 469 1140
2020-06-11 23:45 5.46 172 14000 (2010) 23 (2012) 640 29 54 80 85 116 211 237 527 7330
2020-06-11 22:45 5.46 172 14000 (2010) 23 (2012) 640 29 54 80 85 116 211 237 527 7330
2020-06-11 21:45 5.47 175 14000 (2010) 23 (2012) 640 29 54 80 85 116 211 237 527 7330
2020-06-11 20:45 5.47 175 14000 (2010) 23 (2012) 640 29 54 80 85 116 211 237 527 7330
2020-06-11 19:45 5.47 175 14000 (2010) 23 (2012) 640 29 54 80 85 116 211 237 527 7330
2020-06-11 18:45 5.49 180 14000 (2010) 23 (2012) 640 29 54 80 85 116 211 237 527 7330
2020-06-11 17:45 5.50 183 14000 (2010) 23 (2012) 640 29 54 80 85 116 211 237 527 7330
2020-06-11 16:45 5.50 183 14000 (2010) 23 (2012) 640 29 54 80 85 116 211 237 527 7330
2020-06-11 15:45 5.51 186 14000 (2010) 23 (2012) 640 29 54 80 85 116 211 237 527 7330
2020-06-11 14:45 5.51 186 14000 (2010) 23 (2012) 640 29 54 80 85 116 211 237 527 7330
2020-06-11 13:45 5.52 188 14000 (2010) 23 (2012) 640 29 54 80 85 116 211 237 527 7330
2020-06-11 12:45 5.51 186 14000 (2010) 23 (2012) 640 29 54 80 85 116 211 237 527 7330
2020-06-11 11:45 5.51 186 14000 (2010) 23 (2012) 640 29 54 80 85 116 211 237 527 7330
2020-06-11 10:45 5.53 191 14000 (2010) 23 (2012) 640 29 54 80 85 116 211 237 527 7330
2020-06-11 09:45 5.53 191 14000 (2010) 23 (2012) 640 29 54 80 85 116 211 237 527 7330
2020-06-11 08:45 5.54 194 14000 (2010) 23 (2012) 640 29 54 80 85 116 211 237 527 7330
2020-06-11 07:45 5.54 194 14000 (2010) 23 (2012) 640 29 54 80 85 116 211 237 527 7330
2020-06-11 06:45 5.56 200 14000 (2010) 23 (2012) 640 29 54 80 85 116 211 237 527 7330
2020-06-11 05:45 5.56 200 14000 (2010) 23 (2012) 640 29 54 80 85 116 211 237 527 7330
2020-06-11 04:45 5.55 197 14000 (2010) 23 (2012) 640 29 54 80 85 116 211 237 527 7330
2020-06-11 03:45 5.56 200 14000 (2010) 23 (2012) 640 29 54 80 85 116 211 237 527 7330
2020-06-11 02:45 5.55 197 14000 (2010) 23 (2012) 640 29 54 80 85 116 211 237 527 7330
2020-06-11 01:45 5.57 202 14000 (2010) 23 (2012) 640 29 54 80 85 116 211 237 527 7330
2020-06-11 00:45 5.57 202 14000 (2010) 23 (2012) 640 29 54 80 85 116 211 237 527 7330
2020-06-10 23:45 5.57 202 1400 (2014) 22 (2012) 207 29 50 82 85 118 196 230 500 1010
2020-06-10 22:45 5.58 205 1400 (2014) 22 (2012) 207 29 50 82 85 118 196 230 500 1010
2020-06-10 21:45 5.59 208 1400 (2014) 22 (2012) 207 29 50 82 85 118 196 230 500 1010
2020-06-10 20:45 5.60 211 1400 (2014) 22 (2012) 207 29 50 82 85 118 196 230 500 1010
2020-06-10 19:45 5.57 202 1400 (2014) 22 (2012) 207 29 50 82 85 118 196 230 500 1010
2020-06-10 18:45 5.59 208 1400 (2014) 22 (2012) 207 29 50 82 85 118 196 230 500 1010
2020-06-10 17:45 5.61 214 1400 (2014) 22 (2012) 207 29 50 82 85 118 196 230 500 1010
2020-06-10 16:45 5.61 214 1400 (2014) 22 (2012) 207 29 50 82 85 118 196 230 500 1010
2020-06-10 15:45 5.63 220 1400 (2014) 22 (2012) 207 29 50 82 85 118 196 230 500 1010
2020-06-10 14:45 5.65 225 1400 (2014) 22 (2012) 207 29 50 82 85 118 196 230 500 1010
2020-06-10 13:45 5.66 228 1400 (2014) 22 (2012) 207 29 50 82 85 118 196 230 500 1010
2020-06-10 12:45 5.66 228 1400 (2014) 22 (2012) 207 29 50 82 85 118 196 230 500 1010
2020-06-10 11:45 5.70 240 1400 (2014) 22 (2012) 207 29 50 82 85 118 196 230 500 1010
2020-06-10 10:45 5.70 240 1400 (2014) 22 (2012) 207 29 50 82 85 118 196 230 500 1010
2020-06-10 09:45 5.71 243 1400 (2014) 22 (2012) 207 29 50 82 85 118 196 230 500 1010
2020-06-10 08:45 5.72 246 1400 (2014) 22 (2012) 207 29 50 82 85 118 196 230 500 1010
2020-06-10 07:45 5.73 249 1400 (2014) 22 (2012) 207 29 50 82 85 118 196 230 500 1010
2020-06-10 06:45 5.71 243 1400 (2014) 22 (2012) 207 29 50 82 85 118 196 230 500 1010
2020-06-10 05:45 5.75 255 1400 (2014) 22 (2012) 207 29 50 82 85 118 196 230 500 1010
2020-06-10 04:45 5.72 246 1400 (2014) 22 (2012) 207 29 50 82 85 118 196 230 500 1010
2020-06-10 03:45 5.75 255 1400 (2014) 22 (2012) 207 29 50 82 85 118 196 230 500 1010
2020-06-10 02:45 5.74 252 1400 (2014) 22 (2012) 207 29 50 82 85 118 196 230 500 1010
2020-06-10 01:45 5.77 261 1400 (2014) 22 (2012) 207 29 50 82 85 118 196 230 500 1010
2020-06-10 00:45 5.77 261 1400 (2014) 22 (2012) 207 29 50 82 85 118 196 230 500 1010
2020-06-09 23:45 5.77 261 2550 (2014) 21 (2012) 212 29 52 82 86 105 195 210 238 1460
2020-06-09 22:45 5.82 276 2550 (2014) 21 (2012) 212 29 52 82 86 105 195 210 238 1460
2020-06-09 21:45 5.86 288 2550 (2014) 21 (2012) 212 29 52 82 86 105 195 210 238 1460
2020-06-09 20:45 5.84 282 2550 (2014) 21 (2012) 212 29 52 82 86 105 195 210 238 1460
2020-06-09 19:45 5.90 300 2550 (2014) 21 (2012) 212 29 52 82 86 105 195 210 238 1460
2020-06-09 18:45 5.91 303 2550 (2014) 21 (2012) 212 29 52 82 86 105 195 210 238 1460
2020-06-09 17:45 5.97 327 2550 (2014) 21 (2012) 212 29 52 82 86 105 195 210 238 1460
2020-06-09 16:45 6.01 354 2550 (2014) 21 (2012) 212 29 52 82 86 105 195 210 238 1460
2020-06-09 15:45 6.02 362 2550 (2014) 21 (2012) 212 29 52 82 86 105 195 210 238 1460
2020-06-09 14:45 6.06 393 2550 (2014) 21 (2012) 212 29 52 82 86 105 195 210 238 1460
2020-06-09 13:45 6.11 433 2550 (2014) 21 (2012) 212 29 52 82 86 105 195 210 238 1460
2020-06-09 12:45 6.11 433 2550 (2014) 21 (2012) 212 29 52 82 86 105 195 210 238 1460
2020-06-09 11:45 6.10 425 2550 (2014) 21 (2012) 212 29 52 82 86 105 195 210 238 1460
2020-06-09 10:45 6.17 485 2550 (2014) 21 (2012) 212 29 52 82 86 105 195 210 238 1460
2020-06-09 09:45 6.23 541 2550 (2014) 21 (2012) 212 29 52 82 86 105 195 210 238 1460
2020-06-09 08:45 6.30 612 2550 (2014) 21 (2012) 212 29 52 82 86 105 195 210 238 1460
2020-06-09 07:45 6.39 697 2550 (2014) 21 (2012) 212 29 52 82 86 105 195 210 238 1460
2020-06-09 06:45 6.41 715 2550 (2014) 21 (2012) 212 29 52 82 86 105 195 210 238 1460
2020-06-09 05:45 6.41 715 2550 (2014) 21 (2012) 212 29 52 82 86 105 195 210 238 1460
2020-06-09 04:45 6.24 551 2550 (2014) 21 (2012) 212 29 52 82 86 105 195 210 238 1460
2020-06-09 03:45 6.52 812 2550 (2014) 21 (2012) 212 29 52 82 86 105 195 210 238 1460
2020-06-09 02:45 6.84 1010 2550 (2014) 21 (2012) 212 29 52 82 86 105 195 210 238 1460
2020-06-09 01:45 6.97 1050 2550 (2014) 21 (2012) 212 29 52 82 86 105 195 210 238 1460
2020-06-09 00:45 6.94 1040 2550 (2014) 21 (2012) 212 29 52 82 86 105 195 210 238 1460
2020-06-08 23:45 6.93 1040 517 (1989) 22 (2012) 143 31 51 70 81 116 172 192 318 445
2020-06-08 22:45 6.50 795 517 (1989) 22 (2012) 143 31 51 70 81 116 172 192 318 445
2020-06-08 21:45 6.42 725 517 (1989) 22 (2012) 143 31 51 70 81 116 172 192 318 445
2020-06-08 20:45 5.88 294 517 (1989) 22 (2012) 143 31 51 70 81 116 172 192 318 445
2020-06-08 19:45 5.62 217 517 (1989) 22 (2012) 143 31 51 70 81 116 172 192 318 445
2020-06-08 18:45 5.52 188 517 (1989) 22 (2012) 143 31 51 70 81 116 172 192 318 445
2020-06-08 17:45 5.47 175 517 (1989) 22 (2012) 143 31 51 70 81 116 172 192 318 445
2020-06-08 16:45 5.42 161 517 (1989) 22 (2012) 143 31 51 70 81 116 172 192 318 445
2020-06-08 15:45 5.39 153 517 (1989) 22 (2012) 143 31 51 70 81 116 172 192 318 445
2020-06-08 14:45 5.36 145 517 (1989) 22 (2012) 143 31 51 70 81 116 172 192 318 445
2020-06-08 13:45 5.37 148 517 (1989) 22 (2012) 143 31 51 70 81 116 172 192 318 445
2020-06-08 12:45 5.35 142 517 (1989) 22 (2012) 143 31 51 70 81 116 172 192 318 445
2020-06-08 11:45 5.35 142 517 (1989) 22 (2012) 143 31 51 70 81 116 172 192 318 445
2020-06-08 10:45 5.35 142 517 (1989) 22 (2012) 143 31 51 70 81 116 172 192 318 445
2020-06-08 09:45 5.34 140 517 (1989) 22 (2012) 143 31 51 70 81 116 172 192 318 445
2020-06-08 08:45 5.34 140 517 (1989) 22 (2012) 143 31 51 70 81 116 172 192 318 445
2020-06-08 07:45 5.34 140 517 (1989) 22 (2012) 143 31 51 70 81 116 172 192 318 445
2020-06-08 06:45 5.33 137 517 (1989) 22 (2012) 143 31 51 70 81 116 172 192 318 445
2020-06-08 05:45 5.33 137 517 (1989) 22 (2012) 143 31 51 70 81 116 172 192 318 445
2020-06-08 04:45 5.33 137 517 (1989) 22 (2012) 143 31 51 70 81 116 172 192 318 445
2020-06-08 03:45 5.32 134 517 (1989) 22 (2012) 143 31 51 70 81 116 172 192 318 445
2020-06-08 02:45 5.35 142 517 (1989) 22 (2012) 143 31 51 70 81 116 172 192 318 445
2020-06-08 01:45 5.34 140 517 (1989) 22 (2012) 143 31 51 70 81 116 172 192 318 445
2020-06-08 00:45 5.32 134 517 (1989) 22 (2012) 143 31 51 70 81 116 172 192 318 445
2020-06-07 23:45 5.35 142 567 (1989) 24 (2012) 160 35 53 72 83 121 208 211 292 539
2020-06-07 22:45 5.33 137 567 (1989) 24 (2012) 160 35 53 72 83 121 208 211 292 539
2020-06-07 21:45 5.35 142 567 (1989) 24 (2012) 160 35 53 72 83 121 208 211 292 539
2020-06-07 20:45 5.35 142 567 (1989) 24 (2012) 160 35 53 72 83 121 208 211 292 539
2020-06-07 19:45 5.34 140 567 (1989) 24 (2012) 160 35 53 72 83 121 208 211 292 539
2020-06-07 18:45 5.34 140 567 (1989) 24 (2012) 160 35 53 72 83 121 208 211 292 539
2020-06-07 17:45 5.35 142 567 (1989) 24 (2012) 160 35 53 72 83 121 208 211 292 539
2020-06-07 16:45 5.36 145 567 (1989) 24 (2012) 160 35 53 72 83 121 208 211 292 539
2020-06-07 15:45 5.36 145 567 (1989) 24 (2012) 160 35 53 72 83 121 208 211 292 539
2020-06-07 14:45 5.36 145 567 (1989) 24 (2012) 160 35 53 72 83 121 208 211 292 539
2020-06-07 13:45 5.38 150 567 (1989) 24 (2012) 160 35 53 72 83 121 208 211 292 539
2020-06-07 12:45 5.37 148 567 (1989) 24 (2012) 160 35 53 72 83 121 208 211 292 539
2020-06-07 11:45 5.38 150 567 (1989) 24 (2012) 160 35 53 72 83 121 208 211 292 539
2020-06-07 10:45 5.38 150 567 (1989) 24 (2012) 160 35 53 72 83 121 208 211 292 539
2020-06-07 09:45 5.39 153 567 (1989) 24 (2012) 160 35 53 72 83 121 208 211 292 539
2020-06-07 08:45 5.40 156 567 (1989) 24 (2012) 160 35 53 72 83 121 208 211 292 539
2020-06-07 07:45 5.37 148 567 (1989) 24 (2012) 160 35 53 72 83 121 208 211 292 539
2020-06-07 06:45 5.39 153 567 (1989) 24 (2012) 160 35 53 72 83 121 208 211 292 539
2020-06-07 05:45 5.38 150 567 (1989) 24 (2012) 160 35 53 72 83 121 208 211 292 539
2020-06-07 04:45 5.37 148 567 (1989) 24 (2012) 160 35 53 72 83 121 208 211 292 539
2020-06-07 03:45 5.37 148 567 (1989) 24 (2012) 160 35 53 72 83 121 208 211 292 539
2020-06-07 02:45 5.39 153 567 (1989) 24 (2012) 160 35 53 72 83 121 208 211 292 539
2020-06-07 01:45 5.38 150 567 (1989) 24 (2012) 160 35 53 72 83 121 208 211 292 539
2020-06-07 00:45 5.37 148 567 (1989) 24 (2012) 160 35 53 72 83 121 208 211 292 539
2020-06-06 23:45 5.38 150 1480 (1989) 26 (2012) 219 33 60 74 85 137 230 292 364 1150
2020-06-06 22:45 5.40 156 1480 (1989) 26 (2012) 219 33 60 74 85 137 230 292 364 1150
2020-06-06 21:45 5.40 156 1480 (1989) 26 (2012) 219 33 60 74 85 137 230 292 364 1150
2020-06-06 20:45 5.38 150 1480 (1989) 26 (2012) 219 33 60 74 85 137 230 292 364 1150
2020-06-06 19:45 5.40 156 1480 (1989) 26 (2012) 219 33 60 74 85 137 230 292 364 1150
2020-06-06 18:45 5.38 150 1480 (1989) 26 (2012) 219 33 60 74 85 137 230 292 364 1150
2020-06-06 17:45 5.41 158 1480 (1989) 26 (2012) 219 33 60 74 85 137 230 292 364 1150
2020-06-06 16:45 5.42 161 1480 (1989) 26 (2012) 219 33 60 74 85 137 230 292 364 1150
2020-06-06 15:45 5.41 158 1480 (1989) 26 (2012) 219 33 60 74 85 137 230 292 364 1150
2020-06-06 14:45 5.43 164 1480 (1989) 26 (2012) 219 33 60 74 85 137 230 292 364 1150
2020-06-06 13:45 5.44 166 1480 (1989) 26 (2012) 219 33 60 74 85 137 230 292 364 1150
2020-06-06 12:45 5.43 164 1480 (1989) 26 (2012) 219 33 60 74 85 137 230 292 364 1150
2020-06-06 11:45 5.44 166 1480 (1989) 26 (2012) 219 33 60 74 85 137 230 292 364 1150
2020-06-06 10:45 5.44 166 1480 (1989) 26 (2012) 219 33 60 74 85 137 230 292 364 1150
2020-06-06 09:45 5.42 161 1480 (1989) 26 (2012) 219 33 60 74 85 137 230 292 364 1150
2020-06-06 08:45 5.44 166 1480 (1989) 26 (2012) 219 33 60 74 85 137 230 292 364 1150
2020-06-06 07:45 5.44 166 1480 (1989) 26 (2012) 219 33 60 74 85 137 230 292 364 1150
2020-06-06 06:45 5.44 166 1480 (1989) 26 (2012) 219 33 60 74 85 137 230 292 364 1150
2020-06-06 05:45 5.43 164 1480 (1989) 26 (2012) 219 33 60 74 85 137 230 292 364 1150
2020-06-06 04:45 5.45 169 1480 (1989) 26 (2012) 219 33 60 74 85 137 230 292 364 1150
2020-06-06 03:45 5.44 166 1480 (1989) 26 (2012) 219 33 60 74 85 137 230 292 364 1150
2020-06-06 02:45 5.45 169 1480 (1989) 26 (2012) 219 33 60 74 85 137 230 292 364 1150
2020-06-06 01:45 5.44 166 1480 (1989) 26 (2012) 219 33 60 74 85 137 230 292 364 1150
2020-06-06 00:45 5.45 169 1480 (1989) 26 (2012) 219 33 60 74 85 137 230 292 364 1150
2020-06-05 23:45 5.44 166 1500 (1989) 28 (2012) 220 33 70 76 89 139 220 304 455 1010
2020-06-05 22:45 5.45 169 1500 (1989) 28 (2012) 220 33 70 76 89 139 220 304 455 1010
2020-06-05 21:45 5.45 169 1500 (1989) 28 (2012) 220 33 70 76 89 139 220 304 455 1010
2020-06-05 20:45 5.45 169 1500 (1989) 28 (2012) 220 33 70 76 89 139 220 304 455 1010
2020-06-05 19:45 5.45 169 1500 (1989) 28 (2012) 220 33 70 76 89 139 220 304 455 1010
2020-06-05 18:45 5.47 175 1500 (1989) 28 (2012) 220 33 70 76 89 139 220 304 455 1010
2020-06-05 17:45 5.48 177 1500 (1989) 28 (2012) 220 33 70 76 89 139 220 304 455 1010
2020-06-05 16:45 5.48 177 1500 (1989) 28 (2012) 220 33 70 76 89 139 220 304 455 1010
2020-06-05 15:45 5.48 177 1500 (1989) 28 (2012) 220 33 70 76 89 139 220 304 455 1010
2020-06-05 14:45 5.50 183 1500 (1989) 28 (2012) 220 33 70 76 89 139 220 304 455 1010
2020-06-05 13:45 5.49 180 1500 (1989) 28 (2012) 220 33 70 76 89 139 220 304 455 1010
2020-06-05 12:45 5.50 183 1500 (1989) 28 (2012) 220 33 70 76 89 139 220 304 455 1010
2020-06-05 11:45 5.51 186 1500 (1989) 28 (2012) 220 33 70 76 89 139 220 304 455 1010
2020-06-05 10:45 5.51 186 1500 (1989) 28 (2012) 220 33 70 76 89 139 220 304 455 1010
2020-06-05 09:45 5.50 183 1500 (1989) 28 (2012) 220 33 70 76 89 139 220 304 455 1010
2020-06-05 08:45 5.52 188 1500 (1989) 28 (2012) 220 33 70 76 89 139 220 304 455 1010
2020-06-05 07:45 5.52 188 1500 (1989) 28 (2012) 220 33 70 76 89 139 220 304 455 1010
2020-06-05 06:45 5.51 186 1500 (1989) 28 (2012) 220 33 70 76 89 139 220 304 455 1010
2020-06-05 05:45 5.53 191 1500 (1989) 28 (2012) 220 33 70 76 89 139 220 304 455 1010
2020-06-05 04:45 5.53 191 1500 (1989) 28 (2012) 220 33 70 76 89 139 220 304 455 1010
2020-06-05 03:45 5.52 188 1500 (1989) 28 (2012) 220 33 70 76 89 139 220 304 455 1010
2020-06-05 02:45 5.50 183 1500 (1989) 28 (2012) 220 33 70 76 89 139 220 304 455 1010
2020-06-05 01:45 5.52 188 1500 (1989) 28 (2012) 220 33 70 76 89 139 220 304 455 1010
2020-06-05 00:45 5.52 188 1500 (1989) 28 (2012) 220 33 70 76 89 139 220 304 455 1010
2020-06-04 23:45 5.51 186 1010 (1989) 29 (2012) 218 33 72 86 92 136 274 384 508 813
2020-06-04 22:45 5.54 194 1010 (1989) 29 (2012) 218 33 72 86 92 136 274 384 508 813
2020-06-04 21:45 5.53 191 1010 (1989) 29 (2012) 218 33 72 86 92 136 274 384 508 813
2020-06-04 20:45 5.54 194 1010 (1989) 29 (2012) 218 33 72 86 92 136 274 384 508 813
2020-06-04 19:45 5.54 194 1010 (1989) 29 (2012) 218 33 72 86 92 136 274 384 508 813
2020-06-04 18:45 5.54 194 1010 (1989) 29 (2012) 218 33 72 86 92 136 274 384 508 813
2020-06-04 17:45 5.56 200 1010 (1989) 29 (2012) 218 33 72 86 92 136 274 384 508 813
2020-06-04 16:45 5.56 200 1010 (1989) 29 (2012) 218 33 72 86 92 136 274 384 508 813
2020-06-04 15:45 5.56 200 1010 (1989) 29 (2012) 218 33 72 86 92 136 274 384 508 813
2020-06-04 14:45 5.58 205 1010 (1989) 29 (2012) 218 33 72 86 92 136 274 384 508 813
2020-06-04 13:45 5.58 205 1010 (1989) 29 (2012) 218 33 72 86 92 136 274 384 508 813
2020-06-04 12:45 5.59 208 1010 (1989) 29 (2012) 218 33 72 86 92 136 274 384 508 813
2020-06-04 11:45 5.62 217 1010 (1989) 29 (2012) 218 33 72 86 92 136 274 384 508 813
2020-06-04 10:45 5.63 220 1010 (1989) 29 (2012) 218 33 72 86 92 136 274 384 508 813
2020-06-04 09:45 5.62 217 1010 (1989) 29 (2012) 218 33 72 86 92 136 274 384 508 813
2020-06-04 08:45 5.62 217 1010 (1989) 29 (2012) 218 33 72 86 92 136 274 384 508 813
2020-06-04 07:45 5.67 231 1010 (1989) 29 (2012) 218 33 72 86 92 136 274 384 508 813
2020-06-04 06:45 5.67 231 1010 (1989) 29 (2012) 218 33 72 86 92 136 274 384 508 813
2020-06-04 05:45 5.63 220 1010 (1989) 29 (2012) 218 33 72 86 92 136 274 384 508 813
2020-06-04 04:45 5.61 214 1010 (1989) 29 (2012) 218 33 72 86 92 136 274 384 508 813
2020-06-04 03:45 5.59 208 1010 (1989) 29 (2012) 218 33 72 86 92 136 274 384 508 813
2020-06-04 02:45 5.56 200 1010 (1989) 29 (2012) 218 33 72 86 92 136 274 384 508 813
2020-06-04 01:45 5.55 197 1010 (1989) 29 (2012) 218 33 72 86 92 136 274 384 508 813
2020-06-04 00:45 5.51 186 1010 (1989) 29 (2012) 218 33 72 86 92 136 274 384 508 813
2020-06-03 23:45 5.50 183 967 (2004) 31 (2012) 230 36 74 90 101 146 245 291 628 967
2020-06-03 22:45 5.54 194 967 (2004) 31 (2012) 230 36 74 90 101 146 245 291 628 967
2020-06-03 21:45 5.54 194 967 (2004) 31 (2012) 230 36 74 90 101 146 245 291 628 967
2020-06-03 20:45 5.53 191 967 (2004) 31 (2012) 230 36 74 90 101 146 245 291 628 967
2020-06-03 19:45 5.55 197 967 (2004) 31 (2012) 230 36 74 90 101 146 245 291 628 967
2020-06-03 18:45 5.55 197 967 (2004) 31 (2012) 230 36 74 90 101 146 245 291 628 967
2020-06-03 17:45 5.55 197 967 (2004) 31 (2012) 230 36 74 90 101 146 245 291 628 967
2020-06-03 16:45 5.56 200 967 (2004) 31 (2012) 230 36 74 90 101 146 245 291 628 967
2020-06-03 15:45 5.54 194 967 (2004) 31 (2012) 230 36 74 90 101 146 245 291 628 967
2020-06-03 14:45 5.53 191 967 (2004) 31 (2012) 230 36 74 90 101 146 245 291 628 967
2020-06-03 13:45 5.58 205 967 (2004) 31 (2012) 230 36 74 90 101 146 245 291 628 967
2020-06-03 12:45 5.58 205 967 (2004) 31 (2012) 230 36 74 90 101 146 245 291 628 967
2020-06-03 11:45 5.58 205 967 (2004) 31 (2012) 230 36 74 90 101 146 245 291 628 967
2020-06-03 10:45 5.58 205 967 (2004) 31 (2012) 230 36 74 90 101 146 245 291 628 967
2020-06-03 09:45 5.57 202 967 (2004) 31 (2012) 230 36 74 90 101 146 245 291 628 967
2020-06-03 08:45 5.60 211 967 (2004) 31 (2012) 230 36 74 90 101 146 245 291 628 967
2020-06-03 07:45 5.59 208 967 (2004) 31 (2012) 230 36 74 90 101 146 245 291 628 967
2020-06-03 06:45 5.60 211 967 (2004) 31 (2012) 230 36 74 90 101 146 245 291 628 967
2020-06-03 05:45 5.57 202 967 (2004) 31 (2012) 230 36 74 90 101 146 245 291 628 967
2020-06-03 04:45 5.58 205 967 (2004) 31 (2012) 230 36 74 90 101 146 245 291 628 967
2020-06-03 03:45 5.57 202 967 (2004) 31 (2012) 230 36 74 90 101 146 245 291 628 967
2020-06-03 02:45 5.58 205 967 (2004) 31 (2012) 230 36 74 90 101 146 245 291 628 967
2020-06-03 01:45 5.57 202 967 (2004) 31 (2012) 230 36 74 90 101 146 245 291 628 967
2020-06-03 00:45 5.59 208 967 (2004) 31 (2012) 230 36 74 90 101 146 245 291 628 967
2020-06-02 23:45 5.60 211 2730 (2013) 31 (2012) 303 37 76 90 97 152 264 293 738 1830
2020-06-02 22:45 5.59 208 2730 (2013) 31 (2012) 303 37 76 90 97 152 264 293 738 1830
2020-06-02 21:45 5.60 211 2730 (2013) 31 (2012) 303 37 76 90 97 152 264 293 738 1830
2020-06-02 20:45 5.59 208 2730 (2013) 31 (2012) 303 37 76 90 97 152 264 293 738 1830
2020-06-02 19:45 5.60 211 2730 (2013) 31 (2012) 303 37 76 90 97 152 264 293 738 1830
2020-06-02 18:45 5.60 211 2730 (2013) 31 (2012) 303 37 76 90 97 152 264 293 738 1830
2020-06-02 17:45 5.60 211 2730 (2013) 31 (2012) 303 37 76 90 97 152 264 293 738 1830
2020-06-02 16:45 5.61 214 2730 (2013) 31 (2012) 303 37 76 90 97 152 264 293 738 1830
2020-06-02 15:45 5.60 211 2730 (2013) 31 (2012) 303 37 76 90 97 152 264 293 738 1830
2020-06-02 14:45 5.64 222 2730 (2013) 31 (2012) 303 37 76 90 97 152 264 293 738 1830
2020-06-02 13:45 5.64 222 2730 (2013) 31 (2012) 303 37 76 90 97 152 264 293 738 1830
2020-06-02 12:45 5.63 220 2730 (2013) 31 (2012) 303 37 76 90 97 152 264 293 738 1830
2020-06-02 11:45 5.64 222 2730 (2013) 31 (2012) 303 37 76 90 97 152 264 293 738 1830
2020-06-02 10:45 5.61 214 2730 (2013) 31 (2012) 303 37 76 90 97 152 264 293 738 1830
2020-06-02 09:45 5.62 217 2730 (2013) 31 (2012) 303 37 76 90 97 152 264 293 738 1830
2020-06-02 08:45 5.65 225 2730 (2013) 31 (2012) 303 37 76 90 97 152 264 293 738 1830
2020-06-02 07:45 5.62 217 2730 (2013) 31 (2012) 303 37 76 90 97 152 264 293 738 1830
2020-06-02 06:45 5.67 231 2730 (2013) 31 (2012) 303 37 76 90 97 152 264 293 738 1830
2020-06-02 05:45 5.66 228 2730 (2013) 31 (2012) 303 37 76 90 97 152 264 293 738 1830
2020-06-02 04:45 5.68 234 2730 (2013) 31 (2012) 303 37 76 90 97 152 264 293 738 1830
2020-06-02 03:45 5.67 231 2730 (2013) 31 (2012) 303 37 76 90 97 152 264 293 738 1830
2020-06-02 02:45 5.66 228 2730 (2013) 31 (2012) 303 37 76 90 97 152 264 293 738 1830
2020-06-02 01:45 5.68 234 2730 (2013) 31 (2012) 303 37 76 90 97 152 264 293 738 1830
2020-06-02 00:45 5.65 225 2730 (2013) 31 (2012) 303 37 76 90 97 152 264 293 738 1830
2020-06-01 23:45 5.68 234 6970 (2013) 30 (2012) 428 39 75 91 99 166 301 310 498 3770
2020-06-01 22:45 5.66 228 6970 (2013) 30 (2012) 428 39 75 91 99 166 301 310 498 3770
2020-06-01 21:45 5.69 237 6970 (2013) 30 (2012) 428 39 75 91 99 166 301 310 498 3770
2020-06-01 20:45 5.69 237 6970 (2013) 30 (2012) 428 39 75 91 99 166 301 310 498 3770
2020-06-01 19:45 5.68 234 6970 (2013) 30 (2012) 428 39 75 91 99 166 301 310 498 3770
2020-06-01 18:45 5.70 240 6970 (2013) 30 (2012) 428 39 75 91 99 166 301 310 498 3770
2020-06-01 17:45 5.71 243 6970 (2013) 30 (2012) 428 39 75 91 99 166 301 310 498 3770
2020-06-01 16:45 5.72 246 6970 (2013) 30 (2012) 428 39 75 91 99 166 301 310 498 3770
2020-06-01 15:45 5.70 240 6970 (2013) 30 (2012) 428 39 75 91 99 166 301 310 498 3770
2020-06-01 14:45 5.72 246 6970 (2013) 30 (2012) 428 39 75 91 99 166 301 310 498 3770
2020-06-01 13:45 5.72 246 6970 (2013) 30 (2012) 428 39 75 91 99 166 301 310 498 3770
2020-06-01 12:45 5.72 246 6970 (2013) 30 (2012) 428 39 75 91 99 166 301 310 498 3770
2020-06-01 11:45 5.73 249 6970 (2013) 30 (2012) 428 39 75 91 99 166 301 310 498 3770
2020-06-01 10:45 5.74 252 6970 (2013) 30 (2012) 428 39 75 91 99 166 301 310 498 3770
2020-06-01 09:45 5.73 249 6970 (2013) 30 (2012) 428 39 75 91 99 166 301 310 498 3770
2020-06-01 08:45 5.74 252 6970 (2013) 30 (2012) 428 39 75 91 99 166 301 310 498 3770
2020-06-01 07:45 5.74 252 6970 (2013) 30 (2012) 428 39 75 91 99 166 301 310 498 3770
2020-06-01 06:45 5.73 249 6970 (2013) 30 (2012) 428 39 75 91 99 166 301 310 498 3770
2020-06-01 05:45 5.75 255 6970 (2013) 30 (2012) 428 39 75 91 99 166 301 310 498 3770
2020-06-01 04:45 5.76 258 6970 (2013) 30 (2012) 428 39 75 91 99 166 301 310 498 3770
2020-06-01 03:45 5.74 252 6970 (2013) 30 (2012) 428 39 75 91 99 166 301 310 498 3770
2020-06-01 02:45 5.74 252 6970 (2013) 30 (2012) 428 39 75 91 99 166 301 310 498 3770
2020-06-01 01:45 5.76 258 6970 (2013) 30 (2012) 428 39 75 91 99 166 301 310 498 3770
2020-06-01 00:45 5.72 246 6970 (2013) 30 (2012) 428 39 75 91 99 166 301 310 498 3770
2020-05-31 23:45 5.76 258 7070 (2013) 30 (2012) 458 41 74 87 101 156 261 375 695 3960
2020-05-31 22:45 5.78 264 7070 (2013) 30 (2012) 458 41 74 87 101 156 261 375 695 3960
2020-05-31 21:45 5.78 264 7070 (2013) 30 (2012) 458 41 74 87 101 156 261 375 695 3960
2020-05-31 20:45 5.78 264 7070 (2013) 30 (2012) 458 41 74 87 101 156 261 375 695 3960
2020-05-31 19:45 5.80 270 7070 (2013) 30 (2012) 458 41 74 87 101 156 261 375 695 3960
2020-05-31 18:45 5.78 264 7070 (2013) 30 (2012) 458 41 74 87 101 156 261 375 695 3960
2020-05-31 17:45 5.78 264 7070 (2013) 30 (2012) 458 41 74 87 101 156 261 375 695 3960
2020-05-31 16:45 5.82 276 7070 (2013) 30 (2012) 458 41 74 87 101 156 261 375 695 3960
2020-05-31 15:45 5.82 276 7070 (2013) 30 (2012) 458 41 74 87 101 156 261 375 695 3960
2020-05-31 14:45 5.82 276 7070 (2013) 30 (2012) 458 41 74 87 101 156 261 375 695 3960
2020-05-31 13:45 5.85 285 7070 (2013) 30 (2012) 458 41 74 87 101 156 261 375 695 3960
2020-05-31 12:45 5.83 279 7070 (2013) 30 (2012) 458 41 74 87 101 156 261 375 695 3960
2020-05-31 11:45 5.86 288 7070 (2013) 30 (2012) 458 41 74 87 101 156 261 375 695 3960
2020-05-31 10:45 5.86 288 7070 (2013) 30 (2012) 458 41 74 87 101 156 261 375 695 3960
2020-05-31 09:45 5.88 294 7070 (2013) 30 (2012) 458 41 74 87 101 156 261 375 695 3960
2020-05-31 08:45 5.88 294 7070 (2013) 30 (2012) 458 41 74 87 101 156 261 375 695 3960
2020-05-31 07:45 5.91 303 7070 (2013) 30 (2012) 458 41 74 87 101 156 261 375 695 3960
2020-05-31 06:45 5.90 300 7070 (2013) 30 (2012) 458 41 74 87 101 156 261 375 695 3960
2020-05-31 05:45 5.90 300 7070 (2013) 30 (2012) 458 41 74 87 101 156 261 375 695 3960
2020-05-31 04:45 5.90 300 7070 (2013) 30 (2012) 458 41 74 87 101 156 261 375 695 3960
2020-05-31 03:45 5.90 300 7070 (2013) 30 (2012) 458 41 74 87 101 156 261 375 695 3960
2020-05-31 02:45 5.91 303 7070 (2013) 30 (2012) 458 41 74 87 101 156 261 375 695 3960
2020-05-31 01:45 5.93 310 7070 (2013) 30 (2012) 458 41 74 87 101 156 261 375 695 3960
2020-05-31 00:45 5.93 310 7070 (2013) 30 (2012) 458 41 74 87 101 156 261 375 695 3960
2020-05-30 23:45 5.92 306 2120 (2013) 29 (2012) 313 42 85 93 98 141 339 408 713 1630
2020-05-30 22:45 5.95 318 2120 (2013) 29 (2012) 313 42 85 93 98 141 339 408 713 1630
2020-05-30 21:45 5.96 322 2120 (2013) 29 (2012) 313 42 85 93 98 141 339 408 713 1630
2020-05-30 20:45 5.95 318 2120 (2013) 29 (2012) 313 42 85 93 98 141 339 408 713 1630
2020-05-30 19:45 5.97 327 2120 (2013) 29 (2012) 313 42 85 93 98 141 339 408 713 1630
2020-05-30 18:45 5.98 333 2120 (2013) 29 (2012) 313 42 85 93 98 141 339 408 713 1630
2020-05-30 17:45 5.98 333 2120 (2013) 29 (2012) 313 42 85 93 98 141 339 408 713 1630
2020-05-30 16:45 5.99 340 2120 (2013) 29 (2012) 313 42 85 93 98 141 339 408 713 1630
2020-05-30 15:45 6.02 362 2120 (2013) 29 (2012) 313 42 85 93 98 141 339 408 713 1630
2020-05-30 14:45 6.05 385 2120 (2013) 29 (2012) 313 42 85 93 98 141 339 408 713 1630
2020-05-30 13:45 6.06 393 2120 (2013) 29 (2012) 313 42 85 93 98 141 339 408 713 1630
2020-05-30 12:45 6.07 400 2120 (2013) 29 (2012) 313 42 85 93 98 141 339 408 713 1630
2020-05-30 11:45 6.08 408 2120 (2013) 29 (2012) 313 42 85 93 98 141 339 408 713 1630
2020-05-30 10:45 6.10 425 2120 (2013) 29 (2012) 313 42 85 93 98 141 339 408 713 1630
2020-05-30 09:45 6.12 442 2120 (2013) 29 (2012) 313 42 85 93 98 141 339 408 713 1630
2020-05-30 08:45 6.10 425 2120 (2013) 29 (2012) 313 42 85 93 98 141 339 408 713 1630
2020-05-30 07:45 6.14 459 2120 (2013) 29 (2012) 313 42 85 93 98 141 339 408 713 1630
2020-05-30 06:45 6.15 467 2120 (2013) 29 (2012) 313 42 85 93 98 141 339 408 713 1630
2020-05-30 05:45 6.14 459 2120 (2013) 29 (2012) 313 42 85 93 98 141 339 408 713 1630
2020-05-30 04:45 6.18 494 2120 (2013) 29 (2012) 313 42 85 93 98 141 339 408 713 1630
2020-05-30 03:45 6.18 494 2120 (2013) 29 (2012) 313 42 85 93 98 141 339 408 713 1630
2020-05-30 02:45 6.19 503 2120 (2013) 29 (2012) 313 42 85 93 98 141 339 408 713 1630
2020-05-30 01:45 6.20 513 2120 (2013) 29 (2012) 313 42 85 93 98 141 339 408 713 1630
2020-05-30 00:45 6.20 513 2120 (2013) 29 (2012) 313 42 85 93 98 141 339 408 713 1630
2020-05-29 23:45 6.24 551 1360 (2002) 30 (2012) 260 38 64 94 103 152 334 362 604 1130
2020-05-29 22:45 6.32 633 1360 (2002) 30 (2012) 260 38 64 94 103 152 334 362 604 1130
2020-05-29 21:45 6.29 601 1360 (2002) 30 (2012) 260 38 64 94 103 152 334 362 604 1130
2020-05-29 20:45 6.35 660 1360 (2002) 30 (2012) 260 38 64 94 103 152 334 362 604 1130
2020-05-29 19:45 6.30 612 1360 (2002) 30 (2012) 260 38 64 94 103 152 334 362 604 1130
2020-05-29 18:45 6.32 633 1360 (2002) 30 (2012) 260 38 64 94 103 152 334 362 604 1130
2020-05-29 17:45 6.36 669 1360 (2002) 30 (2012) 260 38 64 94 103 152 334 362 604 1130
2020-05-29 16:45 6.38 687 1360 (2002) 30 (2012) 260 38 64 94 103 152 334 362 604 1130
2020-05-29 15:45 6.41 715 1360 (2002) 30 (2012) 260 38 64 94 103 152 334 362 604 1130
2020-05-29 14:45 6.36 669 1360 (2002) 30 (2012) 260 38 64 94 103 152 334 362 604 1130
2020-05-29 13:45 6.40 706 1360 (2002) 30 (2012) 260 38 64 94 103 152 334 362 604 1130
2020-05-29 12:45 6.44 744 1360 (2002) 30 (2012) 260 38 64 94 103 152 334 362 604 1130
2020-05-29 11:45 6.45 754 1360 (2002) 30 (2012) 260 38 64 94 103 152 334 362 604 1130
2020-05-29 10:45 6.42 725 1360 (2002) 30 (2012) 260 38 64 94 103 152 334 362 604 1130
2020-05-29 09:45 6.45 754 1360 (2002) 30 (2012) 260 38 64 94 103 152 334 362 604 1130
2020-05-29 08:45 6.44 744 1360 (2002) 30 (2012) 260 38 64 94 103 152 334 362 604 1130
2020-05-29 07:45 6.48 779 1360 (2002) 30 (2012) 260 38 64 94 103 152 334 362 604 1130
2020-05-29 06:45 6.45 754 1360 (2002) 30 (2012) 260 38 64 94 103 152 334 362 604 1130
2020-05-29 05:45 6.41 715 1360 (2002) 30 (2012) 260 38 64 94 103 152 334 362 604 1130
2020-05-29 04:45 6.34 651 1360 (2002) 30 (2012) 260 38 64 94 103 152 334 362 604 1130
2020-05-29 03:45 6.40 706 1360 (2002) 30 (2012) 260 38 64 94 103 152 334 362 604 1130
2020-05-29 02:45 6.36 669 1360 (2002) 30 (2012) 260 38 64 94 103 152 334 362 604 1130
2020-05-29 01:45 6.42 725 1360 (2002) 30 (2012) 260 38 64 94 103 152 334 362 604 1130
2020-05-29 00:45 6.45 754 1360 (2002) 30 (2012) 260 38 64 94 103 152 334 362 604 1130
2020-05-28 23:45 6.46 762 1800 (2000) 32 (2012) 292 38 56 88 90 154 397 418 626 1400
2020-05-28 22:45 6.49 787 1800 (2000) 32 (2012) 292 38 56 88 90 154 397 418 626 1400
2020-05-28 21:45 6.54 829 1800 (2000) 32 (2012) 292 38 56 88 90 154 397 418 626 1400
2020-05-28 20:45 6.52 812 1800 (2000) 32 (2012) 292 38 56 88 90 154 397 418 626 1400
2020-05-28 19:45 6.58 863 1800 (2000) 32 (2012) 292 38 56 88 90 154 397 418 626 1400
2020-05-28 18:45 6.57 854 1800 (2000) 32 (2012) 292 38 56 88 90 154 397 418 626 1400
2020-05-28 17:45 6.65 912 1800 (2000) 32 (2012) 292 38 56 88 90 154 397 418 626 1400
2020-05-28 16:45 6.70 944 1800 (2000) 32 (2012) 292 38 56 88 90 154 397 418 626 1400
2020-05-28 15:45 6.77 979 1800 (2000) 32 (2012) 292 38 56 88 90 154 397 418 626 1400
2020-05-28 14:45 6.86 1020 1800 (2000) 32 (2012) 292 38 56 88 90 154 397 418 626 1400
2020-05-28 13:45 6.87 1020 1800 (2000) 32 (2012) 292 38 56 88 90 154 397 418 626 1400
2020-05-28 12:45 6.91 1030 1800 (2000) 32 (2012) 292 38 56 88 90 154 397 418 626 1400
2020-05-28 11:45 6.93 1040 1800 (2000) 32 (2012) 292 38 56 88 90 154 397 418 626 1400
2020-05-28 10:45 6.90 1030 1800 (2000) 32 (2012) 292 38 56 88 90 154 397 418 626 1400
2020-05-28 09:45 6.92 1040 1800 (2000) 32 (2012) 292 38 56 88 90 154 397 418 626 1400
2020-05-28 08:45 6.82 1000 1800 (2000) 32 (2012) 292 38 56 88 90 154 397 418 626 1400
2020-05-28 07:45 6.71 949 1800 (2000) 32 (2012) 292 38 56 88 90 154 397 418 626 1400
2020-05-28 06:45 6.64 905 1800 (2000) 32 (2012) 292 38 56 88 90 154 397 418 626 1400
2020-05-28 05:45 6.62 893 1800 (2000) 32 (2012) 292 38 56 88 90 154 397 418 626 1400
2020-05-28 04:45 6.68 931 1800 (2000) 32 (2012) 292 38 56 88 90 154 397 418 626 1400
2020-05-28 03:45 6.69 937 1800 (2000) 32 (2012) 292 38 56 88 90 154 397 418 626 1400
2020-05-28 02:45 6.72 954 1800 (2000) 32 (2012) 292 38 56 88 90 154 397 418 626 1400
2020-05-28 01:45 6.78 983 1800 (2000) 32 (2012) 292 38 56 88 90 154 397 418 626 1400
2020-05-28 00:45 6.79 987 1800 (2000) 32 (2012) 292 38 56 88 90 154 397 418 626 1400
2020-05-27 23:45 6.83 1000 1630 (2000) 37 (2012) 254 42 53 90 91 125 262 338 656 1160
2020-05-27 22:45 6.91 1030 1630 (2000) 37 (2012) 254 42 53 90 91 125 262 338 656 1160
2020-05-27 21:45 6.95 1050 1630 (2000) 37 (2012) 254 42 53 90 91 125 262 338 656 1160
2020-05-27 20:45 6.99 1060 1630 (2000) 37 (2012) 254 42 53 90 91 125 262 338 656 1160
2020-05-27 19:45 6.99 1060 1630 (2000) 37 (2012) 254 42 53 90 91 125 262 338 656 1160
2020-05-27 18:45 6.99 1060 1630 (2000) 37 (2012) 254 42 53 90 91 125 262 338 656 1160
2020-05-27 17:45 6.95 1050 1630 (2000) 37 (2012) 254 42 53 90 91 125 262 338 656 1160
2020-05-27 16:45 6.83 1000 1630 (2000) 37 (2012) 254 42 53 90 91 125 262 338 656 1160
2020-05-27 15:45 6.73 960 1630 (2000) 37 (2012) 254 42 53 90 91 125 262 338 656 1160
2020-05-27 14:45 6.76 974 1630 (2000) 37 (2012) 254 42 53 90 91 125 262 338 656 1160
2020-05-27 13:45 6.71 949 1630 (2000) 37 (2012) 254 42 53 90 91 125 262 338 656 1160
2020-05-27 12:45 6.77 979 1630 (2000) 37 (2012) 254 42 53 90 91 125 262 338 656 1160
2020-05-27 11:45 6.81 996 1630 (2000) 37 (2012) 254 42 53 90 91 125 262 338 656 1160
2020-05-27 10:45 6.87 1020 1630 (2000) 37 (2012) 254 42 53 90 91 125 262 338 656 1160
2020-05-27 09:45 6.85 1010 1630 (2000) 37 (2012) 254 42 53 90 91 125 262 338 656 1160
2020-05-27 08:45 6.96 1050 1630 (2000) 37 (2012) 254 42 53 90 91 125 262 338 656 1160
2020-05-27 07:45 6.97 1050 1630 (2000) 37 (2012) 254 42 53 90 91 125 262 338 656 1160
2020-05-27 06:45 6.97 1050 1630 (2000) 37 (2012) 254 42 53 90 91 125 262 338 656 1160
2020-05-27 05:45 6.99 1060 1630 (2000) 37 (2012) 254 42 53 90 91 125 262 338 656 1160
2020-05-27 04:45 7.02 1070 1630 (2000) 37 (2012) 254 42 53 90 91 125 262 338 656 1160
2020-05-27 03:45 7.01 1070 1630 (2000) 37 (2012) 254 42 53 90 91 125 262 338 656 1160
2020-05-27 02:45 7.06 1080 1630 (2000) 37 (2012) 254 42 53 90 91 125 262 338 656 1160
2020-05-27 01:45 7.13 1110 1630 (2000) 37 (2012) 254 42 53 90 91 125 262 338 656 1160
2020-05-27 00:45 7.18 1130 1630 (2000) 37 (2012) 254 42 53 90 91 125 262 338 656 1160
2020-05-26 23:45 7.16 1120 1620 (2015) 39 (2012) 222 44 57 83 89 117 210 218 445 1280
2020-05-26 22:45 7.17 1120 1620 (2015) 39 (2012) 222 44 57 83 89 117 210 218 445 1280
2020-05-26 21:45 7.12 1110 1620 (2015) 39 (2012) 222 44 57 83 89 117 210 218 445 1280
2020-05-26 20:45 7.09 1100 1620 (2015) 39 (2012) 222 44 57 83 89 117 210 218 445 1280
2020-05-26 19:45 7.11 1100 1620 (2015) 39 (2012) 222 44 57 83 89 117 210 218 445 1280
2020-05-26 18:45 7.29 1160 1620 (2015) 39 (2012) 222 44 57 83 89 117 210 218 445 1280
2020-05-26 17:45 7.34 1180 1620 (2015) 39 (2012) 222 44 57 83 89 117 210 218 445 1280
2020-05-26 16:45 7.37 1190 1620 (2015) 39 (2012) 222 44 57 83 89 117 210 218 445 1280
2020-05-26 15:45 7.35 1180 1620 (2015) 39 (2012) 222 44 57 83 89 117 210 218 445 1280
2020-05-26 14:45 7.41 1200 1620 (2015) 39 (2012) 222 44 57 83 89 117 210 218 445 1280
2020-05-26 13:45 7.44 1210 1620 (2015) 39 (2012) 222 44 57 83 89 117 210 218 445 1280
2020-05-26 12:45 7.43 1210 1620 (2015) 39 (2012) 222 44 57 83 89 117 210 218 445 1280
2020-05-26 11:45 7.50 1230 1620 (2015) 39 (2012) 222 44 57 83 89 117 210 218 445 1280
2020-05-26 10:45 7.52 1240 1620 (2015) 39 (2012) 222 44 57 83 89 117 210 218 445 1280
2020-05-26 09:45 7.68 1290 1620 (2015) 39 (2012) 222 44 57 83 89 117 210 218 445 1280
2020-05-26 08:45 7.85 1350 1620 (2015) 39 (2012) 222 44 57 83 89 117 210 218 445 1280
2020-05-26 07:45 8.07 1420 1620 (2015) 39 (2012) 222 44 57 83 89 117 210 218 445 1280
2020-05-26 06:45 8.40 1640 1620 (2015) 39 (2012) 222 44 57 83 89 117 210 218 445 1280
2020-05-26 05:45 8.37 1610 1620 (2015) 39 (2012) 222 44 57 83 89 117 210 218 445 1280
2020-05-26 04:45 8.33 1570 1620 (2015) 39 (2012) 222 44 57 83 89 117 210 218 445 1280
2020-05-26 03:45 8.27 1530 1620 (2015) 39 (2012) 222 44 57 83 89 117 210 218 445 1280
2020-05-26 02:45 8.47 1700 1620 (2015) 39 (2012) 222 44 57 83 89 117 210 218 445 1280
2020-05-26 01:45 8.24 1500 1620 (2015) 39 (2012) 222 44 57 83 89 117 210 218 445 1280
2020-05-26 00:45 7.24 1150 1620 (2015) 39 (2012) 222 44 57 83 89 117 210 218 445 1280
2020-05-25 23:45 7.16 1120 2990 (1991) 40 (2012) 281 46 67 81 90 117 265 300 688 1860
2020-05-25 22:45 6.98 1060 2990 (1991) 40 (2012) 281 46 67 81 90 117 265 300 688 1860
2020-05-25 21:45 6.86 1020 2990 (1991) 40 (2012) 281 46 67 81 90 117 265 300 688 1860
2020-05-25 20:45 6.80 991 2990 (1991) 40 (2012) 281 46 67 81 90 117 265 300 688 1860
2020-05-25 19:45 6.70 944 2990 (1991) 40 (2012) 281 46 67 81 90 117 265 300 688 1860
2020-05-25 18:45 6.71 949 2990 (1991) 40 (2012) 281 46 67 81 90 117 265 300 688 1860
2020-05-25 17:45 6.77 979 2990 (1991) 40 (2012) 281 46 67 81 90 117 265 300 688 1860
2020-05-25 16:45 6.79 987 2990 (1991) 40 (2012) 281 46 67 81 90 117 265 300 688 1860
2020-05-25 15:45 6.85 1010 2990 (1991) 40 (2012) 281 46 67 81 90 117 265 300 688 1860
2020-05-25 14:45 6.95 1050 2990 (1991) 40 (2012) 281 46 67 81 90 117 265 300 688 1860
2020-05-25 13:45 6.99 1060 2990 (1991) 40 (2012) 281 46 67 81 90 117 265 300 688 1860
2020-05-25 12:45 7.00 1060 2990 (1991) 40 (2012) 281 46 67 81 90 117 265 300 688 1860
2020-05-25 11:45 7.00 1060 2990 (1991) 40 (2012) 281 46 67 81 90 117 265 300 688 1860
2020-05-25 10:45 7.01 1070 2990 (1991) 40 (2012) 281 46 67 81 90 117 265 300 688 1860
2020-05-25 09:45 7.02 1070 2990 (1991) 40 (2012) 281 46 67 81 90 117 265 300 688 1860
2020-05-25 08:45 7.11 1100 2990 (1991) 40 (2012) 281 46 67 81 90 117 265 300 688 1860
2020-05-25 07:45 7.19 1130 2990 (1991) 40 (2012) 281 46 67 81 90 117 265 300 688 1860
2020-05-25 06:45 7.25 1150 2990 (1991) 40 (2012) 281 46 67 81 90 117 265 300 688 1860
2020-05-25 05:45 7.22 1140 2990 (1991) 40 (2012) 281 46 67 81 90 117 265 300 688 1860
2020-05-25 04:45 7.20 1130 2990 (1991) 40 (2012) 281 46 67 81 90 117 265 300 688 1860
2020-05-25 03:45 7.10 1100 2990 (1991) 40 (2012) 281 46 67 81 90 117 265 300 688 1860
2020-05-25 02:45 7.33 1180 2990 (1991) 40 (2012) 281 46 67 81 90 117 265 300 688 1860
2020-05-25 01:45 7.33 1180 2990 (1991) 40 (2012) 281 46 67 81 90 117 265 300 688 1860
2020-05-25 00:45 7.35 1180 2990 (1991) 40 (2012) 281 46 67 81 90 117 265 300 688 1860
2020-05-24 23:45 7.32 1170 1770 (2011) 41 (2012) 229 47 57 83 88 124 196 336 486 1170
2020-05-24 22:45 7.38 1190 1770 (2011) 41 (2012) 229 47 57 83 88 124 196 336 486 1170
2020-05-24 21:45 7.32 1170 1770 (2011) 41 (2012) 229 47 57 83 88 124 196 336 486 1170
2020-05-24 20:45 7.20 1130 1770 (2011) 41 (2012) 229 47 57 83 88 124 196 336 486 1170
2020-05-24 19:45 7.04 1080 1770 (2011) 41 (2012) 229 47 57 83 88 124 196 336 486 1170
2020-05-24 18:45 7.07 1090 1770 (2011) 41 (2012) 229 47 57 83 88 124 196 336 486 1170
2020-05-24 17:45 7.13 1110 1770 (2011) 41 (2012) 229 47 57 83 88 124 196 336 486 1170
2020-05-24 16:45 7.18 1130 1770 (2011) 41 (2012) 229 47 57 83 88 124 196 336 486 1170
2020-05-24 15:45 7.21 1140 1770 (2011) 41 (2012) 229 47 57 83 88 124 196 336 486 1170
2020-05-24 14:45 7.14 1110 1770 (2011) 41 (2012) 229 47 57 83 88 124 196 336 486 1170
2020-05-24 13:45 7.14 1110 1770 (2011) 41 (2012) 229 47 57 83 88 124 196 336 486 1170
2020-05-24 12:45 7.13 1110 1770 (2011) 41 (2012) 229 47 57 83 88 124 196 336 486 1170
2020-05-24 11:45 7.12 1110 1770 (2011) 41 (2012) 229 47 57 83 88 124 196 336 486 1170
2020-05-24 10:45 7.23 1140 1770 (2011) 41 (2012) 229 47 57 83 88 124 196 336 486 1170
2020-05-24 09:45 7.35 1180 1770 (2011) 41 (2012) 229 47 57 83 88 124 196 336 486 1170
2020-05-24 08:45 7.37 1190 1770 (2011) 41 (2012) 229 47 57 83 88 124 196 336 486 1170
2020-05-24 07:45 7.40 1200 1770 (2011) 41 (2012) 229 47 57 83 88 124 196 336 486 1170
2020-05-24 06:45 7.49 1230 1770 (2011) 41 (2012) 229 47 57 83 88 124 196 336 486 1170
2020-05-24 05:45 7.59 1260 1770 (2011) 41 (2012) 229 47 57 83 88 124 196 336 486 1170
2020-05-24 04:45 7.63 1280 1770 (2011) 41 (2012) 229 47 57 83 88 124 196 336 486 1170
2020-05-24 03:45 7.56 1250 1770 (2011) 41 (2012) 229 47 57 83 88 124 196 336 486 1170
2020-05-24 02:45 7.60 1270 1770 (2011) 41 (2012) 229 47 57 83 88 124 196 336 486 1170
2020-05-24 01:45 7.74 1310 1770 (2011) 41 (2012) 229 47 57 83 88 124 196 336 486 1170
2020-05-24 00:45 7.91 1370 1770 (2011) 41 (2012) 229 47 57 83 88 124 196 336 486 1170
2020-05-23 23:45 7.98 1390 674 (1990) 41 (2012) 195 45 62 87 93 134 232 254 587 643
2020-05-23 22:45 8.18 1470 674 (1990) 41 (2012) 195 45 62 87 93 134 232 254 587 643
2020-05-23 21:45 8.24 1500 674 (1990) 41 (2012) 195 45 62 87 93 134 232 254 587 643
2020-05-23 20:45 8.28 1530 674 (1990) 41 (2012) 195 45 62 87 93 134 232 254 587 643
2020-05-23 19:45 8.43 1670 674 (1990) 41 (2012) 195 45 62 87 93 134 232 254 587 643
2020-05-23 18:45 8.71 1940 674 (1990) 41 (2012) 195 45 62 87 93 134 232 254 587 643
2020-05-23 17:45 8.94 2180 674 (1990) 41 (2012) 195 45 62 87 93 134 232 254 587 643
2020-05-23 16:45 9.30 2580 674 (1990) 41 (2012) 195 45 62 87 93 134 232 254 587 643
2020-05-23 15:45 1 3470 674 (1990) 41 (2012) 195 45 62 87 93 134 232 254 587 643
2020-05-23 14:45 10.56 4280 674 (1990) 41 (2012) 195 45 62 87 93 134 232 254 587 643
2020-05-23 13:45 11.05 5060 674 (1990) 41 (2012) 195 45 62 87 93 134 232 254 587 643
2020-05-23 12:45 12.04 6780 674 (1990) 41 (2012) 195 45 62 87 93 134 232 254 587 643
2020-05-23 11:45 13.36 9490 674 (1990) 41 (2012) 195 45 62 87 93 134 232 254 587 643
2020-05-23 10:45 14.70 12700 674 (1990) 41 (2012) 195 45 62 87 93 134 232 254 587 643
2020-05-23 09:45 15.71 15300 674 (1990) 41 (2012) 195 45 62 87 93 134 232 254 587 643
2020-05-23 08:45 17.01 17200 674 (1990) 41 (2012) 195 45 62 87 93 134 232 254 587 643
2020-05-23 07:45 18.42 19000 674 (1990) 41 (2012) 195 45 62 87 93 134 232 254 587 643
2020-05-23 06:45 18.60 19300 674 (1990) 41 (2012) 195 45 62 87 93 134 232 254 587 643
2020-05-23 05:45 16.60 16700 674 (1990) 41 (2012) 195 45 62 87 93 134 232 254 587 643
2020-05-23 04:45 14.36 11900 674 (1990) 41 (2012) 195 45 62 87 93 134 232 254 587 643
2020-05-23 03:45 10.46 4130 674 (1990) 41 (2012) 195 45 62 87 93 134 232 254 587 643
2020-05-23 02:45 6.36 669 674 (1990) 41 (2012) 195 45 62 87 93 134 232 254 587 643
2020-05-23 01:45 5.96 322 674 (1990) 41 (2012) 195 45 62 87 93 134 232 254 587 643
2020-05-23 00:45 5.98 333 674 (1990) 41 (2012) 195 45 62 87 93 134 232 254 587 643
2020-05-22 23:45 6.02 362 1440 (2013) 41 (2012) 252 45 67 83 90 140 262 297 696 1240
2020-05-22 22:45 6.04 377 1440 (2013) 41 (2012) 252 45 67 83 90 140 262 297 696 1240
2020-05-22 21:45 6.06 393 1440 (2013) 41 (2012) 252 45 67 83 90 140 262 297 696 1240
2020-05-22 20:45 6.09 417 1440 (2013) 41 (2012) 252 45 67 83 90 140 262 297 696 1240
2020-05-22 19:45 6.09 417 1440 (2013) 41 (2012) 252 45 67 83 90 140 262 297 696 1240
2020-05-22 18:45 6.12 442 1440 (2013) 41 (2012) 252 45 67 83 90 140 262 297 696 1240
2020-05-22 17:45 5.94 314 1440 (2013) 41 (2012) 252 45 67 83 90 140 262 297 696 1240
2020-05-22 16:45 5.86 288 1440 (2013) 41 (2012) 252 45 67 83 90 140 262 297 696 1240
2020-05-22 15:45 5.80 270 1440 (2013) 41 (2012) 252 45 67 83 90 140 262 297 696 1240
2020-05-22 14:45 5.76 258 1440 (2013) 41 (2012) 252 45 67 83 90 140 262 297 696 1240
2020-05-22 13:45 5.75 255 1440 (2013) 41 (2012) 252 45 67 83 90 140 262 297 696 1240
2020-05-22 12:45 5.76 258 1440 (2013) 41 (2012) 252 45 67 83 90 140 262 297 696 1240
2020-05-22 11:45 5.75 255 1440 (2013) 41 (2012) 252 45 67 83 90 140 262 297 696 1240
2020-05-22 10:45 5.74 252 1440 (2013) 41 (2012) 252 45 67 83 90 140 262 297 696 1240
2020-05-22 09:45 5.75 255 1440 (2013) 41 (2012) 252 45 67 83 90 140 262 297 696 1240
2020-05-22 08:45 5.77 261 1440 (2013) 41 (2012) 252 45 67 83 90 140 262 297 696 1240
2020-05-22 07:45 5.77 261 1440 (2013) 41 (2012) 252 45 67 83 90 140 262 297 696 1240
2020-05-22 06:45 5.76 258 1440 (2013) 41 (2012) 252 45 67 83 90 140 262 297 696 1240
2020-05-22 05:45 5.75 255 1440 (2013) 41 (2012) 252 45 67 83 90 140 262 297 696 1240
2020-05-22 04:45 5.77 261 1440 (2013) 41 (2012) 252 45 67 83 90 140 262 297 696 1240
2020-05-22 03:45 5.77 261 1440 (2013) 41 (2012) 252 45 67 83 90 140 262 297 696 1240
2020-05-22 02:45 5.77 261 1440 (2013) 41 (2012) 252 45 67 83 90 140 262 297 696 1240
2020-05-22 01:45 5.79 267 1440 (2013) 41 (2012) 252 45 67 83 90 140 262 297 696 1240
2020-05-22 00:45 5.79 267 1440 (2013) 41 (2012) 252 45 67 83 90 140 262 297 696 1240
2020-05-21 23:45 5.76 258 2210 (1990) 44 (2012) 320 48 69 83 87 152 323 402 978 1780
2020-05-21 22:45 5.78 264 2210 (1990) 44 (2012) 320 48 69 83 87 152 323 402 978 1780
2020-05-21 21:45 5.83 279 2210 (1990) 44 (2012) 320 48 69 83 87 152 323 402 978 1780
2020-05-21 20:45 5.81 273 2210 (1990) 44 (2012) 320 48 69 83 87 152 323 402 978 1780
2020-05-21 19:45 5.79 267 2210 (1990) 44 (2012) 320 48 69 83 87 152 323 402 978 1780
2020-05-21 18:45 5.80 270 2210 (1990) 44 (2012) 320 48 69 83 87 152 323 402 978 1780
2020-05-21 17:45 5.83 279 2210 (1990) 44 (2012) 320 48 69 83 87 152 323 402 978 1780
2020-05-21 16:45 5.81 273 2210 (1990) 44 (2012) 320 48 69 83 87 152 323 402 978 1780
2020-05-21 15:45 5.82 276 2210 (1990) 44 (2012) 320 48 69 83 87 152 323 402 978 1780
2020-05-21 14:45 5.84 282 2210 (1990) 44 (2012) 320 48 69 83 87 152 323 402 978 1780
2020-05-21 13:45 5.84 282 2210 (1990) 44 (2012) 320 48 69 83 87 152 323 402 978 1780
2020-05-21 12:45 5.85 285 2210 (1990) 44 (2012) 320 48 69 83 87 152 323 402 978 1780
2020-05-21 11:45 5.84 282 2210 (1990) 44 (2012) 320 48 69 83 87 152 323 402 978 1780
2020-05-21 10:45 5.86 288 2210 (1990) 44 (2012) 320 48 69 83 87 152 323 402 978 1780
2020-05-21 09:45 5.88 294 2210 (1990) 44 (2012) 320 48 69 83 87 152 323 402 978 1780
2020-05-21 08:45 5.89 297 2210 (1990) 44 (2012) 320 48 69 83 87 152 323 402 978 1780
2020-05-21 07:45 5.88 294 2210 (1990) 44 (2012) 320 48 69 83 87 152 323 402 978 1780
2020-05-21 06:45 5.89 297 2210 (1990) 44 (2012) 320 48 69 83 87 152 323 402 978 1780
2020-05-21 05:45 5.89 297 2210 (1990) 44 (2012) 320 48 69 83 87 152 323 402 978 1780
2020-05-21 04:45 5.90 300 2210 (1990) 44 (2012) 320 48 69 83 87 152 323 402 978 1780
2020-05-21 03:45 5.91 303 2210 (1990) 44 (2012) 320 48 69 83 87 152 323 402 978 1780
2020-05-21 02:45 5.93 310 2210 (1990) 44 (2012) 320 48 69 83 87 152 323 402 978 1780
2020-05-21 01:45 5.91 303 2210 (1990) 44 (2012) 320 48 69 83 87 152 323 402 978 1780
2020-05-21 00:45 5.90 300 2210 (1990) 44 (2012) 320 48 69 83 87 152 323 402 978 1780
2020-05-20 23:45 5.95 318 7510 (1990) 43 (2013) 618 44 54 87 94 165 251 283 1240 6200
2020-05-20 22:45 5.96 322 7510 (1990) 43 (2013) 618 44 54 87 94 165 251 283 1240 6200
2020-05-20 21:45 5.94 314 7510 (1990) 43 (2013) 618 44 54 87 94 165 251 283 1240 6200
2020-05-20 20:45 5.95 318 7510 (1990) 43 (2013) 618 44 54 87 94 165 251 283 1240 6200
2020-05-20 19:45 5.98 333 7510 (1990) 43 (2013) 618 44 54 87 94 165 251 283 1240 6200
2020-05-20 18:45 5.97 327 7510 (1990) 43 (2013) 618 44 54 87 94 165 251 283 1240 6200
2020-05-20 17:45 5.99 340 7510 (1990) 43 (2013) 618 44 54 87 94 165 251 283 1240 6200
2020-05-20 16:45 6.01 354 7510 (1990) 43 (2013) 618 44 54 87 94 165 251 283 1240 6200
2020-05-20 15:45 6.02 362 7510 (1990) 43 (2013) 618 44 54 87 94 165 251 283 1240 6200
2020-05-20 14:45 6.02 362 7510 (1990) 43 (2013) 618 44 54 87 94 165 251 283 1240 6200
2020-05-20 13:45 6.05 385 7510 (1990) 43 (2013) 618 44 54 87 94 165 251 283 1240 6200
2020-05-20 12:45 6.04 377 7510 (1990) 43 (2013) 618 44 54 87 94 165 251 283 1240 6200
2020-05-20 11:45 6.06 393 7510 (1990) 43 (2013) 618 44 54 87 94 165 251 283 1240 6200
2020-05-20 10:45 6.06 393 7510 (1990) 43 (2013) 618 44 54 87 94 165 251 283 1240 6200
2020-05-20 09:45 6.10 425 7510 (1990) 43 (2013) 618 44 54 87 94 165 251 283 1240 6200
2020-05-20 08:45 6.11 433 7510 (1990) 43 (2013) 618 44 54 87 94 165 251 283 1240 6200
2020-05-20 07:45 6.11 433 7510 (1990) 43 (2013) 618 44 54 87 94 165 251 283 1240 6200
2020-05-20 06:45 6.13 450 7510 (1990) 43 (2013) 618 44 54 87 94 165 251 283 1240 6200
2020-05-20 05:45 6.13 450 7510 (1990) 43 (2013) 618 44 54 87 94 165 251 283 1240 6200
2020-05-20 04:45 6.14 459 7510 (1990) 43 (2013) 618 44 54 87 94 165 251 283 1240 6200
2020-05-20 03:45 6.13 450 7510 (1990) 43 (2013) 618 44 54 87 94 165 251 283 1240 6200
2020-05-20 02:45 6.16 476 7510 (1990) 43 (2013) 618 44 54 87 94 165 251 283 1240 6200
2020-05-20 01:45 6.16 476 7510 (1990) 43 (2013) 618 44 54 87 94 165 251 283 1240 6200
2020-05-20 00:45 6.20 513 7510 (1990) 43 (2013) 618 44 54 87 94 165 251 283 1240 6200
2020-05-19 23:45 6.18 494 2640 (1990) 51 (2012) 322 52 56 96 97 134 269 299 740 2140
2020-05-19 22:45 6.19 503 2640 (1990) 51 (2012) 322 52 56 96 97 134 269 299 740 2140
2020-05-19 21:45 6.20 513 2640 (1990) 51 (2012) 322 52 56 96 97 134 269 299 740 2140
2020-05-19 20:45 6.21 522 2640 (1990) 51 (2012) 322 52 56 96 97 134 269 299 740 2140
2020-05-19 19:45 6.26 571 2640 (1990) 51 (2012) 322 52 56 96 97 134 269 299 740 2140
2020-05-19 18:45 6.27 581 2640 (1990) 51 (2012) 322 52 56 96 97 134 269 299 740 2140
2020-05-19 17:45 6.28 591 2640 (1990) 51 (2012) 322 52 56 96 97 134 269 299 740 2140
2020-05-19 16:45 6.36 669 2640 (1990) 51 (2012) 322 52 56 96 97 134 269 299 740 2140
2020-05-19 15:45 6.40 706 2640 (1990) 51 (2012) 322 52 56 96 97 134 269 299 740 2140
2020-05-19 14:45 6.41 715 2640 (1990) 51 (2012) 322 52 56 96 97 134 269 299 740 2140
2020-05-19 13:45 6.43 735 2640 (1990) 51 (2012) 322 52 56 96 97 134 269 299 740 2140
2020-05-19 12:45 6.52 812 2640 (1990) 51 (2012) 322 52 56 96 97 134 269 299 740 2140
2020-05-19 11:45 6.53 820 2640 (1990) 51 (2012) 322 52 56 96 97 134 269 299 740 2140
2020-05-19 10:45 6.50 795 2640 (1990) 51 (2012) 322 52 56 96 97 134 269 299 740 2140
2020-05-19 09:45 6.51 803 2640 (1990) 51 (2012) 322 52 56 96 97 134 269 299 740 2140
2020-05-19 08:45 6.50 795 2640 (1990) 51 (2012) 322 52 56 96 97 134 269 299 740 2140
2020-05-19 07:45 6.52 812 2640 (1990) 51 (2012) 322 52 56 96 97 134 269 299 740 2140
2020-05-19 06:45 6.49 787 2640 (1990) 51 (2012) 322 52 56 96 97 134 269 299 740 2140
2020-05-19 05:45 6.46 762 2640 (1990) 51 (2012) 322 52 56 96 97 134 269 299 740 2140
2020-05-19 04:45 6.49 787 2640 (1990) 51 (2012) 322 52 56 96 97 134 269 299 740 2140
2020-05-19 03:45 6.51 803 2640 (1990) 51 (2012) 322 52 56 96 97 134 269 299 740 2140
2020-05-19 02:45 6.51 803 2640 (1990) 51 (2012) 322 52 56 96 97 134 269 299 740 2140
2020-05-19 01:45 6.54 829 2640 (1990) 51 (2012) 322 52 56 96 97 134 269 299 740 2140
2020-05-19 00:45 6.53 820 2640 (1990) 51 (2012) 322 52 56 96 97 134 269 299 740 2140
2020-05-18 23:45 6.52 812 1410 (2015) 55 (2012) 251 56 67 96 103 147 263 315 538 1270
2020-05-18 22:45 6.47 770 1410 (2015) 55 (2012) 251 56 67 96 103 147 263 315 538 1270
2020-05-18 21:45 6.48 779 1410 (2015) 55 (2012) 251 56 67 96 103 147 263 315 538 1270
2020-05-18 20:45 6.52 812 1410 (2015) 55 (2012) 251 56 67 96 103 147 263 315 538 1270
2020-05-18 19:45 6.65 912 1410 (2015) 55 (2012) 251 56 67 96 103 147 263 315 538 1270
2020-05-18 18:45 6.61 886 1410 (2015) 55 (2012) 251 56 67 96 103 147 263 315 538 1270
2020-05-18 17:45 6.70 944 1410 (2015) 55 (2012) 251 56 67 96 103 147 263 315 538 1270
2020-05-18 16:45 6.90 1030 1410 (2015) 55 (2012) 251 56 67 96 103 147 263 315 538 1270
2020-05-18 15:45 6.95 1050 1410 (2015) 55 (2012) 251 56 67 96 103 147 263 315 538 1270
2020-05-18 14:45 6.98 1060 1410 (2015) 55 (2012) 251 56 67 96 103 147 263 315 538 1270
2020-05-18 13:45 7.09 1100 1410 (2015) 55 (2012) 251 56 67 96 103 147 263 315 538 1270
2020-05-18 12:45 7.08 1090 1410 (2015) 55 (2012) 251 56 67 96 103 147 263 315 538 1270
2020-05-18 11:45 7.07 1090 1410 (2015) 55 (2012) 251 56 67 96 103 147 263 315 538 1270
2020-05-18 10:45 7.11 1100 1410 (2015) 55 (2012) 251 56 67 96 103 147 263 315 538 1270
2020-05-18 09:45 7.14 1110 1410 (2015) 55 (2012) 251 56 67 96 103 147 263 315 538 1270
2020-05-18 08:45 7.20 1130 1410 (2015) 55 (2012) 251 56 67 96 103 147 263 315 538 1270
2020-05-18 07:45 7.40 1200 1410 (2015) 55 (2012) 251 56 67 96 103 147 263 315 538 1270
2020-05-18 06:45 7.40 1200 1410 (2015) 55 (2012) 251 56 67 96 103 147 263 315 538 1270
2020-05-18 05:45 7.33 1180 1410 (2015) 55 (2012) 251 56 67 96 103 147 263 315 538 1270
2020-05-18 04:45 7.33 1180 1410 (2015) 55 (2012) 251 56 67 96 103 147 263 315 538 1270
2020-05-18 03:45 7.24 1150 1410 (2015) 55 (2012) 251 56 67 96 103 147 263 315 538 1270
2020-05-18 02:45 7.18 1130 1410 (2015) 55 (2012) 251 56 67 96 103 147 263 315 538 1270
2020-05-18 01:45 7.26 1150 1410 (2015) 55 (2012) 251 56 67 96 103 147 263 315 538 1270
2020-05-18 00:45 7.38 1190 1410 (2015) 55 (2012) 251 56 67 96 103 147 263 315 538 1270
2020-05-17 23:45 7.51 1240 2740 (2015) 58 (2012) 348 59 65 96 122 155 309 423 840 2110
2020-05-17 22:45 7.54 1250 2740 (2015) 58 (2012) 348 59 65 96 122 155 309 423 840 2110
2020-05-17 21:45 7.49 1230 2740 (2015) 58 (2012) 348 59 65 96 122 155 309 423 840 2110
2020-05-17 20:45 7.47 1220 2740 (2015) 58 (2012) 348 59 65 96 122 155 309 423 840 2110
2020-05-17 19:45 7.49 1230 2740 (2015) 58 (2012) 348 59 65 96 122 155 309 423 840 2110
2020-05-17 18:45 7.56 1250 2740 (2015) 58 (2012) 348 59 65 96 122 155 309 423 840 2110
2020-05-17 17:45 7.73 1310 2740 (2015) 58 (2012) 348 59 65 96 122 155 309 423 840 2110
2020-05-17 16:45 7.95 1380 2740 (2015) 58 (2012) 348 59 65 96 122 155 309 423 840 2110
2020-05-17 15:45 8.25 1510 2740 (2015) 58 (2012) 348 59 65 96 122 155 309 423 840 2110
2020-05-17 14:45 8.52 1750 2740 (2015) 58 (2012) 348 59 65 96 122 155 309 423 840 2110
2020-05-17 13:45 8.75 1980 2740 (2015) 58 (2012) 348 59 65 96 122 155 309 423 840 2110
2020-05-17 12:45 8.91 2150 2740 (2015) 58 (2012) 348 59 65 96 122 155 309 423 840 2110
2020-05-17 11:45 9.09 2340 2740 (2015) 58 (2012) 348 59 65 96 122 155 309 423 840 2110
2020-05-17 10:45 9.14 2400 2740 (2015) 58 (2012) 348 59 65 96 122 155 309 423 840 2110
2020-05-17 09:45 9.27 2550 2740 (2015) 58 (2012) 348 59 65 96 122 155 309 423 840 2110
2020-05-17 08:45 8.99 2230 2740 (2015) 58 (2012) 348 59 65 96 122 155 309 423 840 2110
2020-05-17 07:45 9.38 2680 2740 (2015) 58 (2012) 348 59 65 96 122 155 309 423 840 2110
2020-05-17 06:45 9.89 3320 2740 (2015) 58 (2012) 348 59 65 96 122 155 309 423 840 2110
2020-05-17 05:45 10.35 3970 2740 (2015) 58 (2012) 348 59 65 96 122 155 309 423 840 2110
2020-05-17 04:45 10.66 4430 2740 (2015) 58 (2012) 348 59 65 96 122 155 309 423 840 2110
2020-05-17 03:45 11.40 5640 2740 (2015) 58 (2012) 348 59 65 96 122 155 309 423 840 2110
2020-05-17 02:45 12.45 7570 2740 (2015) 58 (2012) 348 59 65 96 122 155 309 423 840 2110
2020-05-17 01:45 13.91 10800 2740 (2015) 58 (2012) 348 59 65 96 122 155 309 423 840 2110
2020-05-17 00:45 14.53 12300 2740 (2015) 58 (2012) 348 59 65 96 122 155 309 423 840 2110
2020-05-16 23:45 13.69 10200 876 (2009) 53 (2013) 232 57 62 97 128 179 293 332 489 710
2020-05-16 22:45 11.61 6000 876 (2009) 53 (2013) 232 57 62 97 128 179 293 332 489 710
2020-05-16 21:45 9.32 2610 876 (2009) 53 (2013) 232 57 62 97 128 179 293 332 489 710
2020-05-16 20:45 6.45 754 876 (2009) 53 (2013) 232 57 62 97 128 179 293 332 489 710
2020-05-16 19:45 6.15 467 876 (2009) 53 (2013) 232 57 62 97 128 179 293 332 489 710
2020-05-16 18:45 6.03 369 876 (2009) 53 (2013) 232 57 62 97 128 179 293 332 489 710
2020-05-16 17:45 5.98 333 876 (2009) 53 (2013) 232 57 62 97 128 179 293 332 489 710
2020-05-16 16:45 5.96 322 876 (2009) 53 (2013) 232 57 62 97 128 179 293 332 489 710
2020-05-16 15:45 5.95 318 876 (2009) 53 (2013) 232 57 62 97 128 179 293 332 489 710
2020-05-16 14:45 5.94 314 876 (2009) 53 (2013) 232 57 62 97 128 179 293 332 489 710
2020-05-16 13:45 5.97 327 876 (2009) 53 (2013) 232 57 62 97 128 179 293 332 489 710
2020-05-16 12:45 5.99 340 876 (2009) 53 (2013) 232 57 62 97 128 179 293 332 489 710
2020-05-16 11:45 6.00 347 876 (2009) 53 (2013) 232 57 62 97 128 179 293 332 489 710
2020-05-16 10:45 6.03 369 876 (2009) 53 (2013) 232 57 62 97 128 179 293 332 489 710
2020-05-16 09:45 6.06 393 876 (2009) 53 (2013) 232 57 62 97 128 179 293 332 489 710
2020-05-16 08:45 6.10 425 876 (2009) 53 (2013) 232 57 62 97 128 179 293 332 489 710
2020-05-16 07:45 6.10 425 876 (2009) 53 (2013) 232 57 62 97 128 179 293 332 489 710
2020-05-16 06:45 6.17 485 876 (2009) 53 (2013) 232 57 62 97 128 179 293 332 489 710
2020-05-16 05:45 6.18 494 876 (2009) 53 (2013) 232 57 62 97 128 179 293 332 489 710
2020-05-16 04:45 6.23 541 876 (2009) 53 (2013) 232 57 62 97 128 179 293 332 489 710
2020-05-16 03:45 6.28 591 876 (2009) 53 (2013) 232 57 62 97 128 179 293 332 489 710
2020-05-16 02:45 6.38 687 876 (2009) 53 (2013) 232 57 62 97 128 179 293 332 489 710
2020-05-16 01:45 6.47 770 876 (2009) 53 (2013) 232 57 62 97 128 179 293 332 489 710
2020-05-16 00:45 6.51 803 876 (2009) 53 (2013) 232 57 62 97 128 179 293 332 489 710
2020-05-15 23:45 6.53 820 1190 (2009) 38 (2013) 280 50 67 96 99 185 299 341 872 1120
2020-05-15 22:45 6.53 820 1190 (2009) 38 (2013) 280 50 67 96 99 185 299 341 872 1120
2020-05-15 21:45 6.50 795 1190 (2009) 38 (2013) 280 50 67 96 99 185 299 341 872 1120
2020-05-15 20:45 6.49 787 1190 (2009) 38 (2013) 280 50 67 96 99 185 299 341 872 1120
2020-05-15 19:45 5.96 322 1190 (2009) 38 (2013) 280 50 67 96 99 185 299 341 872 1120
2020-05-15 18:45 5.60 211 1190 (2009) 38 (2013) 280 50 67 96 99 185 299 341 872 1120
2020-05-15 17:45 5.46 172 1190 (2009) 38 (2013) 280 50 67 96 99 185 299 341 872 1120
2020-05-15 16:45 5.46 172 1190 (2009) 38 (2013) 280 50 67 96 99 185 299 341 872 1120
2020-05-15 15:45 5.47 175 1190 (2009) 38 (2013) 280 50 67 96 99 185 299 341 872 1120
2020-05-15 14:45 5.48 177 1190 (2009) 38 (2013) 280 50 67 96 99 185 299 341 872 1120
2020-05-15 13:45 5.46 172 1190 (2009) 38 (2013) 280 50 67 96 99 185 299 341 872 1120
2020-05-15 12:45 5.48 177 1190 (2009) 38 (2013) 280 50 67 96 99 185 299 341 872 1120
2020-05-15 11:45 5.47 175 1190 (2009) 38 (2013) 280 50 67 96 99 185 299 341 872 1120
2020-05-15 10:45 5.48 177 1190 (2009) 38 (2013) 280 50 67 96 99 185 299 341 872 1120
2020-05-15 09:45 5.50 183 1190 (2009) 38 (2013) 280 50 67 96 99 185 299 341 872 1120
2020-05-15 08:45 5.48 177 1190 (2009) 38 (2013) 280 50 67 96 99 185 299 341 872 1120
2020-05-15 07:45 5.50 183 1190 (2009) 38 (2013) 280 50 67 96 99 185 299 341 872 1120
2020-05-15 06:45 5.50 183 1190 (2009) 38 (2013) 280 50 67 96 99 185 299 341 872 1120
2020-05-15 05:45 5.51 186 1190 (2009) 38 (2013) 280 50 67 96 99 185 299 341 872 1120
2020-05-15 04:45 5.50 183 1190 (2009) 38 (2013) 280 50 67 96 99 185 299 341 872 1120
2020-05-15 03:45 5.48 177 1190 (2009) 38 (2013) 280 50 67 96 99 185 299 341 872 1120
2020-05-15 02:45 5.50 183 1190 (2009) 38 (2013) 280 50 67 96 99 185 299 341 872 1120
2020-05-15 01:45 5.52 188 1190 (2009) 38 (2013) 280 50 67 96 99 185 299 341 872 1120
2020-05-15 00:45 5.50 183 1190 (2009) 38 (2013) 280 50 67 96 99 185 299 341 872 1120
2020-05-14 23:45 5.52 188 2920 (2009) 40 (2013) 382 52 69 98 107 184 373 452 1280 2150
2020-05-14 22:45 5.52 188 2920 (2009) 40 (2013) 382 52 69 98 107 184 373 452 1280 2150
2020-05-14 21:45 5.50 183 2920 (2009) 40 (2013) 382 52 69 98 107 184 373 452 1280 2150
2020-05-14 20:45 5.53 191 2920 (2009) 40 (2013) 382 52 69 98 107 184 373 452 1280 2150
2020-05-14 19:45 5.51 186 2920 (2009) 40 (2013) 382 52 69 98 107 184 373 452 1280 2150
2020-05-14 18:45 5.53 191 2920 (2009) 40 (2013) 382 52 69 98 107 184 373 452 1280 2150
2020-05-14 17:45 5.53 191 2920 (2009) 40 (2013) 382 52 69 98 107 184 373 452 1280 2150
2020-05-14 16:45 5.52 188 2920 (2009) 40 (2013) 382 52 69 98 107 184 373 452 1280 2150
2020-05-14 15:45 5.52 188 2920 (2009) 40 (2013) 382 52 69 98 107 184 373 452 1280 2150
2020-05-14 14:45 5.53 191 2920 (2009) 40 (2013) 382 52 69 98 107 184 373 452 1280 2150
2020-05-14 13:45 5.54 194 2920 (2009) 40 (2013) 382 52 69 98 107 184 373 452 1280 2150
2020-05-14 12:45 5.52 188 2920 (2009) 40 (2013) 382 52 69 98 107 184 373 452 1280 2150
2020-05-14 11:45 5.54 194 2920 (2009) 40 (2013) 382 52 69 98 107 184 373 452 1280 2150
2020-05-14 10:45 5.54 194 2920 (2009) 40 (2013) 382 52 69 98 107 184 373 452 1280 2150
2020-05-14 09:45 5.53 191 2920 (2009) 40 (2013) 382 52 69 98 107 184 373 452 1280 2150
2020-05-14 08:45 5.55 197 2920 (2009) 40 (2013) 382 52 69 98 107 184 373 452 1280 2150
2020-05-14 07:45 5.52 188 2920 (2009) 40 (2013) 382 52 69 98 107 184 373 452 1280 2150
2020-05-14 06:45 5.57 202 2920 (2009) 40 (2013) 382 52 69 98 107 184 373 452 1280 2150
2020-05-14 05:45 5.56 200 2920 (2009) 40 (2013) 382 52 69 98 107 184 373 452 1280 2150
2020-05-14 04:45 5.56 200 2920 (2009) 40 (2013) 382 52 69 98 107 184 373 452 1280 2150
2020-05-14 03:45 5.56 200 2920 (2009) 40 (2013) 382 52 69 98 107 184 373 452 1280 2150
2020-05-14 02:45 5.56 200 2920 (2009) 40 (2013) 382 52 69 98 107 184 373 452 1280 2150
2020-05-14 01:45 5.56 200 2920 (2009) 40 (2013) 382 52 69 98 107 184 373 452 1280 2150
2020-05-14 00:45 5.58 205 2920 (2009) 40 (2013) 382 52 69 98 107 184 373 452 1280 2150
2020-05-13 23:45 5.57 202 3810 (2014) 45 (2013) 438 54 65 99 106 207 357 610 1060 2810
2020-05-13 22:45 5.58 205 3810 (2014) 45 (2013) 438 54 65 99 106 207 357 610 1060 2810
2020-05-13 21:45 5.59 208 3810 (2014) 45 (2013) 438 54 65 99 106 207 357 610 1060 2810
2020-05-13 20:45 5.59 208 3810 (2014) 45 (2013) 438 54 65 99 106 207 357 610 1060 2810
2020-05-13 19:45 5.59 208 3810 (2014) 45 (2013) 438 54 65 99 106 207 357 610 1060 2810
2020-05-13 18:45 5.60 211 3810 (2014) 45 (2013) 438 54 65 99 106 207 357 610 1060 2810
2020-05-13 17:45 5.60 211 3810 (2014) 45 (2013) 438 54 65 99 106 207 357 610 1060 2810
2020-05-13 16:45 5.61 214 3810 (2014) 45 (2013) 438 54 65 99 106 207 357 610 1060 2810
2020-05-13 15:45 5.62 217 3810 (2014) 45 (2013) 438 54 65 99 106 207 357 610 1060 2810
2020-05-13 14:45 5.63 220 3810 (2014) 45 (2013) 438 54 65 99 106 207 357 610 1060 2810
2020-05-13 13:45 5.63 220 3810 (2014) 45 (2013) 438 54 65 99 106 207 357 610 1060 2810
2020-05-13 12:45 5.63 220 3810 (2014) 45 (2013) 438 54 65 99 106 207 357 610 1060 2810
2020-05-13 11:45 5.64 222 3810 (2014) 45 (2013) 438 54 65 99 106 207 357 610 1060 2810
2020-05-13 10:45 5.64 222 3810 (2014) 45 (2013) 438 54 65 99 106 207 357 610 1060 2810
2020-05-13 09:45 5.67 231 3810 (2014) 45 (2013) 438 54 65 99 106 207 357 610 1060 2810
2020-05-13 08:45 5.68 234 3810 (2014) 45 (2013) 438 54 65 99 106 207 357 610 1060 2810
2020-05-13 07:45 5.68 234 3810 (2014) 45 (2013) 438 54 65 99 106 207 357 610 1060 2810
2020-05-13 06:45 5.74 252 3810 (2014) 45 (2013) 438 54 65 99 106 207 357 610 1060 2810
2020-05-13 05:45 5.74 252 3810 (2014) 45 (2013) 438 54 65 99 106 207 357 610 1060 2810
2020-05-13 04:45 5.75 255 3810 (2014) 45 (2013) 438 54 65 99 106 207 357 610 1060 2810
2020-05-13 03:45 5.81 273 3810 (2014) 45 (2013) 438 54 65 99 106 207 357 610 1060 2810
2020-05-13 02:45 5.80 270 3810 (2014) 45 (2013) 438 54 65 99 106 207 357 610 1060 2810
2020-05-13 01:45 5.81 273 3810 (2014) 45 (2013) 438 54 65 99 106 207 357 610 1060 2810
2020-05-13 00:45 5.81 273 3810 (2014) 45 (2013) 438 54 65 99 106 207 357 610 1060 2810
2020-05-12 23:45 5.79 267 3050 (2009) 50 (2013) 373 58 65 94 112 186 365 397 1110 2110
2020-05-12 22:45 5.76 258 3050 (2009) 50 (2013) 373 58 65 94 112 186 365 397 1110 2110
2020-05-12 21:45 5.67 231 3050 (2009) 50 (2013) 373 58 65 94 112 186 365 397 1110 2110
2020-05-12 20:45 5.65 225 3050 (2009) 50 (2013) 373 58 65 94 112 186 365 397 1110 2110
2020-05-12 19:45 5.59 208 3050 (2009) 50 (2013) 373 58 65 94 112 186 365 397 1110 2110
2020-05-12 18:45 5.54 194 3050 (2009) 50 (2013) 373 58 65 94 112 186 365 397 1110 2110
2020-05-12 17:45 5.51 186 3050 (2009) 50 (2013) 373 58 65 94 112 186 365 397 1110 2110
2020-05-12 16:45 5.51 186 3050 (2009) 50 (2013) 373 58 65 94 112 186 365 397 1110 2110
2020-05-12 15:45 5.49 180 3050 (2009) 50 (2013) 373 58 65 94 112 186 365 397 1110 2110
2020-05-12 14:45 5.48 177 3050 (2009) 50 (2013) 373 58 65 94 112 186 365 397 1110 2110
2020-05-12 13:45 5.47 175 3050 (2009) 50 (2013) 373 58 65 94 112 186 365 397 1110 2110
2020-05-12 12:45 5.44 166 3050 (2009) 50 (2013) 373 58 65 94 112 186 365 397 1110 2110
2020-05-12 11:45 5.44 166 3050 (2009) 50 (2013) 373 58 65 94 112 186 365 397 1110 2110
2020-05-12 10:45 5.44 166 3050 (2009) 50 (2013) 373 58 65 94 112 186 365 397 1110 2110
2020-05-12 09:45 5.44 166 3050 (2009) 50 (2013) 373 58 65 94 112 186 365 397 1110 2110
2020-05-12 08:45 5.45 169 3050 (2009) 50 (2013) 373 58 65 94 112 186 365 397 1110 2110
2020-05-12 07:45 5.44 166 3050 (2009) 50 (2013) 373 58 65 94 112 186 365 397 1110 2110
2020-05-12 06:45 5.43 164 3050 (2009) 50 (2013) 373 58 65 94 112 186 365 397 1110 2110
2020-05-12 05:45 5.43 164 3050 (2009) 50 (2013) 373 58 65 94 112 186 365 397 1110 2110
2020-05-12 04:45 5.43 164 3050 (2009) 50 (2013) 373 58 65 94 112 186 365 397 1110 2110
2020-05-12 03:45 5.43 164 3050 (2009) 50 (2013) 373 58 65 94 112 186 365 397 1110 2110
2020-05-12 02:45 5.43 164 3050 (2009) 50 (2013) 373 58 65 94 112 186 365 397 1110 2110
2020-05-12 01:45 5.43 164 3050 (2009) 50 (2013) 373 58 65 94 112 186 365 397 1110 2110
2020-05-12 00:45 5.43 164 3050 (2009) 50 (2013) 373 58 65 94 112 186 365 397 1110 2110
2020-05-11 23:45 5.43 164 4360 (1996) 61 (2012) 518 61 66 92 101 180 259 427 1530 4260
2020-05-11 22:45 5.44 166 4360 (1996) 61 (2012) 518 61 66 92 101 180 259 427 1530 4260
2020-05-11 21:45 5.44 166 4360 (1996) 61 (2012) 518 61 66 92 101 180 259 427 1530 4260
2020-05-11 20:45 5.45 169 4360 (1996) 61 (2012) 518 61 66 92 101 180 259 427 1530 4260
2020-05-11 19:45 5.46 172 4360 (1996) 61 (2012) 518 61 66 92 101 180 259 427 1530 4260
2020-05-11 18:45 5.45 169 4360 (1996) 61 (2012) 518 61 66 92 101 180 259 427 1530 4260
2020-05-11 17:45 5.45 169 4360 (1996) 61 (2012) 518 61 66 92 101 180 259 427 1530 4260
2020-05-11 16:45 5.45 169 4360 (1996) 61 (2012) 518 61 66 92 101 180 259 427 1530 4260
2020-05-11 15:45 5.46 172 4360 (1996) 61 (2012) 518 61 66 92 101 180 259 427 1530 4260
2020-05-11 14:45 5.46 172 4360 (1996) 61 (2012) 518 61 66 92 101 180 259 427 1530 4260
2020-05-11 13:45 5.46 172 4360 (1996) 61 (2012) 518 61 66 92 101 180 259 427 1530 4260
2020-05-11 12:45 5.47 175 4360 (1996) 61 (2012) 518 61 66 92 101 180 259 427 1530 4260
2020-05-11 11:45 5.47 175 4360 (1996) 61 (2012) 518 61 66 92 101 180 259 427 1530 4260
2020-05-11 10:45 5.48 177 4360 (1996) 61 (2012) 518 61 66 92 101 180 259 427 1530 4260
2020-05-11 09:45 5.49 180 4360 (1996) 61 (2012) 518 61 66 92 101 180 259 427 1530 4260
2020-05-11 08:45 5.48 177 4360 (1996) 61 (2012) 518 61 66 92 101 180 259 427 1530 4260
2020-05-11 07:45 5.50 183 4360 (1996) 61 (2012) 518 61 66 92 101 180 259 427 1530 4260
2020-05-11 06:45 5.50 183 4360 (1996) 61 (2012) 518 61 66 92 101 180 259 427 1530 4260
2020-05-11 05:45 5.50 183 4360 (1996) 61 (2012) 518 61 66 92 101 180 259 427 1530 4260
2020-05-11 04:45 5.49 180 4360 (1996) 61 (2012) 518 61 66 92 101 180 259 427 1530 4260
2020-05-11 03:45 5.50 183 4360 (1996) 61 (2012) 518 61 66 92 101 180 259 427 1530 4260
2020-05-11 02:45 5.49 180 4360 (1996) 61 (2012) 518 61 66 92 101 180 259 427 1530 4260
2020-05-11 01:45 5.48 177 4360 (1996) 61 (2012) 518 61 66 92 101 180 259 427 1530 4260
2020-05-11 00:45 5.49 180 4360 (1996) 61 (2012) 518 61 66 92 101 180 259 427 1530 4260
2020-05-10 23:45 5.48 177 1410 (2015) 61 (2012) 318 61 67 96 98 184 276 341 1180 1340
2020-05-10 22:45 5.49 180 1410 (2015) 61 (2012) 318 61 67 96 98 184 276 341 1180 1340
2020-05-10 21:45 5.51 186 1410 (2015) 61 (2012) 318 61 67 96 98 184 276 341 1180 1340
2020-05-10 20:45 5.50 183 1410 (2015) 61 (2012) 318 61 67 96 98 184 276 341 1180 1340
2020-05-10 19:45 5.51 186 1410 (2015) 61 (2012) 318 61 67 96 98 184 276 341 1180 1340
2020-05-10 18:45 5.51 186 1410 (2015) 61 (2012) 318 61 67 96 98 184 276 341 1180 1340
2020-05-10 17:45 5.51 186 1410 (2015) 61 (2012) 318 61 67 96 98 184 276 341 1180 1340
2020-05-10 16:45 5.50 183 1410 (2015) 61 (2012) 318 61 67 96 98 184 276 341 1180 1340
2020-05-10 15:45 5.53 191 1410 (2015) 61 (2012) 318 61 67 96 98 184 276 341 1180 1340
2020-05-10 14:45 5.54 194 1410 (2015) 61 (2012) 318 61 67 96 98 184 276 341 1180 1340
2020-05-10 13:45 5.54 194 1410 (2015) 61 (2012) 318 61 67 96 98 184 276 341 1180 1340
2020-05-10 12:45 5.54 194 1410 (2015) 61 (2012) 318 61 67 96 98 184 276 341 1180 1340
2020-05-10 11:45 5.55 197 1410 (2015) 61 (2012) 318 61 67 96 98 184 276 341 1180 1340
2020-05-10 10:45 5.55 197 1410 (2015) 61 (2012) 318 61 67 96 98 184 276 341 1180 1340
2020-05-10 09:45 5.56 200 1410 (2015) 61 (2012) 318 61 67 96 98 184 276 341 1180 1340
2020-05-10 08:45 5.58 205 1410 (2015) 61 (2012) 318 61 67 96 98 184 276 341 1180 1340
2020-05-10 07:45 5.57 202 1410 (2015) 61 (2012) 318 61 67 96 98 184 276 341 1180 1340
2020-05-10 06:45 5.58 205 1410 (2015) 61 (2012) 318 61 67 96 98 184 276 341 1180 1340
2020-05-10 05:45 5.59 208 1410 (2015) 61 (2012) 318 61 67 96 98 184 276 341 1180 1340
2020-05-10 04:45 5.58 205 1410 (2015) 61 (2012) 318 61 67 96 98 184 276 341 1180 1340
2020-05-10 03:45 5.58 205 1410 (2015) 61 (2012) 318 61 67 96 98 184 276 341 1180 1340
2020-05-10 02:45 5.58 205 1410 (2015) 61 (2012) 318 61 67 96 98 184 276 341 1180 1340
2020-05-10 01:45 5.58 205 1410 (2015) 61 (2012) 318 61 67 96 98 184 276 341 1180 1340
2020-05-10 00:45 5.59 208 1410 (2015) 61 (2012) 318 61 67 96 98 184 276 341 1180 1340
2020-05-09 23:45 5.60 211 1980 (2015) 55 (2013) 290 61 68 97 103 161 307 320 466 1670
2020-05-09 22:45 5.61 214 1980 (2015) 55 (2013) 290 61 68 97 103 161 307 320 466 1670
2020-05-09 21:45 5.59 208 1980 (2015) 55 (2013) 290 61 68 97 103 161 307 320 466 1670
2020-05-09 20:45 5.62 217 1980 (2015) 55 (2013) 290 61 68 97 103 161 307 320 466 1670
2020-05-09 19:45 5.61 214 1980 (2015) 55 (2013) 290 61 68 97 103 161 307 320 466 1670
2020-05-09 18:45 5.63 220 1980 (2015) 55 (2013) 290 61 68 97 103 161 307 320 466 1670
2020-05-09 17:45 5.63 220 1980 (2015) 55 (2013) 290 61 68 97 103 161 307 320 466 1670
2020-05-09 16:45 5.64 222 1980 (2015) 55 (2013) 290 61 68 97 103 161 307 320 466 1670
2020-05-09 15:45 5.63 220 1980 (2015) 55 (2013) 290 61 68 97 103 161 307 320 466 1670
2020-05-09 14:45 5.68 234 1980 (2015) 55 (2013) 290 61 68 97 103 161 307 320 466 1670
2020-05-09 13:45 5.68 234 1980 (2015) 55 (2013) 290 61 68 97 103 161 307 320 466 1670
2020-05-09 12:45 5.67 231 1980 (2015) 55 (2013) 290 61 68 97 103 161 307 320 466 1670
2020-05-09 11:45 5.69 237 1980 (2015) 55 (2013) 290 61 68 97 103 161 307 320 466 1670
2020-05-09 10:45 5.71 243 1980 (2015) 55 (2013) 290 61 68 97 103 161 307 320 466 1670
2020-05-09 09:45 5.70 240 1980 (2015) 55 (2013) 290 61 68 97 103 161 307 320 466 1670
2020-05-09 08:45 5.73 249 1980 (2015) 55 (2013) 290 61 68 97 103 161 307 320 466 1670
2020-05-09 07:45 5.72 246 1980 (2015) 55 (2013) 290 61 68 97 103 161 307 320 466 1670
2020-05-09 06:45 5.77 261 1980 (2015) 55 (2013) 290 61 68 97 103 161 307 320 466 1670
2020-05-09 05:45 5.76 258 1980 (2015) 55 (2013) 290 61 68 97 103 161 307 320 466 1670
2020-05-09 04:45 5.77 261 1980 (2015) 55 (2013) 290 61 68 97 103 161 307 320 466 1670
2020-05-09 03:45 5.77 261 1980 (2015) 55 (2013) 290 61 68 97 103 161 307 320 466 1670
2020-05-09 02:45 5.81 273 1980 (2015) 55 (2013) 290 61 68 97 103 161 307 320 466 1670
2020-05-09 01:45 5.81 273 1980 (2015) 55 (2013) 290 61 68 97 103 161 307 320 466 1670
2020-05-09 00:45 5.85 285 1980 (2015) 55 (2013) 290 61 68 97 103 161 307 320 466 1670
2020-05-08 23:45 5.83 279 5100 (1995) 59 (2014) 382 59 68 72 104 156 305 346 652 2960
2020-05-08 22:45 5.89 297 5100 (1995) 59 (2014) 382 59 68 72 104 156 305 346 652 2960
2020-05-08 21:45 5.89 297 5100 (1995) 59 (2014) 382 59 68 72 104 156 305 346 652 2960
2020-05-08 20:45 5.93 310 5100 (1995) 59 (2014) 382 59 68 72 104 156 305 346 652 2960
2020-05-08 19:45 5.97 327 5100 (1995) 59 (2014) 382 59 68 72 104 156 305 346 652 2960
2020-05-08 18:45 6.01 354 5100 (1995) 59 (2014) 382 59 68 72 104 156 305 346 652 2960
2020-05-08 17:45 6.06 393 5100 (1995) 59 (2014) 382 59 68 72 104 156 305 346 652 2960
2020-05-08 16:45 6.11 433 5100 (1995) 59 (2014) 382 59 68 72 104 156 305 346 652 2960
2020-05-08 15:45 6.22 532 5100 (1995) 59 (2014) 382 59 68 72 104 156 305 346 652 2960
2020-05-08 14:45 6.32 633 5100 (1995) 59 (2014) 382 59 68 72 104 156 305 346 652 2960
2020-05-08 13:45 6.44 744 5100 (1995) 59 (2014) 382 59 68 72 104 156 305 346 652 2960
2020-05-08 12:45 6.51 803 5100 (1995) 59 (2014) 382 59 68 72 104 156 305 346 652 2960
2020-05-08 11:45 6.57 854 5100 (1995) 59 (2014) 382 59 68 72 104 156 305 346 652 2960
2020-05-08 10:45 6.85 1010 5100 (1995) 59 (2014) 382 59 68 72 104 156 305 346 652 2960
2020-05-08 09:45 6.74 965 5100 (1995) 59 (2014) 382 59 68 72 104 156 305 346 652 2960
2020-05-08 08:45 6.26 571 5100 (1995) 59 (2014) 382 59 68 72 104 156 305 346 652 2960
2020-05-08 07:45 6.09 417 5100 (1995) 59 (2014) 382 59 68 72 104 156 305 346 652 2960
2020-05-08 06:45 5.66 228 5100 (1995) 59 (2014) 382 59 68 72 104 156 305 346 652 2960
2020-05-08 05:45 5.55 197 5100 (1995) 59 (2014) 382 59 68 72 104 156 305 346 652 2960
2020-05-08 04:45 5.44 166 5100 (1995) 59 (2014) 382 59 68 72 104 156 305 346 652 2960
2020-05-08 03:45 5.44 166 5100 (1995) 59 (2014) 382 59 68 72 104 156 305 346 652 2960
2020-05-08 02:45 5.42 161 5100 (1995) 59 (2014) 382 59 68 72 104 156 305 346 652 2960
2020-05-08 01:45 5.42 161 5100 (1995) 59 (2014) 382 59 68 72 104 156 305 346 652 2960
2020-05-08 00:45 5.43 164 5100 (1995) 59 (2014) 382 59 68 72 104 156 305 346 652 2960
2020-05-07 23:45 5.43 164 3040 (1996) 51 (2014) 375 58 65 77 101 170 374 459 1200 2260
2020-05-07 22:45 5.41 158 3040 (1996) 51 (2014) 375 58 65 77 101 170 374 459 1200 2260
2020-05-07 21:45 5.44 166 3040 (1996) 51 (2014) 375 58 65 77 101 170 374 459 1200 2260
2020-05-07 20:45 5.42 161 3040 (1996) 51 (2014) 375 58 65 77 101 170 374 459 1200 2260
2020-05-07 19:45 5.43 164 3040 (1996) 51 (2014) 375 58 65 77 101 170 374 459 1200 2260
2020-05-07 18:45 5.44 166 3040 (1996) 51 (2014) 375 58 65 77 101 170 374 459 1200 2260
2020-05-07 17:45 5.44 166 3040 (1996) 51 (2014) 375 58 65 77 101 170 374 459 1200 2260
2020-05-07 16:45 5.43 164 3040 (1996) 51 (2014) 375 58 65 77 101 170 374 459 1200 2260
2020-05-07 15:45 5.43 164 3040 (1996) 51 (2014) 375 58 65 77 101 170 374 459 1200 2260
2020-05-07 14:45 5.43 164 3040 (1996) 51 (2014) 375 58 65 77 101 170 374 459 1200 2260
2020-05-07 13:45 5.44 166 3040 (1996) 51 (2014) 375 58 65 77 101 170 374 459 1200 2260
2020-05-07 12:45 5.44 166 3040 (1996) 51 (2014) 375 58 65 77 101 170 374 459 1200 2260
2020-05-07 11:45 5.43 164 3040 (1996) 51 (2014) 375 58 65 77 101 170 374 459 1200 2260
2020-05-07 10:45 5.43 164 3040 (1996) 51 (2014) 375 58 65 77 101 170 374 459 1200 2260
2020-05-07 09:45 5.44 166 3040 (1996) 51 (2014) 375 58 65 77 101 170 374 459 1200 2260
2020-05-07 08:45 5.45 169 3040 (1996) 51 (2014) 375 58 65 77 101 170 374 459 1200 2260
2020-05-07 07:45 5.44 166 3040 (1996) 51 (2014) 375 58 65 77 101 170 374 459 1200 2260
2020-05-07 06:45 5.45 169 3040 (1996) 51 (2014) 375 58 65 77 101 170 374 459 1200 2260
2020-05-07 05:45 5.44 166 3040 (1996) 51 (2014) 375 58 65 77 101 170 374 459 1200 2260
2020-05-07 04:45 5.46 172 3040 (1996) 51 (2014) 375 58 65 77 101 170 374 459 1200 2260
2020-05-07 03:45 5.44 166 3040 (1996) 51 (2014) 375 58 65 77 101 170 374 459 1200 2260
2020-05-07 02:45 5.44 166 3040 (1996) 51 (2014) 375 58 65 77 101 170 374 459 1200 2260
2020-05-07 01:45 5.46 172 3040 (1996) 51 (2014) 375 58 65 77 101 170 374 459 1200 2260
2020-05-07 00:45 5.45 169 3040 (1996) 51 (2014) 375 58 65 77 101 170 374 459 1200 2260

A total of 2194 rows are displayed for years 1989 through 2017.